Provisional Data: Starrucca Creek near Stevens Point, PA


Please select a monitoring station.
Please select start date.
Please select start date.

Toggle Unit: C/F Toggle Unit: C/F
Sample Time Temperature (C) Temperature (F) Specific Conductivity (mS/cm) pH   Turbidity (NTU+) DO (mg/L)
8/9/2021 12:00:00 AM 20.1 68.18 0.102 6.83 3.6 7.89
8/9/2021 12:15:00 AM 20 68 0.103 6.84 3.27 7.87
8/9/2021 12:30:00 AM 19.9 67.82 0.103 6.76 3.54 7.89
8/9/2021 12:45:00 AM 19.84 67.712 0.103 6.76 3.34 7.92
8/9/2021 1:00:00 AM 19.73 67.514 0.103 6.83 3.6 7.96
8/9/2021 1:15:00 AM 19.66 67.388 0.103 6.82 3.46 7.99
8/9/2021 1:30:00 AM 19.58 67.244 0.103 6.81 3.43 8.05
8/9/2021 1:45:00 AM 19.45 67.01 0.103 6.81 3.59 8.03
8/9/2021 2:00:00 AM 19.33 66.794 0.102 6.8 3.7 8.02
8/9/2021 2:15:00 AM 19.23 66.614 0.102 6.76 3.66 8.01
8/9/2021 2:30:00 AM 19.21 66.578 0.103 6.87 3.8 8.16
8/9/2021 2:45:00 AM 19.09 66.362 0.102 6.85 3.67 8.17
8/9/2021 3:00:00 AM 18.96 66.128 0.102 6.81 3.61 8.12
8/9/2021 3:15:00 AM 18.88 65.984 0.102 6.78 3.73 8.11
8/9/2021 3:30:00 AM 18.78 65.804 0.102 6.84 3.6 8.2
8/9/2021 3:45:00 AM 18.66 65.588 0.103 6.8 3.61 8.15
8/9/2021 4:00:00 AM 18.56 65.408 0.102 6.77 3.47 8.19
8/9/2021 4:15:00 AM 18.5 65.3 0.103 6.81 3.86 8.25
8/9/2021 4:30:00 AM 18.43 65.174 0.103 6.87 3.63 8.3
8/9/2021 4:45:00 AM 18.35 65.03 0.103 6.85 3.98 8.34
8/9/2021 5:00:00 AM 18.25 64.85 0.103 6.83 4.08 8.39
8/9/2021 5:15:00 AM 18.21 64.778 0.103 6.87 3.6 8.39
8/9/2021 5:30:00 AM 18.07 64.526 0.103 6.75 4.03 8.3
8/9/2021 5:45:00 AM 18.06 64.508 0.103 6.91 4 8.42
8/9/2021 6:00:00 AM 17.91 64.238 0.103 6.73 3.78 8.32
8/9/2021 6:15:00 AM 17.86 64.148 0.103 6.82 3.57 8.39
8/9/2021 6:30:00 AM 17.77 63.986 0.103 6.81 3.77 8.38
8/9/2021 6:45:00 AM 17.76 63.968 0.104 6.88 3.63 8.53
8/9/2021 7:00:00 AM 17.69 63.842 0.103 6.88 3.59 8.61
8/9/2021 7:15:00 AM 17.62 63.716 0.103 6.9 3.92 8.71
8/9/2021 7:30:00 AM 17.59 63.662 0.103 6.93 3.52 8.77
8/9/2021 7:45:00 AM 17.52 63.536 0.103 6.89 3.43 8.84
8/9/2021 8:00:00 AM 17.53 63.554 0.103 6.87 3.58 8.95
8/9/2021 8:15:00 AM 17.53 63.554 0.103 6.83 3.5 9.03
8/9/2021 8:30:00 AM 17.59 63.662 0.102 6.94 3.64 9.18
8/9/2021 8:45:00 AM 17.65 63.77 0.102 7.01 3.73 9.32
8/9/2021 9:00:00 AM 17.72 63.896 0.102 6.99 3.62 9.38
8/9/2021 9:15:00 AM 17.76 63.968 0.102 7 3.48 9.47
8/9/2021 9:30:00 AM 17.89 64.202 0.102 7.06 3.67 9.51
8/9/2021 9:45:00 AM 17.96 64.328 0.101 7 3.75 9.52
8/9/2021 10:00:00 AM 18.12 64.616 0.101 7.11 3.29 9.66
8/9/2021 10:15:00 AM 18.24 64.832 0.101 7.04 3.69 9.62
8/9/2021 10:30:00 AM 18.44 65.192 0.101 7.13 3.53 9.69
8/9/2021 10:45:00 AM 18.66 65.588 0.101 7.18 3.74 9.76
8/9/2021 11:00:00 AM 18.92 66.056 0.1 7.26 3.43 9.82
8/9/2021 11:15:00 AM 19.09 66.362 0.1 7.18 3.4 9.74
8/9/2021 11:30:00 AM 19.39 66.902 0.1 7.25 3.53 9.77
8/9/2021 11:45:00 AM 19.61 67.298 0.099 7.16 3.7 9.75
8/9/2021 12:00:00 PM 20.01 68.018 0.099 7.41 3.5 9.81
8/9/2021 12:15:00 PM 20.23 68.414 0.099 7.25 3.64 9.78
8/9/2021 12:30:00 PM 20.57 69.026 0.099 7.29 3.79 9.68
8/9/2021 12:45:00 PM 20.84 69.512 0.098 7.33 3.41 9.62
8/9/2021 1:00:00 PM 21.14 70.052 0.098 7.28 3.71 9.52
8/9/2021 1:15:00 PM 21.54 70.772 0.098 7.31 3.61 9.49
8/9/2021 1:30:00 PM 21.77 71.186 0.098 7.41 3.63 9.47
8/9/2021 1:45:00 PM 22.17 71.906 0.098 7.44 3.45 9.45
8/9/2021 2:00:00 PM 22.43 72.374 0.097 7.55 3.54 9.42
8/9/2021 2:15:00 PM 22.72 72.896 0.098 7.63 3.68 9.32
8/9/2021 2:30:00 PM 23.02 73.436 0.098 7.46 3.59 9.24
8/9/2021 2:45:00 PM 23.12 73.616 0.098 7.48 3.51 9.1
8/9/2021 3:00:00 PM 23.4 74.12 0.098 7.6 3.52 9.07
8/9/2021 3:15:00 PM 23.38 74.084 0.098 7.4 3.32 8.95
8/9/2021 3:30:00 PM 23.55 74.39 0.098 7.58 3.3 8.89
8/9/2021 3:45:00 PM 23.59 74.462 0.098 7.34 3.5 8.78
8/9/2021 4:00:00 PM 23.48 74.264 0.098 7.24 3.35 8.7
8/9/2021 4:15:00 PM 23.54 74.372 0.098 7.31 3.23 8.65
8/9/2021 4:30:00 PM 23.66 74.588 0.099 7.28 3.18 8.67
8/9/2021 4:45:00 PM 23.46 74.228 0.099 7.19 3.3 8.51
8/9/2021 5:00:00 PM 23.4 74.12 0.099 7.07 3.45 8.39
8/9/2021 5:15:00 PM 23.46 74.228 0.1 7.13 3.28 8.31
8/9/2021 5:30:00 PM 23.31 73.958 0.1 7.11 3.18 8.16
8/9/2021 5:45:00 PM 23.12 73.616 0.101 6.99 3.19 7.97
8/9/2021 6:00:00 PM 22.97 73.346 0.101 6.99 3.33 8.03
8/9/2021 6:15:00 PM 22.88 73.184 0.101 7.02 3.28 8.02
8/9/2021 6:30:00 PM 22.74 72.932 0.101 6.92 3.46 7.96
8/9/2021 6:45:00 PM 22.7 72.86 0.101 6.99 3.71 7.87
8/9/2021 7:00:00 PM 22.75 72.95 0.102 7.04 3.47 7.95
8/9/2021 7:15:00 PM 22.57 72.626 0.102 6.92 3.23 7.86
8/9/2021 7:30:00 PM 22.53 72.554 0.102 6.93 3.24 7.87
8/9/2021 7:45:00 PM 22.35 72.23 0.102 6.9 3.29 7.76
8/9/2021 8:00:00 PM 22.33 72.194 0.103 6.95 3.52 7.76
8/9/2021 8:15:00 PM 22.11 71.798 0.103 6.88 3.71 7.69
8/9/2021 8:30:00 PM 21.99 71.582 0.103 6.81 3.4 7.68
8/9/2021 8:45:00 PM 21.89 71.402 0.103 6.8 3.74 7.58
8/9/2021 9:00:00 PM 21.74 71.132 0.103 6.85 3.66 7.62
8/9/2021 9:15:00 PM 21.66 70.988 0.104 6.84 3.71 7.55
8/9/2021 9:30:00 PM 21.56 70.808 0.103 6.87 3.62 7.58
8/9/2021 9:45:00 PM 21.56 70.808 0.104 6.83 3.63 7.63
8/9/2021 10:00:00 PM 21.43 70.574 0.104 6.83 3.64 7.58
8/9/2021 10:15:00 PM 21.39 70.502 0.104 6.84 3.56 7.66
8/9/2021 10:30:00 PM 21.27 70.286 0.104 6.84 3.67 7.65
8/9/2021 10:45:00 PM 21.17 70.106 0.104 6.81 3.66 7.61
8/9/2021 11:00:00 PM 21.11 69.998 0.104 6.86 3.79 7.72
8/9/2021 11:15:00 PM 21.06 69.908 0.104 6.91 3.67 7.77
8/9/2021 11:30:00 PM 20.94 69.692 0.105 6.83 3.35 7.73
8/9/2021 11:45:00 PM 20.82 69.476 0.105 6.81 3.76 7.74
8/10/2021 12:00:00 AM 20.73 69.314 0.105 6.75 3.65 7.72
8/10/2021 12:15:00 AM 20.68 69.224 0.105 6.86 3.54 7.79
8/10/2021 12:30:00 AM 20.64 69.152 0.105 6.89 3.96 7.85
8/10/2021 12:45:00 AM 20.48 68.864 0.105 6.79 3.75 7.74
8/10/2021 1:00:00 AM 20.41 68.738 0.105 6.8 3.6 7.79
8/10/2021 1:15:00 AM 20.42 68.756 0.105 6.85 3.67 7.83
8/10/2021 1:30:00 AM 20.31 68.558 0.105 6.84 3.61 7.88
8/10/2021 1:45:00 AM 20.14 68.252 0.105 6.81 3.69 7.84
8/10/2021 2:00:00 AM 20.22 68.396 0.105 6.88 3.85 7.95
8/10/2021 2:15:00 AM 20.08 68.144 0.105 6.85 3.7 7.92
8/10/2021 2:30:00 AM 20.02 68.036 0.105 6.83 3.66 7.94
8/10/2021 2:45:00 AM 19.97 67.946 0.105 6.92 3.82 8.02
8/10/2021 3:00:00 AM 19.87 67.766 0.105 6.86 3.5 7.97
8/10/2021 3:15:00 AM 19.84 67.712 0.105 6.83 3.84 7.96
8/10/2021 3:30:00 AM 19.79 67.622 0.105 6.86 3.74 8
8/10/2021 3:45:00 AM 19.73 67.514 0.105 6.84 4.14 8.03
8/10/2021 4:00:00 AM 19.66 67.388 0.105 6.84 3.68 7.98
8/10/2021 4:15:00 AM 19.67 67.406 0.105 6.89 3.82 7.95
8/10/2021 4:30:00 AM 19.61 67.298 0.106 6.87 4.03 8.07
8/10/2021 4:45:00 AM 19.59 67.262 0.105 6.88 3.95 8.12
8/10/2021 5:00:00 AM 19.49 67.082 0.105 6.85 3.47 8.05
8/10/2021 5:15:00 AM 19.48 67.064 0.105 6.91 3.77 8.11
8/10/2021 5:30:00 AM 19.44 66.992 0.105 6.85 3.9 8.08
8/10/2021 5:45:00 AM 19.36 66.848 0.105 6.83 3.82 8.07
8/10/2021 6:00:00 AM 19.34 66.812 0.105 6.86 3.78 8.13
8/10/2021 6:15:00 AM 19.31 66.758 0.105 6.87 3.76 8.14
8/10/2021 6:30:00 AM 19.25 66.65 0.105 6.86 3.67 8.15
8/10/2021 6:45:00 AM 19.26 66.668 0.105 6.9 4.55 8.18
8/10/2021 7:00:00 AM 19.24 66.632 0.105 6.89 3.99 8.23
8/10/2021 7:15:00 AM 19.21 66.578 0.105 6.87 3.81 8.22
8/10/2021 7:30:00 AM 19.15 66.47 0.105 6.86 3.58 8.27
8/10/2021 7:45:00 AM 19.13 66.434 0.105 6.85 3.83 8.28
8/10/2021 8:00:00 AM 19.18 66.524 0.105 6.89 3.72 8.37
8/10/2021 8:15:00 AM 19.24 66.632 0.106 6.94 3.67 8.42
8/10/2021 8:30:00 AM 19.22 66.596 0.105 6.93 3.76 8.54
8/10/2021 8:45:00 AM 19.2 66.56 0.105 6.95 3.58 8.67
8/10/2021 9:00:00 AM 19.27 66.686 0.105 6.94 3.35 8.67
8/10/2021 9:15:00 AM 19.3 66.74 0.105 6.98 3.59 8.81
8/10/2021 9:30:00 AM 19.31 66.758 0.105 6.99 3.56 8.86
8/10/2021 9:45:00 AM 19.48 67.064 0.104 7.07 3.95 9.1
8/10/2021 10:00:00 AM 19.57 67.226 0.104 7.1 3.59 9.26
8/10/2021 10:15:00 AM 19.64 67.352 0.103 7.12 3.81 9.39
8/10/2021 10:30:00 AM 19.88 67.784 0.103 7.18 3.89 9.5
8/10/2021 10:45:00 AM 20.02 68.036 0.103 7.17 3.68 9.55
8/10/2021 11:00:00 AM 20.17 68.306 0.103 7.26 3.46 9.5
8/10/2021 11:15:00 AM 20.08 68.144 0.102 7.12 3.66 9.29
8/10/2021 11:30:00 AM 20.27 68.486 0.102 7.23 3.63 9.44
8/10/2021 11:45:00 AM 20.39 68.702 0.102 7.26 3.51 9.56
8/10/2021 12:00:00 PM 20.44 68.792 0.102 7.24 3.85 9.45
8/10/2021 12:15:00 PM 20.56 69.008 0.102 7.23 3.42 9.4
8/10/2021 12:30:00 PM 20.69 69.242 0.102 7.25 3.54 9.41
8/10/2021 12:45:00 PM 20.78 69.404 0.101 7.25 3.61 9.4
8/10/2021 1:00:00 PM 21.01 69.818 0.101 7.24 3.63 9.57
8/10/2021 1:15:00 PM 21.22 70.196 0.101 7.31 3.68 9.55
8/10/2021 1:30:00 PM 21.38 70.484 0.101 7.45 3.37 9.54
8/10/2021 1:45:00 PM 21.57 70.826 0.101 7.53 3.58 9.54
8/10/2021 2:00:00 PM 21.89 71.402 0.101 7.62 3.47 9.46
8/10/2021 2:15:00 PM 22.12 71.816 0.101 7.7 4.08 9.47
8/10/2021 2:30:00 PM 22.32 72.176 0.101 7.73 3.66 9.45
8/10/2021 2:45:00 PM 22.38 72.284 0.101 7.43 3.47 9.35
8/10/2021 3:00:00 PM 22.64 72.752 0.1 7.77 3.63 9.31
8/10/2021 3:15:00 PM 22.75 72.95 0.101 7.71 3.54 9.29
8/10/2021 3:30:00 PM 22.81 73.058 0.101 7.67 3.52 9.26
8/10/2021 3:45:00 PM 22.72 72.896 0.1 7.54 3.47 9.17
8/10/2021 4:00:00 PM 22.73 72.914 0.1 7.45 3.61 9.04
8/10/2021 4:15:00 PM 22.79 73.022 0.1 7.48 3.43 9.06
8/10/2021 4:30:00 PM 22.75 72.95 0.1 7.36 3.52 8.82
8/10/2021 4:45:00 PM 22.78 73.004 0.1 7.42 3.7 8.9
8/10/2021 5:00:00 PM 22.79 73.022 0.101 7.34 3.64 8.77
8/10/2021 5:15:00 PM 22.76 72.968 0.1 7.24 3.91 8.69
8/10/2021 5:30:00 PM 22.9 73.22 0.101 7.23 3.58 8.53
8/10/2021 5:45:00 PM 22.88 73.184 0.101 7.15 3.5 8.48
8/10/2021 6:00:00 PM 22.91 73.238 0.101 7.21 3.46 8.41
8/10/2021 6:15:00 PM 22.91 73.238 0.101 7.16 3.3 8.43
8/10/2021 6:30:00 PM 22.84 73.112 0.102 7.11 3.35 8.37
8/10/2021 6:45:00 PM 22.79 73.022 0.101 7.16 3.49 8.34
8/10/2021 7:00:00 PM 22.79 73.022 0.102 7.15 3.55 8.27
8/10/2021 7:15:00 PM 22.8 73.04 0.102 7.19 3.62 8.24
8/10/2021 7:30:00 PM 22.68 72.824 0.102 7.02 3.4 8.08
8/10/2021 7:45:00 PM 22.61 72.698 0.102 7.01 3.55 7.97
8/10/2021 8:00:00 PM 22.55 72.59 0.103 7 3.41 7.87
8/10/2021 8:15:00 PM 22.31 72.158 0.103 6.87 3.67 7.72
8/10/2021 8:30:00 PM 22.4 72.32 0.104 6.93 3.66 7.69
8/10/2021 8:45:00 PM 22.25 72.05 0.104 6.94 3.73 7.62
8/10/2021 9:00:00 PM 22.2 71.96 0.104 6.91 3.63 7.55
8/10/2021 9:15:00 PM 22.04 71.672 0.104 6.88 3.82 7.5
8/10/2021 9:30:00 PM 21.96 71.528 0.104 6.82 3.81 7.47
8/10/2021 9:45:00 PM 21.91 71.438 0.104 6.86 3.71 7.51
8/10/2021 10:00:00 PM 21.9 71.42 0.105 6.9 3.61 7.55
8/10/2021 10:15:00 PM 21.82 71.276 0.105 6.88 3.7 7.52
8/10/2021 10:30:00 PM 21.69 71.042 0.105 6.79 3.76 7.5
8/10/2021 10:45:00 PM 21.63 70.934 0.106 6.84 4.05 7.54
8/10/2021 11:00:00 PM 21.5 70.7 0.105 6.79 3.81 7.5
8/10/2021 11:15:00 PM 21.49 70.682 0.106 6.86 3.67 7.6
8/10/2021 11:30:00 PM 21.48 70.664 0.106 6.91 3.67 7.68
8/10/2021 11:45:00 PM 21.32 70.376 0.106 6.87 3.57 7.58
8/11/2021 12:00:00 AM 21.22 70.196 0.106 6.82 3.68 7.63
8/11/2021 12:15:00 AM 21.1 69.98 0.106 6.8 3.74 7.58
8/11/2021 12:30:00 AM 21.13 70.034 0.106 6.84 3.71 7.65
8/11/2021 12:45:00 AM 21.1 69.98 0.107 6.9 3.71 7.69
8/11/2021 1:00:00 AM 21.06 69.908 0.107 6.92 3.84 7.73
8/11/2021 1:15:00 AM 20.93 69.674 0.106 6.84 3.77 7.69
8/11/2021 1:30:00 AM 20.96 69.728 0.106 6.9 3.92 7.74
8/11/2021 1:45:00 AM 20.88 69.584 0.107 6.83 3.79 7.68
8/11/2021 2:00:00 AM 20.89 69.602 0.106 6.93 3.85 7.77
8/11/2021 2:15:00 AM 20.87 69.566 0.107 6.92 3.77 7.8
8/11/2021 2:30:00 AM 20.82 69.476 0.107 6.89 4.11 7.78
8/11/2021 2:45:00 AM 20.77 69.386 0.106 6.87 4.14 7.76
8/11/2021 3:00:00 AM 20.71 69.278 0.107 6.9 4.09 7.78
8/11/2021 3:15:00 AM 20.72 69.296 0.107 6.96 4.31 7.86
8/11/2021 3:30:00 AM 20.62 69.116 0.107 6.89 3.85 7.8
8/11/2021 3:45:00 AM 20.62 69.116 0.107 6.91 3.96 7.86
8/11/2021 4:00:00 AM 20.55 68.99 0.107 6.86 3.83 7.84
8/11/2021 4:15:00 AM 20.43 68.774 0.107 6.84 3.95 7.78
8/11/2021 4:30:00 AM 20.4 68.72 0.107 6.89 4.1 7.84
8/11/2021 4:45:00 AM 20.27 68.486 0.106 6.82 3.87 7.83
8/11/2021 5:00:00 AM 20.25 68.45 0.106 6.82 4.03 7.85
8/11/2021 5:15:00 AM 20.22 68.396 0.107 6.92 3.88 7.89
8/11/2021 5:30:00 AM 20.2 68.36 0.107 6.9 4.24 7.86
8/11/2021 5:45:00 AM 20.13 68.234 0.107 6.87 3.86 7.94
8/11/2021 6:00:00 AM 20 68 0.106 6.83 3.98 7.86
8/11/2021 6:15:00 AM 19.98 67.964 0.107 6.85 3.87 7.91
8/11/2021 6:30:00 AM 19.93 67.874 0.106 6.86 3.92 7.94
8/11/2021 6:45:00 AM 19.88 67.784 0.107 6.89 4.02 7.98
8/11/2021 7:00:00 AM 19.88 67.784 0.107 6.92 4.18 8.09
8/11/2021 7:15:00 AM 19.81 67.658 0.107 6.88 3.86 8.13
8/11/2021 7:30:00 AM 19.7 67.46 0.106 6.83 4.26 8.19
8/11/2021 7:45:00 AM 19.76 67.568 0.106 6.88 3.93 8.29
8/11/2021 8:00:00 AM 19.79 67.622 0.106 6.9 3.88 8.48
8/11/2021 8:15:00 AM 19.79 67.622 0.106 6.92 3.99 8.53
8/11/2021 8:30:00 AM 19.87 67.766 0.106 7.06 3.86 8.75
8/11/2021 8:45:00 AM 19.87 67.766 0.105 7.06 3.82 8.85
8/11/2021 9:00:00 AM 19.93 67.874 0.106 7.07 4.11 8.83
8/11/2021 9:15:00 AM 19.8 67.64 0.105 6.96 3.74 8.78
8/11/2021 9:30:00 AM 19.95 67.91 0.105 7.08 3.89 8.93
8/11/2021 9:45:00 AM 20.05 68.09 0.105 7.15 3.71 9.04
8/11/2021 10:00:00 AM 20.06 68.108 0.105 7.11 3.84 9.09
8/11/2021 10:15:00 AM 20.12 68.216 0.105 7.1 3.55 9.15
8/11/2021 10:30:00 AM 20.15 68.27 0.104 7.06 3.79 9.19
8/11/2021 10:45:00 AM 20.37 68.666 0.104 7.25 3.87 9.42
8/11/2021 11:00:00 AM 20.41 68.738 0.104 7.2 3.87 9.37
8/11/2021 11:15:00 AM 20.61 69.098 0.104 7.31 3.9 9.45
8/11/2021 11:30:00 AM 20.57 69.026 0.103 7.13 3.76 9.32
8/11/2021 11:45:00 AM 20.77 69.386 0.103 7.1 3.64 9.31
8/11/2021 12:00:00 PM 21.02 69.836 0.103 7.33 3.63 9.47
8/11/2021 12:15:00 PM 21.29 70.32201 0.103 7.39 3.61 9.53
8/11/2021 12:30:00 PM 21.56 70.808 0.103 7.51 3.72 9.51
8/11/2021 12:45:00 PM 21.79 71.222 0.102 7.44 3.6 9.37
8/11/2021 1:00:00 PM 21.91 71.438 0.102 7.33 3.68 9.3
8/11/2021 1:15:00 PM 22.06 71.708 0.102 7.19 3.77 9.23
8/11/2021 1:30:00 PM 22.4 72.32 0.102 7.48 3.76 9.31
8/11/2021 1:45:00 PM 22.58 72.644 0.102 7.43 3.68 9.3
8/11/2021 2:00:00 PM 22.76 72.968 0.102 7.42 3.76 9.28
8/11/2021 2:15:00 PM 22.81 73.058 0.102 7.46 3.76 9.17
8/11/2021 2:30:00 PM 22.89 73.202 0.102 7.37 3.85 9.05
8/11/2021 2:45:00 PM 23.1 73.58 0.102 7.6 3.61 9.09
8/11/2021 3:00:00 PM 23.09 73.562 0.102 7.31 3.85 8.92
8/11/2021 3:15:00 PM 23.21 73.778 0.102 7.39 3.72 8.99
8/11/2021 3:30:00 PM 23.3 73.94 0.102 7.62 3.77 9.06
8/11/2021 3:45:00 PM 23.42 74.156 0.101 7.45 3.54 8.89
8/11/2021 4:00:00 PM 23.57 74.426 0.102 7.52 3.61 8.9
8/11/2021 4:15:00 PM 23.63 74.534 0.101 7.5 3.57 8.82
8/11/2021 4:30:00 PM 23.61 74.498 0.101 7.35 3.38 8.7
8/11/2021 4:45:00 PM 23.73 74.714 0.102 7.34 3.47 8.59
8/11/2021 5:00:00 PM 23.87 74.966 0.102 7.41 3.57 8.61
8/11/2021 5:15:00 PM 23.88 74.984 0.102 7.34 3.58 8.5
8/11/2021 5:30:00 PM 23.76 74.768 0.103 7.35 3.65 8.43
8/11/2021 5:45:00 PM 23.67 74.606 0.103 7.24 3.57 8.38
8/11/2021 6:00:00 PM 23.58 74.444 0.103 7.16 3.42 8.31
8/11/2021 6:15:00 PM 23.54 74.372 0.103 7.06 3.63 8.33
8/11/2021 6:30:00 PM 23.47 74.246 0.103 7.2 3.63 8.29
8/11/2021 6:45:00 PM 23.54 74.372 0.103 7.23 3.52 8.27
8/11/2021 7:00:00 PM 23.44 74.192 0.103 7.11 3.69 8.09
8/11/2021 7:15:00 PM 23.49 74.282 0.104 7.16 3.67 7.99
8/11/2021 7:30:00 PM 23.36 74.048 0.104 7.04 3.5 7.84
8/11/2021 7:45:00 PM 23.31 73.958 0.105 7.01 3.66 7.76
8/11/2021 8:00:00 PM 23.22 73.796 0.105 7.01 3.53 7.66
8/11/2021 8:15:00 PM 23.12 73.616 0.106 6.98 3.72 7.51
8/11/2021 8:30:00 PM 23.02 73.436 0.106 6.99 3.85 7.42
8/11/2021 8:45:00 PM 22.9 73.22 0.106 6.89 3.8 7.44
8/11/2021 9:00:00 PM 22.87 73.166 0.106 6.92 3.85 7.38
8/11/2021 9:15:00 PM 22.78 73.004 0.107 6.9 3.77 7.35
8/11/2021 9:30:00 PM 22.69 72.842 0.107 6.87 4.16 7.33
8/11/2021 9:45:00 PM 22.57 72.626 0.107 6.86 3.79 7.34
8/11/2021 10:00:00 PM 22.56 72.608 0.107 6.89 4.02 7.33
8/11/2021 10:15:00 PM 22.45 72.41 0.107 6.86 3.92 7.35
8/11/2021 10:30:00 PM 22.41 72.338 0.107 6.87 4.06 7.39
8/11/2021 10:45:00 PM 22.3 72.14 0.107 6.88 4.04 7.42
8/11/2021 11:00:00 PM 22.26 72.068 0.108 6.87 3.76 7.46
8/11/2021 11:15:00 PM 22.18 71.924 0.108 6.92 4 7.47
8/11/2021 11:30:00 PM 22.05 71.69 0.108 6.89 3.76 7.51
8/11/2021 11:45:00 PM 21.98 71.564 0.108 6.91 3.96 7.5
8/12/2021 12:00:00 AM 21.99 71.582 0.109 6.94 3.82 7.48
8/12/2021 12:15:00 AM 21.92 71.456 0.108 6.93 3.83 7.44
8/12/2021 12:30:00 AM 21.83 71.294 0.109 6.91 4.19 7.54
8/12/2021 12:45:00 AM 21.74 71.132 0.109 6.9 5 7.56
8/12/2021 1:00:00 AM 21.71 71.078 0.109 6.87 4.5 7.54
8/12/2021 1:15:00 AM 21.63 70.934 0.109 6.96 4.06 7.6
8/12/2021 1:30:00 AM 21.56 70.808 0.109 6.92 4.13 7.64
8/12/2021 1:45:00 AM 21.51 70.718 0.109 6.94 3.93 7.66
8/12/2021 2:00:00 AM 21.44 70.592 0.109 6.9 3.96 7.65
8/12/2021 2:15:00 AM 21.35 70.43 0.109 6.95 3.88 7.67
8/12/2021 2:30:00 AM 21.31 70.358 0.109 6.95 4.09 7.7
8/12/2021 2:45:00 AM 21.15 70.07 0.109 6.86 4.12 7.58
8/12/2021 3:00:00 AM 21.12 70.016 0.109 6.9 4.3 7.7
8/12/2021 3:15:00 AM 21.07 69.926 0.109 6.91 4.06 7.67
8/12/2021 3:30:00 AM 21.03 69.854 0.109 6.93 4.21 7.74
8/12/2021 3:45:00 AM 20.92 69.656 0.109 6.9 3.95 7.75
8/12/2021 4:00:00 AM 20.85 69.53 0.109 6.94 3.89 7.79
8/12/2021 4:15:00 AM 20.78 69.404 0.109 6.94 3.87 7.79
8/12/2021 4:30:00 AM 20.68 69.224 0.109 6.9 3.99 7.75
8/12/2021 4:45:00 AM 20.6 69.08 0.109 6.88 3.93 7.81
8/12/2021 5:00:00 AM 20.57 69.026 0.109 6.9 3.96 7.81
8/12/2021 5:15:00 AM 20.5 68.9 0.109 6.83 3.97 7.83
8/12/2021 5:30:00 AM 20.46 68.828 0.109 6.9 4.05 7.85
8/12/2021 5:45:00 AM 20.42 68.756 0.109 6.93 4.2 7.9
8/12/2021 6:00:00 AM 20.33 68.594 0.109 6.82 4.22 7.82
8/12/2021 6:15:00 AM 20.3 68.54 0.109 6.92 4.13 7.91
8/12/2021 6:30:00 AM 20.26 68.468 0.109 6.93 4.15 7.95
8/12/2021 6:45:00 AM 20.23 68.414 0.109 6.98 4.27 8.02
8/12/2021 7:00:00 AM 20.13 68.234 0.109 6.88 4.18 8.03
8/12/2021 7:15:00 AM 20.09 68.162 0.109 6.93 4.26 8.06
8/12/2021 7:30:00 AM 20.12 68.216 0.109 6.98 4.01 8.2
8/12/2021 7:45:00 AM 20.05 68.09 0.109 6.97 5.03 8.3
8/12/2021 8:00:00 AM 20.05 68.09 0.108 7 3.86 8.41
8/12/2021 8:15:00 AM 20.11 68.198 0.109 7.06 4.24 8.6
8/12/2021 8:30:00 AM 20.14 68.252 0.109 7.03 3.82 8.67
8/12/2021 8:45:00 AM 20.12 68.216 0.108 7.03 3.91 8.69
8/12/2021 9:00:00 AM 20.23 68.414 0.108 7.1 3.88 8.83
8/12/2021 9:15:00 AM 20.29 68.522 0.107 7.09 3.77 8.89
8/12/2021 9:30:00 AM 20.32 68.576 0.107 7.09 3.92 8.95
8/12/2021 9:45:00 AM 20.5 68.9 0.107 7.21 3.72 9.05
8/12/2021 10:00:00 AM 20.67 69.206 0.107 7.16 3.78 9.11
8/12/2021 10:15:00 AM 20.82 69.476 0.107 7.25 3.74 9.1
8/12/2021 10:30:00 AM 20.92 69.656 0.106 7.19 3.86 9.05
8/12/2021 10:45:00 AM 21.1 69.98 0.106 7.16 3.94 9.07
8/12/2021 11:00:00 AM 21.33 70.394 0.106 7.21 3.9 9.15
8/12/2021 11:15:00 AM 21.71 71.078 0.106 7.43 3.7 9.26
8/12/2021 11:30:00 AM 21.92 71.456 0.106 7.25 4.04 9.2
8/12/2021 11:45:00 AM 22.15 71.87 0.105 7.27 3.8 9.17
8/12/2021 12:00:00 PM 22.52 72.536 0.105 7.41 3.69 9.29
8/12/2021 12:15:00 PM 22.65 72.77 0.104 7.4 3.64 9.27
8/12/2021 12:30:00 PM 22.93 73.274 0.105 7.45 3.67 9.2
8/12/2021 12:45:00 PM 23.32 73.976 0.105 7.67 3.75 9.34
8/12/2021 1:00:00 PM 23.62 74.516 0.104 7.8 3.8 9.23
8/12/2021 1:15:00 PM 23.83 74.894 0.104 7.66 3.8 9.2
8/12/2021 1:30:00 PM 24.12 75.416 0.104 7.82 3.79 9.17
8/12/2021 1:45:00 PM 24.37 75.866 0.104 7.85 3.86 9.03
8/12/2021 2:00:00 PM 24.56 76.208 0.104 7.57 3.52 8.88
8/12/2021 2:15:00 PM 24.8 76.64 0.104 7.65 3.57 8.9
8/12/2021 2:30:00 PM 25.09 77.162 0.104 7.85 3.52 8.9
8/12/2021 2:45:00 PM 25.15 77.27 0.104 7.71 3.53 8.79
8/12/2021 3:00:00 PM 25.33 77.594 0.104 7.86 3.63 8.74
8/12/2021 3:15:00 PM 25.36 77.648 0.104 7.82 3.55 8.61
8/12/2021 3:30:00 PM 25.39 77.702 0.104 7.71 3.5 8.63
8/12/2021 3:45:00 PM 25.48 77.864 0.104 7.82 3.66 8.36
8/12/2021 4:00:00 PM 25.39 77.702 0.104 7.54 3.52 8.18
8/12/2021 4:15:00 PM 25.33 77.594 0.104 7.55 3.42 8.07
8/12/2021 4:30:00 PM 25.29 77.522 0.105 7.29 3.55 7.92
8/12/2021 4:45:00 PM 25.22 77.396 0.105 7.32 3.57 7.83
8/12/2021 5:00:00 PM 25.18 77.324 0.106 7.42 3.32 7.92
8/12/2021 5:15:00 PM 25.05 77.09 0.106 7.37 3.6 8.07
8/12/2021 5:30:00 PM 25.02 77.036 0.106 7.37 3.53 8.08
8/12/2021 5:45:00 PM 24.92 76.856 0.106 7.28 3.49 7.95
8/12/2021 6:00:00 PM 24.91 76.838 0.105 7.18 3.73 8
8/12/2021 6:15:00 PM 24.92 76.856 0.105 7.32 3.41 7.91
8/12/2021 6:30:00 PM 24.82 76.676 0.106 7.4 3.62 7.78
8/12/2021 6:45:00 PM 24.76 76.568 0.106 7.56 3.63 7.76
8/12/2021 7:00:00 PM 24.61 76.298 0.106 7.46 3.61 7.65
8/12/2021 7:15:00 PM 24.47 76.046 0.107 7.47 3.58 7.64
8/12/2021 7:30:00 PM 24.34 75.812 0.107 7.47 3.61 7.55
8/12/2021 7:45:00 PM 24.15 75.47 0.108 7.39 3.59 7.48
8/12/2021 8:00:00 PM 23.96 75.128 0.108 7.34 3.67 7.42
8/12/2021 8:15:00 PM 23.8 74.84 0.108 7.36 3.82 7.38
8/12/2021 8:30:00 PM 23.75 74.75 0.108 7.36 3.84 7.33
8/12/2021 8:45:00 PM 23.61 74.498 0.108 7.28 3.79 7.31
8/12/2021 9:00:00 PM 23.56 74.408 0.108 7.3 3.93 7.31
8/12/2021 9:15:00 PM 23.46 74.228 0.108 7.33 3.99 7.3
8/12/2021 9:30:00 PM 23.28 73.904 0.108 7.25 4.07 7.26
8/12/2021 9:45:00 PM 23.17 73.706 0.108 7.25 3.87 7.28
8/12/2021 10:00:00 PM 23.15 73.67 0.109 7.29 4.05 7.31
8/12/2021 10:15:00 PM 23.05 73.49 0.109 7.22 3.79 7.34
8/12/2021 10:30:00 PM 23.02 73.436 0.109 7.28 4.03 7.35
8/12/2021 10:45:00 PM 22.93 73.274 0.109 7.26 4.08 7.33
8/12/2021 11:00:00 PM 22.81 73.058 0.109 7.24 3.97 7.32
8/12/2021 11:15:00 PM 22.71 72.878 0.109 7.27 3.9 7.36
8/12/2021 11:30:00 PM 22.7 72.86 0.11 7.28 4.31 7.41
8/12/2021 11:45:00 PM 22.58 72.644 0.109 7.28 4.16 7.42
8/13/2021 12:00:00 AM 22.5 72.5 0.11 7.25 4.03 7.4
8/13/2021 12:15:00 AM 22.51 72.518 0.11 7.29 4.03 7.47
8/13/2021 12:30:00 AM 22.43 72.374 0.11 7.32 3.99 7.52
8/13/2021 12:45:00 AM 22.3 72.14 0.11 7.26 4.26 7.48
8/13/2021 1:00:00 AM 22.23 72.014 0.11 7.3 3.9 7.5
8/13/2021 1:15:00 AM 22.21 71.978 0.11 7.3 3.94 7.49
8/13/2021 1:30:00 AM 22.09 71.762 0.11 7.31 4.09 7.52
8/13/2021 1:45:00 AM 22.06 71.708 0.11 7.35 4.2 7.57
8/13/2021 2:00:00 AM 22.01 71.618 0.11 7.36 3.85 7.6
8/13/2021 2:15:00 AM 21.88 71.384 0.11 7.33 4.02 7.57
8/13/2021 2:30:00 AM 21.87 71.366 0.11 7.37 4.24 7.61
8/13/2021 2:45:00 AM 21.82 71.276 0.11 7.37 4.25 7.65
8/13/2021 3:00:00 AM 21.74 71.132 0.11 7.36 4.43 7.65
8/13/2021 3:15:00 AM 21.65 70.97 0.11 7.3 4.08 7.65
8/13/2021 3:30:00 AM 21.62 70.916 0.11 7.41 3.96 7.7
8/13/2021 3:45:00 AM 21.54 70.772 0.11 7.37 4.24 7.71
8/13/2021 4:00:00 AM 21.5 70.7 0.11 7.39 3.82 7.74
8/13/2021 4:15:00 AM 21.37 70.466 0.11 7.33 4.48 7.69
8/13/2021 4:30:00 AM 21.34 70.412 0.11 7.38 4.06 7.75
8/13/2021 4:45:00 AM 21.26 70.268 0.11 7.38 4.41 7.76
8/13/2021 5:00:00 AM 21.19 70.142 0.11 7.38 4.35 7.77
8/13/2021 5:15:00 AM 21.13 70.034 0.11 7.38 4.09 7.79
8/13/2021 5:30:00 AM 21.02 69.836 0.11 7.33 4.25 7.81
8/13/2021 5:45:00 AM 20.95 69.71 0.11 7.34 4.14 7.83
8/13/2021 6:00:00 AM 20.93 69.674 0.11 7.42 4.59 7.86
8/13/2021 6:15:00 AM 20.84 69.512 0.11 7.37 4.37 7.88
8/13/2021 6:30:00 AM 20.75 69.35 0.11 7.38 4.36 7.9
8/13/2021 6:45:00 AM 20.68 69.224 0.11 7.38 4.3 7.95
8/13/2021 7:00:00 AM 20.61 69.098 0.11 7.36 4.26 8.02
8/13/2021 7:15:00 AM 20.56 69.008 0.11 7.43 4.27 8.12
8/13/2021 7:30:00 AM 20.53 68.954 0.11 7.44 4.13 8.22
8/13/2021 7:45:00 AM 20.49 68.882 0.109 7.46 4.33 8.32
8/13/2021 8:00:00 AM 20.46 68.828 0.109 7.45 4.17 8.4
8/13/2021 8:15:00 AM 20.47 68.846 0.109 7.46 4.2 8.51
8/13/2021 8:30:00 AM 20.49 68.882 0.109 7.53 4.03 8.63
8/13/2021 8:45:00 AM 20.52 68.936 0.109 7.52 3.99 8.74
8/13/2021 9:00:00 AM 20.55 68.99 0.108 7.52 3.98 8.83
8/13/2021 9:15:00 AM 20.6 69.08 0.108 7.6 3.99 8.91
8/13/2021 9:30:00 AM 20.67 69.206 0.108 7.57 4.27 8.96
8/13/2021 9:45:00 AM 20.8 69.44 0.108 7.65 4.12 9.1
8/13/2021 10:00:00 AM 20.92 69.656 0.107 7.7 3.97 9.22
8/13/2021 10:15:00 AM 21.03 69.854 0.107 7.67 3.99 9.22
8/13/2021 10:30:00 AM 21.2 70.16 0.107 7.66 3.83 9.26
8/13/2021 10:45:00 AM 21.43 70.574 0.107 7.76 4.22 9.24
8/13/2021 11:00:00 AM 21.65 70.97 0.106 7.71 4.19 9.21
8/13/2021 11:15:00 AM 21.87 71.366 0.106 7.7 3.79 9.22
8/13/2021 11:30:00 AM 22.11 71.798 0.106 7.76 3.83 9.24
8/13/2021 11:45:00 AM 22.47 72.446 0.106 7.94 3.76 9.33
8/13/2021 12:00:00 PM 22.71 72.878 0.105 7.89 3.64 9.37
8/13/2021 12:15:00 PM 22.86 73.148 0.105 7.94 3.66 9.4
8/13/2021 12:30:00 PM 23.13 73.634 0.105 7.98 5.87 9.32
8/13/2021 12:45:00 PM 23.36 74.048 0.105 8.14 3.64 9.34
8/13/2021 1:00:00 PM 23.66 74.588 0.105 7.97 3.74 9.15
8/13/2021 1:15:00 PM 23.99 75.182 0.105 8.12 3.71 9.11
8/13/2021 1:30:00 PM 24.16 75.488 0.105 8.15 3.86 9.06
8/13/2021 1:45:00 PM 24.43 75.974 0.105 8.22 3.86 8.99
8/13/2021 2:00:00 PM 24.69 76.442 0.105 8.07 3.92 8.9
8/13/2021 2:15:00 PM 25.07 77.126 0.105 8.24 3.55 8.85
8/13/2021 2:30:00 PM 25.27 77.486 0.105 8.25 3.82 8.8
8/13/2021 2:45:00 PM 25.53 77.954 0.105 8.19 3.71 8.69
8/13/2021 3:00:00 PM 25.68 78.224 0.105 8.2 3.73 8.63
8/13/2021 3:15:00 PM 25.86 78.548 0.105 8.28 3.59 8.6
8/13/2021 3:30:00 PM 25.96 78.728 0.105 7.99 3.55 8.35
8/13/2021 3:45:00 PM 25.97 78.746 0.106 8.02 3.6 8.28
8/13/2021 4:00:00 PM 26.03 78.854 0.106 8.02 3.63 8.33
8/13/2021 4:15:00 PM 26.03 78.854 0.106 7.92 3.54 8.24
8/13/2021 4:30:00 PM 26.07 78.926 0.106 7.99 3.49 8.24
8/13/2021 4:45:00 PM 26.03 78.854 0.106 7.8 3.54 8.17
8/13/2021 5:00:00 PM 25.95 78.71 0.106 7.73 3.4 8.12
8/13/2021 5:15:00 PM 25.81 78.458 0.106 7.65 3.65 7.87
8/13/2021 5:30:00 PM 25.71 78.278 0.106 7.59 3.7 7.74
8/13/2021 5:45:00 PM 25.7 78.26 0.105 7.66 4.4 7.67
8/13/2021 6:00:00 PM 25.02 77.036 0.1 7.31 4.98 7.49
8/13/2021 6:15:00 PM 24.96 76.92799 0.102 7.31 6.31 7.51
8/13/2021 6:30:00 PM 24.92 76.856 0.105 7.23 11.09 7.44
8/13/2021 6:45:00 PM 24.82 76.676 0.102 7.28 10.39 7.38
8/13/2021 7:00:00 PM 24.66 76.388 0.101 7.38 7.01 7.36
8/13/2021 7:15:00 PM 24.51 76.118 0.101 7.35 5.92 7.28
8/13/2021 7:30:00 PM 24.51 76.118 0.102 7.43 5.31 7.28
8/13/2021 7:45:00 PM 24.38 75.884 0.102 7.37 4.8 7.28
8/13/2021 8:00:00 PM 24.33 75.794 0.103 7.4 4.62 7.31
8/13/2021 8:15:00 PM 24.17 75.506 0.103 7.35 4.31 7.24
8/13/2021 8:30:00 PM 23.95 75.11 0.103 7.3 4.8 7.24
8/13/2021 8:45:00 PM 23.87 74.966 0.104 7.34 4.35 7.23
8/13/2021 9:00:00 PM 23.74 74.732 0.105 7.33 4.41 7.29
8/13/2021 9:15:00 PM 23.5 74.3 0.106 7.25 4.41 7.21
8/13/2021 9:30:00 PM 23.47 74.246 0.107 7.34 4.66 7.29
8/13/2021 9:45:00 PM 23.37 74.066 0.107 7.33 4.83 7.26
8/13/2021 10:00:00 PM 23.28 73.904 0.108 7.34 4.34 7.33
8/13/2021 10:15:00 PM 23.18 73.724 0.108 7.29 4.45 7.3
8/13/2021 10:30:00 PM 23.13 73.634 0.109 7.37 4.27 7.37
8/13/2021 10:45:00 PM 23.07 73.526 0.109 7.35 4.29 7.37
8/13/2021 11:00:00 PM 22.88 73.184 0.109 7.34 4.1 7.39
8/13/2021 11:15:00 PM 22.88 73.184 0.11 7.32 4.02 7.38
8/13/2021 11:30:00 PM 22.78 73.004 0.109 7.32 4.4 7.43
8/13/2021 11:45:00 PM 22.7 72.86 0.11 7.3 4.21 7.4
8/14/2021 12:00:00 AM 22.6 72.68 0.11 7.29 4.19 7.43
8/14/2021 12:15:00 AM 22.55 72.59 0.11 7.34 4.55 7.49
8/14/2021 12:30:00 AM 22.4 72.32 0.109 7.28 4.3 7.43
8/14/2021 12:45:00 AM 22.37 72.266 0.109 7.3 4.27 7.52
8/14/2021 1:00:00 AM 22.23 72.014 0.109 7.25 4.34 7.48
8/14/2021 1:15:00 AM 22.2 71.96 0.109 7.31 4.47 7.52
8/14/2021 1:30:00 AM 22.1 71.78 0.109 7.33 4.6 7.53
8/14/2021 1:45:00 AM 22.06 71.708 0.108 7.27 4.52 7.6
8/14/2021 2:00:00 AM 21.99 71.582 0.109 7.32 4.41 7.6
8/14/2021 2:15:00 AM 21.88 71.384 0.109 7.32 4.39 7.61
8/14/2021 2:30:00 AM 21.83 71.294 0.109 7.35 4.19 7.63
8/14/2021 2:45:00 AM 21.78 71.204 0.108 7.35 4.35 7.65
8/14/2021 3:00:00 AM 21.72 71.096 0.109 7.36 4.21 7.73
8/14/2021 3:15:00 AM 21.64 70.952 0.109 7.34 4.32 7.73
8/14/2021 3:30:00 AM 21.57 70.826 0.109 7.33 4.25 7.73
8/14/2021 3:45:00 AM 21.49 70.682 0.11 7.31 4.23 7.74
8/14/2021 4:00:00 AM 21.33 70.394 0.109 7.3 4.63 7.7
8/14/2021 4:15:00 AM 21.34 70.412 0.11 7.33 4.05 7.79
8/14/2021 4:30:00 AM 21.27 70.286 0.11 7.34 4.77 7.81
8/14/2021 4:45:00 AM 21.15 70.07 0.11 7.3 4.3 7.78
8/14/2021 5:00:00 AM 21.07 69.926 0.109 7.33 4.29 7.79
8/14/2021 5:15:00 AM 21.02 69.836 0.11 7.36 4.48 7.87
8/14/2021 5:30:00 AM 20.9 69.62 0.11 7.33 4.54 7.85
8/14/2021 5:45:00 AM 20.84 69.512 0.11 7.35 4.36 7.86
8/14/2021 6:00:00 AM 20.78 69.404 0.11 7.29 4.5 7.87
8/14/2021 6:15:00 AM 20.75 69.35 0.11 7.3 4.38 7.9
8/14/2021 6:30:00 AM 20.7 69.26 0.11 7.32 4.55 7.91
8/14/2021 6:45:00 AM 20.64 69.152 0.11 7.29 4.82 7.9
8/14/2021 7:00:00 AM 20.6 69.08 0.11 7.31 4.08 7.96
8/14/2021 7:15:00 AM 20.59 69.062 0.11 7.36 4.39 8.05
8/14/2021 7:30:00 AM 20.56 69.008 0.109 7.34 4.16 8.13
8/14/2021 7:45:00 AM 20.5 68.9 0.109 7.29 4.2 8.14
8/14/2021 8:00:00 AM 20.47 68.846 0.109 7.33 4.32 8.25
8/14/2021 8:15:00 AM 20.51 68.918 0.109 7.38 4.25 8.33
8/14/2021 8:30:00 AM 20.49 68.882 0.109 7.34 4.11 8.37
8/14/2021 8:45:00 AM 20.37 68.666 0.108 7.36 4.01 8.4
8/14/2021 9:00:00 AM 20.44 68.792 0.108 7.35 4 8.44
8/14/2021 9:15:00 AM 20.41 68.738 0.108 7.29 3.94 8.42
8/14/2021 9:30:00 AM 20.52 68.936 0.109 7.45 3.92 8.48
8/14/2021 9:45:00 AM 20.52 68.936 0.108 7.47 4.29 8.64
8/14/2021 10:00:00 AM 20.46 68.828 0.108 7.44 4.08 8.72
8/14/2021 10:15:00 AM 20.52 68.936 0.108 7.52 4.02 8.89
8/14/2021 10:30:00 AM 20.47 68.846 0.107 7.44 4.21 8.81
8/14/2021 10:45:00 AM 20.53 68.954 0.107 7.54 4.1 9.05
8/14/2021 11:00:00 AM 20.58 69.044 0.107 7.61 4.21 9.19
8/14/2021 11:15:00 AM 20.58 69.044 0.106 7.52 4.25 9.18
8/14/2021 11:30:00 AM 20.69 69.242 0.106 7.66 3.97 9.3
8/14/2021 11:45:00 AM 20.64 69.152 0.105 7.64 3.96 9.23
8/14/2021 12:00:00 PM 20.63 69.134 0.105 7.57 3.99 9.21
8/14/2021 12:15:00 PM 20.69 69.242 0.106 7.71 4.05 9.15
8/14/2021 12:30:00 PM 20.66 69.188 0.105 7.63 4.07 9.22
8/14/2021 12:45:00 PM 20.64 69.152 0.105 7.61 3.98 9.24
8/14/2021 1:00:00 PM 20.71 69.278 0.105 7.62 4.07 9.31
8/14/2021 1:15:00 PM 20.87 69.566 0.105 7.77 3.98 9.5
8/14/2021 1:30:00 PM 20.96 69.728 0.104 7.81 4.23 9.51
8/14/2021 1:45:00 PM 21 69.8 0.104 7.87 3.99 9.51
8/14/2021 2:00:00 PM 21.06 69.908 0.103 7.83 4.01 9.53
8/14/2021 2:15:00 PM 21.2 70.16 0.103 8.05 3.92 9.55
8/14/2021 2:30:00 PM 21.27 70.286 0.103 7.87 4.01 9.56
8/14/2021 2:45:00 PM 21.34 70.412 0.103 7.98 3.94 9.6
8/14/2021 3:00:00 PM 21.32 70.376 0.102 7.86 3.88 9.51
8/14/2021 3:15:00 PM 21.43 70.574 0.103 8 3.98 9.51
8/14/2021 3:30:00 PM 21.48 70.664 0.102 7.86 4.05 9.49
8/14/2021 3:45:00 PM 21.62 70.916 0.102 8.28 3.88 9.55
8/14/2021 4:00:00 PM 21.68 71.024 0.102 8.04 3.79 9.35
8/14/2021 4:15:00 PM 21.76 71.168 0.102 8.19 3.85 9.31
8/14/2021 4:30:00 PM 21.76 71.168 0.103 7.89 3.72 9.16
8/14/2021 4:45:00 PM 21.76 71.168 0.103 7.78 3.95 9.05
8/14/2021 5:00:00 PM 21.82 71.276 0.103 7.92 3.97 9
8/14/2021 5:15:00 PM 21.79 71.222 0.103 7.68 3.92 8.9
8/14/2021 5:30:00 PM 21.77 71.186 0.103 7.74 3.77 8.78
8/14/2021 5:45:00 PM 21.66 70.988 0.104 7.56 3.92 8.72
8/14/2021 6:00:00 PM 21.64 70.952 0.104 7.65 3.77 8.66
8/14/2021 6:15:00 PM 21.53 70.754 0.104 7.58 3.9 8.57
8/14/2021 6:30:00 PM 21.44 70.592 0.105 7.59 3.74 8.46
8/14/2021 6:45:00 PM 21.32 70.376 0.105 7.46 3.82 8.37
8/14/2021 7:00:00 PM 21.23 70.214 0.105 7.44 3.93 8.31
8/14/2021 7:15:00 PM 21.17 70.106 0.105 7.48 3.86 8.27
8/14/2021 7:30:00 PM 21.08 69.944 0.106 7.41 3.94 8.21
8/14/2021 7:45:00 PM 20.98 69.764 0.106 7.4 3.91 8.13
8/14/2021 8:00:00 PM 20.91 69.638 0.106 7.42 3.93 8.11
8/14/2021 8:15:00 PM 20.79 69.422 0.106 7.34 3.98 8.06
8/14/2021 8:30:00 PM 20.74 69.332 0.107 7.39 4.07 8.02
8/14/2021 8:45:00 PM 20.64 69.152 0.108 7.38 4.38 8
8/14/2021 9:00:00 PM 20.44 68.792 0.108 7.3 4.35 7.96
8/14/2021 9:15:00 PM 20.37 68.666 0.108 7.31 4.43 7.97
8/14/2021 9:30:00 PM 20.23 68.414 0.108 7.31 4.04 7.99
8/14/2021 9:45:00 PM 20.13 68.234 0.108 7.32 4.07 8.02
8/14/2021 10:00:00 PM 19.98 67.964 0.108 7.3 4.01 8.02
8/14/2021 10:15:00 PM 19.88 67.784 0.109 7.32 4.08 8.1
8/14/2021 10:30:00 PM 19.7 67.46 0.108 7.26 4.07 8.04
8/14/2021 10:45:00 PM 19.59 67.262 0.109 7.29 3.75 8.12
8/14/2021 11:00:00 PM 19.47 67.046 0.109 7.3 4.05 8.16
8/14/2021 11:15:00 PM 19.35 66.83 0.109 7.31 4.19 8.19
8/14/2021 11:30:00 PM 19.21 66.578 0.109 7.3 4.35 8.21
8/14/2021 11:45:00 PM 19.1 66.38 0.109 7.32 4.15 8.25
8/15/2021 12:00:00 AM 18.98 66.164 0.109 7.3 4.23 8.27
8/15/2021 12:15:00 AM 18.86 65.948 0.109 7.31 4.45 8.29
8/15/2021 12:30:00 AM 18.73 65.714 0.109 7.28 4.06 8.27
8/15/2021 12:45:00 AM 18.64 65.552 0.109 7.31 4.09 8.34
8/15/2021 1:00:00 AM 18.55 65.39 0.109 7.32 4.21 8.37
8/15/2021 1:15:00 AM 18.45 65.21 0.109 7.3 4.21 8.35
8/15/2021 1:30:00 AM 18.35 65.03 0.109 7.31 4.02 8.4
8/15/2021 1:45:00 AM 18.24 64.832 0.109 7.28 4.11 8.42
8/15/2021 2:00:00 AM 18.13 64.634 0.109 7.31 4.13 8.43
8/15/2021 2:15:00 AM 18.04 64.472 0.109 7.3 4.06 8.46
8/15/2021 2:30:00 AM 17.96 64.328 0.109 7.28 4.28 8.46
8/15/2021 2:45:00 AM 17.86 64.148 0.109 7.29 4.09 8.49
8/15/2021 3:00:00 AM 17.8 64.04 0.109 7.28 4.09 8.53
8/15/2021 3:15:00 AM 17.69 63.842 0.11 7.25 4.02 8.51
8/15/2021 3:30:00 AM 17.58 63.644 0.109 7.29 4.55 8.55
8/15/2021 3:45:00 AM 17.52 63.536 0.11 7.29 3.97 8.55
8/15/2021 4:00:00 AM 17.44 63.392 0.11 7.27 4.4 8.53
8/15/2021 4:15:00 AM 17.38 63.284 0.11 7.32 4.29 8.62
8/15/2021 4:30:00 AM 17.28 63.104 0.11 7.29 4.22 8.61
8/15/2021 4:45:00 AM 17.23 63.014 0.11 7.33 4.26 8.66
8/15/2021 5:00:00 AM 17.16 62.888 0.11 7.32 4.12 8.68
8/15/2021 5:15:00 AM 17.08 62.744 0.11 7.31 4.1 8.68
8/15/2021 5:30:00 AM 16.98 62.564 0.11 7.3 4.37 8.69
8/15/2021 5:45:00 AM 16.92 62.456 0.11 7.32 4.18 8.73
8/15/2021 6:00:00 AM 16.83 62.294 0.11 7.29 4.03 8.74
8/15/2021 6:15:00 AM 16.76 62.168 0.11 7.33 4.17 8.78
8/15/2021 6:30:00 AM 16.69 62.042 0.11 7.31 4.32 8.8
8/15/2021 6:45:00 AM 16.63 61.934 0.11 7.29 4.25 8.84
8/15/2021 7:00:00 AM 16.56 61.808 0.11 7.31 4.14 8.9
8/15/2021 7:15:00 AM 16.5 61.7 0.109 7.33 3.98 8.99
8/15/2021 7:30:00 AM 16.46 61.628 0.109 7.35 4.05 9.12
8/15/2021 7:45:00 AM 16.41 61.538 0.109 7.37 3.94 9.2
8/15/2021 8:00:00 AM 16.36 61.448 0.109 7.38 4.09 9.27
8/15/2021 8:15:00 AM 16.34 61.412 0.109 7.38 3.83 9.43
8/15/2021 8:30:00 AM 16.34 61.412 0.108 7.42 3.72 9.59
8/15/2021 8:45:00 AM 16.38 61.484 0.108 7.48 3.87 9.69
8/15/2021 9:00:00 AM 16.45 61.61 0.108 7.46 3.73 9.69
8/15/2021 9:15:00 AM 16.5 61.7 0.108 7.47 3.76 9.74
8/15/2021 9:30:00 AM 16.57 61.826 0.108 7.52 3.73 9.77
8/15/2021 9:45:00 AM 16.62 61.916 0.108 7.51 3.84 9.81
8/15/2021 10:00:00 AM 16.76 62.168 0.107 7.57 3.62 9.88
8/15/2021 10:15:00 AM 16.92 62.456 0.107 7.63 3.71 9.96
8/15/2021 10:30:00 AM 17.06 62.708 0.107 7.59 3.72 9.98
8/15/2021 10:45:00 AM 17.24 63.032 0.107 7.57 3.63 10
8/15/2021 11:00:00 AM 17.49 63.482 0.107 7.71 3.67 10.11
8/15/2021 11:15:00 AM 17.62 63.716 0.106 7.65 3.88 10.1
8/15/2021 11:30:00 AM 17.84 64.112 0.106 7.68 3.83 10.17
8/15/2021 11:45:00 AM 18.02 64.436 0.105 7.77 3.63 10.21
8/15/2021 12:00:00 PM 18.27 64.886 0.105 7.85 3.61 10.19
8/15/2021 12:15:00 PM 18.55 65.39 0.105 7.92 3.72 10.23
8/15/2021 12:30:00 PM 18.77 65.786 0.105 7.83 3.8 10.2
8/15/2021 12:45:00 PM 19.11 66.398 0.105 7.8 3.69 10.04
8/15/2021 1:00:00 PM 19.5 67.1 0.105 8.06 3.65 9.99
8/15/2021 1:15:00 PM 19.8 67.64 0.105 7.88 3.82 9.86
8/15/2021 1:30:00 PM 20.11 68.198 0.105 7.91 3.68 9.85
8/15/2021 1:45:00 PM 20.51 68.918 0.105 8.16 3.79 9.92
8/15/2021 2:00:00 PM 20.71 69.278 0.105 8.17 3.89 9.88
8/15/2021 2:15:00 PM 20.96 69.728 0.105 8.16 3.85 9.86
8/15/2021 2:30:00 PM 21.12 70.016 0.105 8.15 3.9 9.79
8/15/2021 2:45:00 PM 21.31 70.358 0.105 8.39 3.67 9.78
8/15/2021 3:00:00 PM 21.3 70.34 0.104 8.07 3.91 9.6
8/15/2021 3:15:00 PM 21.39 70.502 0.104 8.14 3.7 9.56
8/15/2021 3:30:00 PM 21.51 70.718 0.105 8.25 3.71 9.49
8/15/2021 3:45:00 PM 21.49 70.682 0.104 8.08 3.95 9.38
8/15/2021 4:00:00 PM 21.61 70.898 0.105 8.15 3.79 9.25
8/15/2021 4:15:00 PM 21.55 70.79 0.104 7.95 3.69 9.21
8/15/2021 4:30:00 PM 21.59 70.862 0.104 7.93 3.79 9.21
8/15/2021 4:45:00 PM 21.61 70.898 0.104 7.9 3.9 9.19
8/15/2021 5:00:00 PM 21.59 70.862 0.105 7.93 3.95 9.13
8/15/2021 5:15:00 PM 21.56 70.808 0.105 7.81 4.03 9.13
8/15/2021 5:30:00 PM 21.51 70.718 0.105 7.79 4.01 9.08
8/15/2021 5:45:00 PM 21.42 70.556 0.105 7.69 3.88 8.99
8/15/2021 6:00:00 PM 21.32 70.376 0.105 7.6 3.81 8.88
8/15/2021 6:15:00 PM 21.28 70.304 0.105 7.61 4.06 8.83
8/15/2021 6:30:00 PM 21.18 70.124 0.105 7.49 3.82 8.75
8/15/2021 6:45:00 PM 21.14 70.052 0.105 7.54 3.84 8.69
8/15/2021 7:00:00 PM 21.08 69.944 0.105 7.51 3.76 8.6
8/15/2021 7:15:00 PM 20.97 69.746 0.106 7.44 3.79 8.47
8/15/2021 7:30:00 PM 20.87 69.566 0.106 7.37 3.78 8.35
8/15/2021 7:45:00 PM 20.8 69.44 0.106 7.42 5 8.29
8/15/2021 8:00:00 PM 20.64 69.152 0.107 7.3 3.85 8.17
8/15/2021 8:15:00 PM 20.55 68.99 0.107 7.36 3.96 8.09
8/15/2021 8:30:00 PM 20.39 68.702 0.108 7.29 3.87 8.05
8/15/2021 8:45:00 PM 20.27 68.486 0.108 7.28 4.17 8
8/15/2021 9:00:00 PM 20.11 68.198 0.108 7.25 4.11 7.99
8/15/2021 9:15:00 PM 20.06 68.108 0.108 7.31 4.31 8.01
8/15/2021 9:30:00 PM 19.95 67.91 0.108 7.27 4.27 7.98
8/15/2021 9:45:00 PM 19.75 67.55 0.108 7.2 4.07 7.97
8/15/2021 10:00:00 PM 19.71 67.478 0.109 7.26 4.14 8
8/15/2021 10:15:00 PM 19.56 67.208 0.108 7.2 4.02 7.98
8/15/2021 10:30:00 PM 19.51 67.118 0.109 7.25 4.03 8.04
8/15/2021 10:45:00 PM 19.41 66.938 0.109 7.23 3.97 8.06
8/15/2021 11:00:00 PM 19.26 66.668 0.109 7.21 4.11 7.96
8/15/2021 11:15:00 PM 19.23 66.614 0.109 7.25 4.19 8.1
8/15/2021 11:30:00 PM 19.12 66.416 0.11 7.23 3.97 8.11
8/15/2021 11:45:00 PM 19.04 66.272 0.11 7.24 4.37 8.15
8/16/2021 12:00:00 AM 18.95 66.11 0.11 7.24 4.09 8.17
8/16/2021 12:15:00 AM 18.85 65.93 0.11 7.22 4.09 8.19
8/16/2021 12:30:00 AM 18.78 65.804 0.11 7.25 4.1 8.23
8/16/2021 12:45:00 AM 18.67 65.606 0.11 7.18 3.95 8.22
8/16/2021 1:00:00 AM 18.6 65.48 0.11 7.23 4.06 8.25
8/16/2021 1:15:00 AM 18.52 65.336 0.11 7.26 4.19 8.29
8/16/2021 1:30:00 AM 18.44 65.192 0.11 7.25 5.6 8.29
8/16/2021 1:45:00 AM 18.33 64.994 0.11 7.21 4.02 8.28
8/16/2021 2:00:00 AM 18.28 64.904 0.11 7.22 3.9 8.3
8/16/2021 2:15:00 AM 18.22 64.796 0.11 7.24 4.44 8.31
8/16/2021 2:30:00 AM 18.14 64.652 0.11 7.23 4.21 8.32
8/16/2021 2:45:00 AM 18.08 64.544 0.11 7.22 4 8.35
8/16/2021 3:00:00 AM 18.08 64.544 0.11 7.3 4.01 8.42
8/16/2021 3:15:00 AM 17.97 64.346 0.11 7.23 4.18 8.39
8/16/2021 3:30:00 AM 17.94 64.292 0.11 7.26 3.89 8.41
8/16/2021 3:45:00 AM 17.86 64.148 0.11 7.22 4.01 8.41
8/16/2021 4:00:00 AM 17.79 64.022 0.11 7.23 4.15 8.41
8/16/2021 4:15:00 AM 17.77 63.986 0.11 7.23 4.06 8.4
8/16/2021 4:30:00 AM 17.72 63.896 0.111 7.25 4.1 8.44
8/16/2021 4:45:00 AM 17.65 63.77 0.111 7.21 4.23 8.45
8/16/2021 5:00:00 AM 17.59 63.662 0.111 7.22 4 8.47
8/16/2021 5:15:00 AM 17.55 63.59 0.111 7.24 4.09 8.48
8/16/2021 5:30:00 AM 17.5 63.5 0.111 7.26 4.14 8.51
8/16/2021 5:45:00 AM 17.44 63.392 0.111 7.25 4.26 8.52
8/16/2021 6:00:00 AM 17.36 63.248 0.111 7.23 4.03 8.53
8/16/2021 6:15:00 AM 17.3 63.14 0.111 7.24 4.02 8.56
8/16/2021 6:30:00 AM 17.24 63.032 0.111 7.15 4.01 8.56
8/16/2021 6:45:00 AM 17.14 62.852 0.11 7.21 4.11 8.59
8/16/2021 7:00:00 AM 17.11 62.798 0.11 7.26 4.01 8.72
8/16/2021 7:15:00 AM 17.11 62.798 0.111 7.31 4.05 8.88
8/16/2021 7:30:00 AM 17.06 62.708 0.11 7.29 3.98 8.97
8/16/2021 7:45:00 AM 17.05 62.69 0.11 7.34 4.01 9.09
8/16/2021 8:00:00 AM 17.06 62.708 0.11 7.37 4.03 9.21
8/16/2021 8:15:00 AM 17.06 62.708 0.109 7.36 4.12 9.34
8/16/2021 8:30:00 AM 17.12 62.816 0.109 7.42 5.66 9.48
8/16/2021 8:45:00 AM 17.15 62.87 0.109 7.43 3.9 9.54
8/16/2021 9:00:00 AM 17.22 62.996 0.109 7.43 3.81 9.56
8/16/2021 9:15:00 AM 17.32 63.176 0.109 7.45 3.9 9.64
8/16/2021 9:30:00 AM 17.39 63.302 0.109 7.5 3.8 9.73
8/16/2021 9:45:00 AM 17.45 63.41 0.108 7.46 3.73 9.74
8/16/2021 10:00:00 AM 17.59 63.662 0.108 7.51 3.64 9.8
8/16/2021 10:15:00 AM 17.74 63.932 0.108 7.56 3.7 9.85
8/16/2021 10:30:00 AM 17.91 64.238 0.108 7.58 6.55 9.83
8/16/2021 10:45:00 AM 18.12 64.616 0.107 7.6 4.14 9.91
8/16/2021 11:00:00 AM 18.37 65.066 0.107 7.7 3.89 10.05
8/16/2021 11:15:00 AM 18.6 65.48 0.107 7.71 3.89 10.09
8/16/2021 11:30:00 AM 18.77 65.786 0.106 7.71 3.65 10.03
8/16/2021 11:45:00 AM 18.97 66.146 0.106 7.75 3.57 10.17
8/16/2021 12:00:00 PM 19.19 66.542 0.106 8.05 3.71 10.22
8/16/2021 12:15:00 PM 19.26 66.668 0.105 7.91 3.66 10.2
8/16/2021 12:30:00 PM 19.49 67.082 0.105 8.07 3.91 10.2
8/16/2021 12:45:00 PM 19.63 67.334 0.105 8.24 3.66 10.2
8/16/2021 1:00:00 PM 19.75 67.55 0.105 8.14 3.83 10.16
8/16/2021 1:15:00 PM 19.89 67.802 0.105 8.23 3.85 10.13
8/16/2021 1:30:00 PM 20.13 68.234 0.105 8.47 3.76 10.17
8/16/2021 1:45:00 PM 20.19 68.342 0.104 8.41 3.74 10.12
8/16/2021 2:00:00 PM 20.41 68.738 0.105 8.5 3.87 10.1
8/16/2021 2:15:00 PM 20.52 68.936 0.104 8.56 3.75 10.05
8/16/2021 2:30:00 PM 20.66 69.188 0.105 8.56 3.89 9.99
8/16/2021 2:45:00 PM 20.76 69.368 0.104 8.54 3.84 9.91
8/16/2021 3:00:00 PM 20.86 69.548 0.104 8.58 4.25 9.89
8/16/2021 3:15:00 PM 20.83 69.494 0.104 8.39 3.35 9.75
8/16/2021 3:30:00 PM 21 69.8 0.104 8.62 4.19 9.74
8/16/2021 3:45:00 PM 21.02 69.836 0.104 8.49 3.37 9.64
8/16/2021 4:00:00 PM 21.07 69.926 0.104 8.47 3.51 9.54
8/16/2021 4:15:00 PM 21.11 69.998 0.104 8.42 3.67 9.49
8/16/2021 4:30:00 PM 21.17 70.106 0.104 8.4 3.47 9.51
8/16/2021 4:45:00 PM 21.18 70.124 0.104 8.35 3.62 9.45
8/16/2021 5:00:00 PM 21.19 70.142 0.104 8.33 3.73 9.33
8/16/2021 5:15:00 PM 21.2 70.16 0.104 8.27 3.5 9.3
8/16/2021 5:30:00 PM 21.24 70.232 0.104 8.19 3.55 9.25
8/16/2021 5:45:00 PM 21.23 70.214 0.104 8.18 3.44 9.15
8/16/2021 6:00:00 PM 21.17 70.106 0.105 7.85 3.64 9
8/16/2021 6:15:00 PM 21.12 70.016 0.105 7.7 3.63 8.9
8/16/2021 6:30:00 PM 21.18 70.124 0.105 7.82 3.89 8.87
8/16/2021 6:45:00 PM 21.17 70.106 0.105 7.78 3.71 8.78
8/16/2021 7:00:00 PM 21.07 69.926 0.106 7.58 3.89 8.63
8/16/2021 7:15:00 PM 20.98 69.764 0.105 7.55 3.79 8.55
8/16/2021 7:30:00 PM 20.93 69.674 0.106 7.47 3.65 8.44
8/16/2021 7:45:00 PM 20.92 69.656 0.107 7.45 3.76 8.33
8/16/2021 8:00:00 PM 20.83 69.494 0.107 7.41 3.82 8.18
8/16/2021 8:15:00 PM 20.77 69.386 0.108 7.37 3.57 8.08
8/16/2021 8:30:00 PM 20.71 69.278 0.108 7.36 3.89 8.01
8/16/2021 8:45:00 PM 20.6 69.08 0.108 7.3 3.84 7.93
8/16/2021 9:00:00 PM 20.54 68.972 0.109 7.31 3.79 7.9
8/16/2021 9:15:00 PM 20.44 68.792 0.109 7.28 3.96 7.87
8/16/2021 9:30:00 PM 20.35 68.63 0.109 7.25 3.87 7.83
8/16/2021 9:45:00 PM 20.28 68.504 0.109 7.26 3.78 7.85
8/16/2021 10:00:00 PM 20.24 68.432 0.11 7.27 3.91 7.88
8/16/2021 10:15:00 PM 20.14 68.252 0.11 7.24 3.89 7.85
8/16/2021 10:30:00 PM 20.11 68.198 0.11 7.25 4.01 7.88
8/16/2021 10:45:00 PM 20.02 68.036 0.11 7.24 4.16 7.9
8/16/2021 11:00:00 PM 19.95 67.91 0.11 7.23 4.03 7.9
8/16/2021 11:15:00 PM 19.92 67.856 0.111 7.26 3.87 7.94
8/16/2021 11:30:00 PM 19.84 67.712 0.111 7.23 3.88 7.92
8/16/2021 11:45:00 PM 19.76 67.568 0.111 7.23 3.91 7.94
8/17/2021 12:00:00 AM 19.68 67.424 0.111 7.22 4.65 7.96
8/17/2021 12:15:00 AM 19.64 67.352 0.111 7.25 4 7.95
8/17/2021 12:30:00 AM 19.58 67.244 0.111 7.24 3.86 8
8/17/2021 12:45:00 AM 19.56 67.208 0.112 7.24 3.81 8.03
8/17/2021 1:00:00 AM 19.48 67.064 0.112 7.24 3.9 8
8/17/2021 1:15:00 AM 19.44 66.992 0.112 7.22 3.7 8
8/17/2021 1:30:00 AM 19.39 66.902 0.112 7.22 3.69 8.05
8/17/2021 1:45:00 AM 19.35 66.83 0.112 7.27 3.97 8.08
8/17/2021 2:00:00 AM 19.3 66.74 0.111 7.24 3.66 8.06
8/17/2021 2:15:00 AM 19.24 66.632 0.111 7.23 3.89 8.06
8/17/2021 2:30:00 AM 19.22 66.596 0.111 7.24 3.68 8.07
8/17/2021 2:45:00 AM 19.21 66.578 0.111 7.27 4.01 8.1
8/17/2021 3:00:00 AM 19.15 66.47 0.111 7.23 3.88 8.09
8/17/2021 3:15:00 AM 19.15 66.47 0.111 7.25 3.84 8.11
8/17/2021 3:30:00 AM 19.12 66.416 0.112 7.25 4.19 8.13
8/17/2021 3:45:00 AM 19.07 66.326 0.111 7.22 4.06 8.11
8/17/2021 4:00:00 AM 19.05 66.29 0.111 7.22 3.99 8.1
8/17/2021 4:15:00 AM 19.05 66.29 0.112 7.25 4.02 8.13
8/17/2021 4:30:00 AM 19.02 66.236 0.112 7.23 3.94 8.15
8/17/2021 4:45:00 AM 19.01 66.218 0.112 7.24 3.77 8.13
8/17/2021 5:00:00 AM 18.98 66.164 0.112 7.25 3.94 8.15
8/17/2021 5:15:00 AM 18.99 66.182 0.112 7.25 4.03 8.16
8/17/2021 5:30:00 AM 18.96 66.128 0.112 7.25 4.06 8.16
8/17/2021 5:45:00 AM 18.96 66.128 0.112 7.25 4.13 8.18
8/17/2021 6:00:00 AM 18.94 66.092 0.112 7.26 4 8.18
8/17/2021 6:15:00 AM 18.89 66.002 0.112 7.22 4.18 8.16
8/17/2021 6:30:00 AM 18.9 66.02 0.112 7.23 3.87 8.2
8/17/2021 6:45:00 AM 18.85 65.93 0.112 7.21 3.86 8.18
8/17/2021 7:00:00 AM 18.88 65.984 0.112 7.24 3.97 8.22
8/17/2021 7:15:00 AM 18.9 66.02 0.112 7.28 4.37 8.3
8/17/2021 7:30:00 AM 18.87 65.966 0.111 7.26 4.44 8.35
8/17/2021 7:45:00 AM 18.87 65.966 0.11 7.27 4.05 8.4
8/17/2021 8:00:00 AM 18.89 66.002 0.111 7.32 3.79 8.47
8/17/2021 8:15:00 AM 18.89 66.002 0.111 7.33 3.61 8.53
8/17/2021 8:30:00 AM 18.86 65.948 0.111 7.31 3.85 8.56
8/17/2021 8:45:00 AM 18.91 66.038 0.111 7.36 3.6 8.65
8/17/2021 9:00:00 AM 18.88 65.984 0.111 7.32 3.72 8.71
8/17/2021 9:15:00 AM 18.85 65.93 0.11 7.29 3.56 8.77
8/17/2021 9:30:00 AM 18.93 66.074 0.11 7.36 3.83 8.82
8/17/2021 9:45:00 AM 18.92 66.056 0.11 7.38 3.94 8.91
8/17/2021 10:00:00 AM 18.92 66.056 0.11 7.37 3.85 8.98
8/17/2021 10:15:00 AM 18.92 66.056 0.109 7.4 3.53 9.14
8/17/2021 10:30:00 AM 19.03 66.254 0.109 7.45 3.83 9.33
8/17/2021 10:45:00 AM 19.07 66.326 0.109 7.49 3.66 9.33
8/17/2021 11:00:00 AM 19.1 66.38 0.109 7.5 3.56 9.4
8/17/2021 11:15:00 AM 19.14 66.452 0.109 7.51 3.59 9.42
8/17/2021 11:30:00 AM 19.15 66.47 0.108 7.5 3.7 9.43
8/17/2021 11:45:00 AM 19.11 66.398 0.108 7.42 3.76 9.44
8/17/2021 12:00:00 PM 19.19 66.542 0.108 7.49 3.74 9.45
8/17/2021 12:15:00 PM 19.21 66.578 0.108 7.48 3.67 9.49
8/17/2021 12:30:00 PM 19.25 66.65 0.108 7.44 4.61 9.53
8/17/2021 12:45:00 PM 19.31 66.758 0.108 7.52 3.64 9.58
8/17/2021 1:00:00 PM 19.37 66.866 0.108 7.6 3.5 9.59
8/17/2021 1:15:00 PM 19.39 66.902 0.108 7.51 3.51 9.54
8/17/2021 1:30:00 PM 19.48 67.064 0.107 7.64 3.62 9.72
8/17/2021 1:45:00 PM 19.54 67.172 0.107 7.59 3.51 9.63
8/17/2021 2:00:00 PM 19.59 67.262 0.107 7.62 3.64 9.6
8/17/2021 2:15:00 PM 19.69 67.442 0.106 7.68 3.66 9.74
8/17/2021 2:30:00 PM 19.76 67.568 0.106 7.58 3.59 9.75
8/17/2021 2:45:00 PM 19.88 67.784 0.106 7.84 3.79 9.75
8/17/2021 3:00:00 PM 19.97 67.946 0.105 7.75 3.48 9.76
8/17/2021 3:15:00 PM 20.06 68.108 0.105 7.82 3.63 9.65
8/17/2021 3:30:00 PM 20.1 68.18 0.106 7.72 3.66 9.48
8/17/2021 3:45:00 PM 20.11 68.198 0.106 7.55 3.68 9.27
8/17/2021 4:00:00 PM 20.24 68.432 0.106 7.76 3.8 9.29
8/17/2021 4:15:00 PM 20.27 68.486 0.106 7.67 3.68 9.31
8/17/2021 4:30:00 PM 20.24 68.432 0.106 7.61 3.6 9.41
8/17/2021 4:45:00 PM 20.33 68.594 0.106 7.61 3.62 9.45
8/17/2021 5:00:00 PM 20.45 68.81 0.106 7.75 3.6 9.48
8/17/2021 5:15:00 PM 20.49 68.882 0.105 7.67 3.71 9.44
8/17/2021 5:30:00 PM 20.58 69.044 0.105 7.74 3.56 9.39
8/17/2021 5:45:00 PM 20.59 69.062 0.105 7.72 3.6 9.3
8/17/2021 6:00:00 PM 20.62 69.116 0.105 7.58 3.88 9.14
8/17/2021 6:15:00 PM 20.65 69.17 0.105 7.49 3.67 8.94
8/17/2021 6:30:00 PM 20.67 69.206 0.105 7.55 3.7 8.88
8/17/2021 6:45:00 PM 20.63 69.134 0.106 7.47 3.68 8.79
8/17/2021 7:00:00 PM 20.58 69.044 0.106 7.39 3.98 8.67
8/17/2021 7:15:00 PM 20.55 68.99 0.106 7.35 3.74 8.53
8/17/2021 7:30:00 PM 20.53 68.954 0.107 7.35 3.61 8.47
8/17/2021 7:45:00 PM 20.54 68.972 0.107 7.3 3.86 8.28
8/17/2021 8:00:00 PM 20.42 68.756 0.107 7.23 3.83 8.15
8/17/2021 8:15:00 PM 20.47 68.846 0.108 7.3 3.66 8.15
8/17/2021 8:30:00 PM 20.48 68.864 0.108 7.25 3.77 8.1
8/17/2021 8:45:00 PM 20.38 68.684 0.109 7.23 3.91 8.03
8/17/2021 9:00:00 PM 20.32 68.576 0.109 7.19 3.87 7.96
8/17/2021 9:15:00 PM 20.35 68.63 0.11 7.17 3.99 7.92
8/17/2021 9:30:00 PM 20.29 68.522 0.11 7.2 4.12 7.99
8/17/2021 9:45:00 PM 20.16 68.288 0.11 7.12 4.12 7.93
8/17/2021 10:00:00 PM 20.18 68.324 0.11 7.2 3.85 7.96
8/17/2021 10:15:00 PM 20.1 68.18 0.111 7.16 3.92 7.96
8/17/2021 10:30:00 PM 20 68 0.111 7.11 3.94 7.92
8/17/2021 10:45:00 PM 20.01 68.018 0.111 7.17 3.79 8
8/17/2021 11:00:00 PM 19.92 67.856 0.111 7.12 3.92 7.96
8/17/2021 11:15:00 PM 19.9 67.82 0.111 7.15 4 8.03
8/17/2021 11:30:00 PM 19.8 67.64 0.111 7.12 4.51 7.96
8/17/2021 11:45:00 PM 19.81 67.658 0.111 7.17 6.84 8.05
8/18/2021 12:00:00 AM 19.75 67.55 0.111 7.17 4.04 8.09
8/18/2021 12:15:00 AM 19.69 67.442 0.111 7.17 4.23 8.08
8/18/2021 12:30:00 AM 19.67 67.406 0.111 7.16 3.96 8.11
8/18/2021 12:45:00 AM 19.62 67.316 0.111 7.14 3.98 8.09
8/18/2021 1:00:00 AM 19.56 67.208 0.111 7.14 4.11 8.07
8/18/2021 1:15:00 AM 19.6 67.28 0.111 7.16 4.04 8.11
8/18/2021 1:30:00 AM 19.53 67.154 0.112 7.19 4.45 8.13
8/18/2021 1:45:00 AM 19.55 67.19 0.112 7.18 4.03 8.13
8/18/2021 2:00:00 AM 19.47 67.046 0.112 7.14 4.27 8.12
8/18/2021 2:15:00 AM 19.39 66.902 0.112 7.09 4.13 8.04
8/18/2021 2:30:00 AM 19.37 66.866 0.112 7.12 4.24 8.12
8/18/2021 2:45:00 AM 19.39 66.902 0.112 7.18 3.88 8.16
8/18/2021 3:00:00 AM 19.39 66.902 0.112 7.18 4.03 8.11
8/18/2021 3:15:00 AM 19.29 66.722 0.112 7.15 4.1 8.14
8/18/2021 3:30:00 AM 19.36 66.848 0.112 7.18 4.04 8.14
8/18/2021 3:45:00 AM 19.3 66.74 0.112 7.17 3.92 8.19
8/18/2021 4:00:00 AM 19.26 66.668 0.112 7.14 5.07 8.14
8/18/2021 4:15:00 AM 19.29 66.722 0.112 7.17 4.12 8.2
8/18/2021 4:30:00 AM 19.24 66.632 0.112 7.15 4.09 8.17
8/18/2021 4:45:00 AM 19.24 66.632 0.112 7.15 4.32 8.18
8/18/2021 5:00:00 AM 19.25 66.65 0.112 7.18 4.07 8.22
8/18/2021 5:15:00 AM 19.16 66.488 0.112 7.18 4.1 8.22
8/18/2021 5:30:00 AM 19.09 66.362 0.112 7.13 3.88 8.17
8/18/2021 5:45:00 AM 19.15 66.47 0.112 7.16 4.1 8.21
8/18/2021 6:00:00 AM 19.13 66.434 0.113 7.16 5.11 8.23
8/18/2021 6:15:00 AM 19.05 66.29 0.112 7.12 4.56 8.21
8/18/2021 6:30:00 AM 19.04 66.272 0.112 7.14 4.14 8.21
8/18/2021 6:45:00 AM 19.04 66.272 0.112 7.17 4.24 8.26
8/18/2021 7:00:00 AM 19.01 66.218 0.112 7.15 4.01 8.32
8/18/2021 7:15:00 AM 19 66.2 0.112 7.16 4.16 8.36
8/18/2021 7:30:00 AM 18.95 66.11 0.112 7.16 4 8.43
8/18/2021 7:45:00 AM 19.01 66.218 0.112 7.21 3.93 8.53
8/18/2021 8:00:00 AM 18.98 66.164 0.112 7.17 3.89 8.65
8/18/2021 8:15:00 AM 19.02 66.236 0.112 7.2 3.83 8.82
8/18/2021 8:30:00 AM 19.08 66.344 0.112 7.29 4.26 9.03
8/18/2021 8:45:00 AM 19.04 66.272 0.111 7.24 3.8 8.96
8/18/2021 9:00:00 AM 19.1 66.38 0.112 7.3 3.75 9.1
8/18/2021 9:15:00 AM 19.14 66.452 0.111 7.33 4.02 9.3
8/18/2021 9:30:00 AM 19.16 66.488 0.111 7.36 3.72 9.44
8/18/2021 9:45:00 AM 19.33 66.794 0.111 7.47 4.17 9.62
8/18/2021 10:00:00 AM 19.38 66.884 0.111 7.43 3.75 9.69
8/18/2021 10:15:00 AM 19.5 67.1 0.11 7.47 3.93 9.71
8/18/2021 10:30:00 AM 19.62 67.316 0.11 7.57 3.73 9.79
8/18/2021 10:45:00 AM 19.82 67.676 0.109 7.62 3.78 9.93
8/18/2021 11:00:00 AM 19.9 67.82 0.109 7.6 3.8 9.89
8/18/2021 11:15:00 AM 20.1 68.18 0.109 7.77 3.87 9.97
8/18/2021 11:30:00 AM 20.28 68.504 0.108 7.92 3.7 9.96
8/18/2021 11:45:00 AM 20.33 68.594 0.108 7.78 3.91 9.92
8/18/2021 12:00:00 PM 20.42 68.756 0.108 7.85 3.72 9.81
8/18/2021 12:15:00 PM 20.45 68.81 0.108 7.91 3.6 9.75
8/18/2021 12:30:00 PM 20.46 68.828 0.108 7.63 3.69 9.58
8/18/2021 12:45:00 PM 20.61 69.098 0.108 7.76 3.82 9.7
8/18/2021 1:00:00 PM 20.7 69.26 0.107 7.95 3.79 9.77
8/18/2021 1:15:00 PM 20.77 69.386 0.108 7.98 5 9.7
8/18/2021 1:30:00 PM 20.74 69.332 0.107 7.81 3.77 9.56
8/18/2021 1:45:00 PM 20.83 69.494 0.107 7.86 3.89 9.55
8/18/2021 2:00:00 PM 20.88 69.584 0.107 7.79 3.91 9.54
8/18/2021 2:15:00 PM 21.06 69.908 0.107 8.09 3.67 9.7
8/18/2021 2:30:00 PM 21.23 70.214 0.107 8.2 3.88 9.79
8/18/2021 2:45:00 PM 21.29 70.32201 0.106 8.05 3.79 9.65
8/18/2021 3:00:00 PM 21.43 70.574 0.107 8.38 3.71 9.69
8/18/2021 3:15:00 PM 21.54 70.772 0.106 8.3 4.24 9.7
8/18/2021 3:30:00 PM 21.67 71.006 0.106 8.38 3.87 9.68
8/18/2021 3:45:00 PM 21.78 71.204 0.106 8.38 3.67 9.63
8/18/2021 4:00:00 PM 21.83 71.294 0.106 8.37 3.67 9.51
8/18/2021 4:15:00 PM 21.93 71.474 0.106 8.5 3.86 9.52
8/18/2021 4:30:00 PM 21.9 71.42 0.106 8.32 3.54 9.42
8/18/2021 4:45:00 PM 21.97 71.546 0.106 8.39 4.02 9.35
8/18/2021 5:00:00 PM 21.96 71.528 0.106 8.16 3.74 9.14
8/18/2021 5:15:00 PM 21.93 71.474 0.106 8.04 3.75 8.96
8/18/2021 5:30:00 PM 22.02 71.636 0.107 8.2 3.9 8.95
8/18/2021 5:45:00 PM 21.91 71.438 0.107 7.99 3.68 8.9
8/18/2021 6:00:00 PM 21.87 71.366 0.107 7.86 3.75 8.68
8/18/2021 6:15:00 PM 21.87 71.366 0.108 7.72 3.71 8.54
8/18/2021 6:30:00 PM 21.72 71.096 0.108 7.51 3.65 8.41
8/18/2021 6:45:00 PM 21.75 71.15 0.108 7.49 3.53 8.39
8/18/2021 7:00:00 PM 21.71 71.078 0.108 7.5 3.67 8.32
8/18/2021 7:15:00 PM 21.7 71.06 0.109 7.42 3.52 8.17
8/18/2021 7:30:00 PM 21.59 70.862 0.109 7.31 3.64 7.96
8/18/2021 7:45:00 PM 21.62 70.916 0.109 7.39 3.89 7.94
8/18/2021 8:00:00 PM 21.53 70.754 0.109 7.3 4.01 7.84
8/18/2021 8:15:00 PM 21.55 70.79 0.109 7.34 4.01 7.75
8/18/2021 8:30:00 PM 21.43 70.574 0.108 7.29 3.95 7.74
8/18/2021 8:45:00 PM 21.4 70.52 0.109 7.24 4.22 7.66
8/18/2021 9:00:00 PM 21.34 70.412 0.109 7.24 4.23 7.65
8/18/2021 9:15:00 PM 21.36 70.448 0.109 7.29 4.63 7.63
8/18/2021 9:30:00 PM 21.23 70.214 0.109 7.22 4.24 7.67
8/18/2021 9:45:00 PM 21.21 70.17799 0.109 7.2 4.44 7.64
8/18/2021 10:00:00 PM 21.21 70.17799 0.109 7.26 5.52 7.69
8/18/2021 10:15:00 PM 21.12 70.016 0.109 7.19 4.46 7.68
8/18/2021 10:30:00 PM 20.98 69.764 0.109 7.17 4.59 7.64
8/18/2021 10:45:00 PM 21.04 69.872 0.109 7.18 4.28 7.59
8/18/2021 11:00:00 PM 21.01 69.818 0.109 7.2 4.2 7.68
8/18/2021 11:15:00 PM 20.95 69.71 0.109 7.2 4.71 7.67
8/18/2021 11:30:00 PM 20.92 69.656 0.109 7.22 4.04 7.63
8/18/2021 11:45:00 PM 20.9 69.62 0.109 7.17 4.34 7.71
8/19/2021 12:00:00 AM 20.81 69.458 0.108 7.16 4.38 7.72
8/19/2021 12:15:00 AM 20.76 69.368 0.108 7.15 4.07 7.68
8/19/2021 12:30:00 AM 20.79 69.422 0.109 7.18 4.48 7.7
8/19/2021 12:45:00 AM 20.81 69.458 0.109 7.23 4.37 7.73
8/19/2021 1:00:00 AM 20.79 69.422 0.108 7.27 4.46 7.82
8/19/2021 1:15:00 AM 20.7 69.26 0.109 7.21 4.73 7.79
8/19/2021 1:30:00 AM 20.68 69.224 0.109 7.17 4.55 7.76
8/19/2021 1:45:00 AM 20.72 69.296 0.109 7.22 4.25 7.84
8/19/2021 2:00:00 AM 20.61 69.098 0.109 7.17 4.36 7.81
8/19/2021 2:15:00 AM 20.64 69.152 0.109 7.22 4.39 7.83
8/19/2021 2:30:00 AM 20.58 69.044 0.109 7.17 4.58 7.76
8/19/2021 2:45:00 AM 20.55 68.99 0.109 7.15 4.83 7.81
8/19/2021 3:00:00 AM 20.52 68.936 0.109 7.2 4.57 7.82
8/19/2021 3:15:00 AM 20.45 68.81 0.109 7.18 4.34 7.82
8/19/2021 3:30:00 AM 20.38 68.684 0.108 7.14 4.86 7.75
8/19/2021 3:45:00 AM 20.36 68.648 0.108 7.15 4.65 7.81
8/19/2021 4:00:00 AM 20.29 68.522 0.108 7.13 4.86 7.82
8/19/2021 4:15:00 AM 20.24 68.432 0.107 7.16 5.65 7.84
8/19/2021 4:30:00 AM 20.18 68.324 0.108 7.09 6.02 7.82
8/19/2021 4:45:00 AM 20.25 68.45 0.108 7.17 5.57 7.91
8/19/2021 5:00:00 AM 20.15 68.27 0.107 7.14 5.59 7.89
8/19/2021 5:15:00 AM 20.1 68.18 0.107 7.16 5.94 7.91
8/19/2021 5:30:00 AM 20.08 68.144 0.107 7.14 5.7 7.94
8/19/2021 5:45:00 AM 20.07 68.126 0.107 7.16 5.69 7.97
8/19/2021 6:00:00 AM 20.05 68.09 0.107 7.16 5.78 7.99
8/19/2021 6:15:00 AM 20.02 68.036 0.107 7.19 5.96 8.03
8/19/2021 6:30:00 AM 19.97 67.946 0.107 7.19 6.48 8.05
8/19/2021 6:45:00 AM 19.98 67.964 0.108 7.24 5.88 8.09
8/19/2021 7:00:00 AM 19.92 67.856 0.108 7.2 5.92 8.12
8/19/2021 7:15:00 AM 19.92 67.856 0.108 7.25 5.51 8.19
8/19/2021 7:30:00 AM 19.9 67.82 0.108 7.25 5.3 8.25
8/19/2021 7:45:00 AM 19.9 67.82 0.108 7.29 5.33 8.32
8/19/2021 8:00:00 AM 19.91 67.838 0.108 7.32 5.37 8.43
8/19/2021 8:15:00 AM 19.9 67.82 0.108 7.34 5.1 8.5
8/19/2021 8:30:00 AM 19.92 67.856 0.108 7.38 5 8.62
8/19/2021 8:45:00 AM 19.95 67.91 0.108 7.4 4.81 8.71
8/19/2021 9:00:00 AM 19.96 67.92799 0.108 7.42 5 8.78
8/19/2021 9:15:00 AM 19.95 67.91 0.108 7.39 4.67 8.86
8/19/2021 9:30:00 AM 20.01 68.018 0.108 7.43 4.83 8.93
8/19/2021 9:45:00 AM 20.05 68.09 0.108 7.44 4.65 8.92
8/19/2021 10:00:00 AM 20.08 68.144 0.108 7.45 4.74 8.95
8/19/2021 10:15:00 AM 20.12 68.216 0.108 7.47 4.79 8.93
8/19/2021 10:30:00 AM 20.14 68.252 0.108 7.47 4.5 8.9
8/19/2021 10:45:00 AM 20.15 68.27 0.107 7.44 4.79 8.98
8/19/2021 11:00:00 AM 20.24 68.432 0.107 7.49 4.87 9.04
8/19/2021 11:15:00 AM 20.28 68.504 0.107 7.47 4.59 9.08
8/19/2021 11:30:00 AM 20.36 68.648 0.106 7.49 4.59 9.12
8/19/2021 11:45:00 AM 20.42 68.756 0.106 7.5 4.59 9.09
8/19/2021 12:00:00 PM 20.44 68.792 0.105 7.51 4.62 9.09
8/19/2021 12:15:00 PM 20.47 68.846 0.105 7.5 4.55 9.12
8/19/2021 12:30:00 PM 20.52 68.936 0.104 7.51 4.48 9.12
8/19/2021 12:45:00 PM 20.59 69.062 0.104 7.51 4.61 9.16
8/19/2021 1:00:00 PM 20.64 69.152 0.103 7.51 4.58 9.15
8/19/2021 1:15:00 PM 20.7 69.26 0.103 7.49 4.61 9.15
8/19/2021 1:30:00 PM 20.77 69.386 0.103 7.47 4.32 9.14
8/19/2021 1:45:00 PM 20.79 69.422 0.102 7.5 4.32 9.09
8/19/2021 2:00:00 PM 20.86 69.548 0.102 7.58 4.25 9.17
8/19/2021 2:15:00 PM 20.93 69.674 0.102 7.51 4.26 9.16
8/19/2021 2:30:00 PM 21.03 69.854 0.102 7.53 4.4 9.19
8/19/2021 2:45:00 PM 21.08 69.944 0.102 7.59 4.29 9.16
8/19/2021 3:00:00 PM 21.15 70.07 0.103 7.54 4.2 9.01
8/19/2021 3:15:00 PM 21.15 70.07 0.102 7.5 4.11 8.95
8/19/2021 3:30:00 PM 21.15 70.07 0.102 7.49 4.59 8.93
8/19/2021 3:45:00 PM 21.14 70.052 0.102 7.5 4.3 8.87
8/19/2021 4:00:00 PM 21.13 70.034 0.103 7.42 4.28 8.83
8/19/2021 4:15:00 PM 21.26 70.268 0.103 7.51 4.18 8.97
8/19/2021 4:30:00 PM 21.3 70.34 0.103 7.48 4.02 8.93
8/19/2021 4:45:00 PM 21.28 70.304 0.103 7.44 4.15 8.85
8/19/2021 5:00:00 PM 21.3 70.34 0.103 7.42 4.08 8.82
8/19/2021 5:15:00 PM 21.31 70.358 0.103 7.42 4.54 8.78
8/19/2021 5:30:00 PM 21.27 70.286 0.104 7.41 4.44 8.65
8/19/2021 5:45:00 PM 21.4 70.52 0.104 7.62 4.45 8.78
8/19/2021 6:00:00 PM 21.46 70.628 0.105 7.73 4.85 8.72
8/19/2021 6:15:00 PM 21.43 70.574 0.105 7.62 4.76 8.6
8/19/2021 6:30:00 PM 21.4 70.52 0.105 7.56 4.44 8.58
8/19/2021 6:45:00 PM 21.36 70.448 0.105 7.5 4.62 8.47
8/19/2021 7:00:00 PM 21.32 70.376 0.106 7.46 4.78 8.38
8/19/2021 7:15:00 PM 21.28 70.304 0.106 7.43 4.77 8.31
8/19/2021 7:30:00 PM 21.23 70.214 0.107 7.39 4.76 8.22
8/19/2021 7:45:00 PM 21.19 70.142 0.107 7.4 5.24 8.16
8/19/2021 8:00:00 PM 21.13 70.034 0.107 7.35 4.74 8.08
8/19/2021 8:15:00 PM 21.08 69.944 0.108 7.31 4.69 8.01
8/19/2021 8:30:00 PM 21.04 69.872 0.108 7.32 5.95 7.98
8/19/2021 8:45:00 PM 20.98 69.764 0.108 7.31 4.94 7.98
8/19/2021 9:00:00 PM 20.92 69.656 0.108 7.29 5.08 7.95
8/19/2021 9:15:00 PM 20.86 69.548 0.108 7.3 4.74 7.98
8/19/2021 9:30:00 PM 20.76 69.368 0.107 7.27 4.57 7.95
8/19/2021 9:45:00 PM 20.73 69.314 0.107 7.29 4.72 7.98
8/19/2021 10:00:00 PM 20.68 69.224 0.106 7.24 4.85 7.98
8/19/2021 10:15:00 PM 20.63 69.134 0.105 7.25 5.92 7.98
8/19/2021 10:30:00 PM 20.57 69.026 0.103 7.24 4.91 7.98
8/19/2021 10:45:00 PM 20.5 68.9 0.102 7.22 4.62 7.98
8/19/2021 11:00:00 PM 20.48 68.864 0.101 7.2 5.05 7.96
8/19/2021 11:15:00 PM 20.44 68.792 0.1 7.21 4.69 7.98
8/19/2021 11:30:00 PM 20.39 68.702 0.099 7.18 5.94 7.97
8/19/2021 11:45:00 PM 20.32 68.576 0.098 7.18 5.12 7.98
8/20/2021 12:00:00 AM 20.31 68.558 0.098 7.18 5.11 8
8/20/2021 12:15:00 AM 20.26 68.468 0.098 7.2 5.17 8.01
8/20/2021 12:30:00 AM 20.27 68.486 0.098 7.21 4.74 8.04
8/20/2021 12:45:00 AM 20.23 68.414 0.098 7.17 4.92 8.02
8/20/2021 1:00:00 AM 20.15 68.27 0.097 7.14 5.04 8.01
8/20/2021 1:15:00 AM 20.11 68.198 0.097 7.16 4.71 8.01
8/20/2021 1:30:00 AM 20.05 68.09 0.097 7.18 4.76 8.04
8/20/2021 1:45:00 AM 20.03 68.054 0.098 7.14 4.56 8.03
8/20/2021 2:00:00 AM 19.97 67.946 0.097 7.14 4.78 8.03
8/20/2021 2:15:00 AM 19.91 67.838 0.097 7.15 4.6 8.04
8/20/2021 2:30:00 AM 19.8 67.64 0.097 7.09 4.97 8.01
8/20/2021 2:45:00 AM 19.79 67.622 0.097 7.11 7 8.02
8/20/2021 3:00:00 AM 19.7 67.46 0.097 7.09 7.12 8.01
8/20/2021 3:15:00 AM 19.65 67.37 0.097 7.09 5.57 8.01
8/20/2021 3:30:00 AM 19.65 67.37 0.097 7.13 4.68 8.07
8/20/2021 3:45:00 AM 19.61 67.298 0.097 7.12 4.55 8.07
8/20/2021 4:00:00 AM 19.57 67.226 0.097 7.12 4.78 8.08
8/20/2021 4:15:00 AM 19.53 67.154 0.097 7.1 4.74 8.07
8/20/2021 4:30:00 AM 19.48 67.064 0.098 7.1 4.77 8.08
8/20/2021 4:45:00 AM 19.46 67.028 0.098 7.11 4.72 8.12
8/20/2021 5:00:00 AM 19.39 66.902 0.098 7.05 5.27 8.05
8/20/2021 5:15:00 AM 19.38 66.884 0.098 7.1 4.68 8.12
8/20/2021 5:30:00 AM 19.4 66.92 0.098 7.16 4.38 8.18
8/20/2021 5:45:00 AM 19.31 66.758 0.098 7.13 4.56 8.11
8/20/2021 6:00:00 AM 19.33 66.794 0.098 7.15 4.77 8.15
8/20/2021 6:15:00 AM 19.29 66.722 0.098 7.14 4.8 8.16
8/20/2021 6:30:00 AM 19.25 66.65 0.098 7.13 4.39 8.15
8/20/2021 6:45:00 AM 19.22 66.596 0.098 7.16 4.53 8.19
8/20/2021 7:00:00 AM 19.22 66.596 0.099 7.12 4.42 8.24
8/20/2021 7:15:00 AM 19.18 66.524 0.099 7.11 4.28 8.24
8/20/2021 7:30:00 AM 19.15 66.47 0.098 7.13 4.12 8.32
8/20/2021 7:45:00 AM 19.18 66.524 0.099 7.16 4.32 8.45
8/20/2021 8:00:00 AM 19.17 66.506 0.098 7.14 4.12 8.51
8/20/2021 8:15:00 AM 19.2 66.56 0.099 7.16 4.11 8.65
8/20/2021 8:30:00 AM 19.23 66.614 0.098 7.24 4.21 8.82
8/20/2021 8:45:00 AM 19.25 66.65 0.098 7.21 3.76 8.82
8/20/2021 9:00:00 AM 19.35 66.83 0.098 7.29 4.26 8.95
8/20/2021 9:15:00 AM 19.37 66.866 0.098 7.28 4.18 9.04
8/20/2021 9:30:00 AM 19.46 67.028 0.098 7.26 3.85 9.17
8/20/2021 9:45:00 AM 19.46 67.028 0.098 7.26 3.91 9.25
8/20/2021 10:00:00 AM 19.54 67.172 0.098 7.26 3.8 9.2
8/20/2021 10:15:00 AM 19.69 67.442 0.098 7.36 3.81 9.33
8/20/2021 10:30:00 AM 19.72 67.496 0.097 7.34 4.07 9.39
8/20/2021 10:45:00 AM 19.84 67.712 0.097 7.42 4.35 9.44
8/20/2021 11:00:00 AM 19.91 67.838 0.097 7.38 4.19 9.48
8/20/2021 11:15:00 AM 20.05 68.09 0.097 7.47 4.69 9.59
8/20/2021 11:30:00 AM 20.1 68.18 0.097 7.48 3.95 9.55
8/20/2021 11:45:00 AM 20.22 68.396 0.097 7.49 3.84 9.52
8/20/2021 12:00:00 PM 20.32 68.576 0.097 7.49 4.11 9.44
8/20/2021 12:15:00 PM 20.38 68.684 0.097 7.53 3.78 9.46
8/20/2021 12:30:00 PM 20.46 68.828 0.097 7.52 3.85 9.52
8/20/2021 12:45:00 PM 20.59 69.062 0.097 7.56 8.01 9.54
8/20/2021 1:00:00 PM 20.83 69.494 0.097 7.92 4.06 9.68
8/20/2021 1:15:00 PM 20.86 69.548 0.097 7.82 3.93 9.62
8/20/2021 1:30:00 PM 21.02 69.836 0.097 8.08 6.1 9.56
8/20/2021 1:45:00 PM 21.02 69.836 0.097 7.83 3.82 9.37
8/20/2021 2:00:00 PM 21.04 69.872 0.097 7.67 4.16 9.31
8/20/2021 2:15:00 PM 21.05 69.89 0.097 7.73 3.73 9.23
8/20/2021 2:30:00 PM 21.06 69.908 0.098 7.48 3.84 9.1
8/20/2021 2:45:00 PM 21.13 70.034 0.098 7.69 3.74 9.16
8/20/2021 3:00:00 PM 21.1 69.98 0.098 7.54 3.69 9.1
8/20/2021 3:15:00 PM 21.11 69.998 0.098 7.54 5.5 9.03
8/20/2021 3:30:00 PM 21.12 70.016 0.099 7.5 3.64 8.95
8/20/2021 3:45:00 PM 21.15 70.07 0.099 7.53 3.78 8.89
8/20/2021 4:00:00 PM 21.09 69.962 0.1 7.39 3.76 8.81
8/20/2021 4:15:00 PM 21.12 70.016 0.1 7.49 3.71 8.76
8/20/2021 4:30:00 PM 21.11 69.998 0.1 7.41 3.9 8.64
8/20/2021 4:45:00 PM 21.03 69.854 0.101 7.31 3.64 8.5
8/20/2021 5:00:00 PM 21.03 69.854 0.101 7.35 3.73 8.52
8/20/2021 5:15:00 PM 20.99 69.782 0.101 7.33 3.71 8.54
8/20/2021 5:30:00 PM 20.99 69.782 0.102 7.25 3.72 8.58
8/20/2021 5:45:00 PM 21.03 69.854 0.102 7.37 3.61 8.64
8/20/2021 6:00:00 PM 20.99 69.782 0.102 7.36 3.82 8.63
8/20/2021 6:15:00 PM 21.02 69.836 0.102 7.35 3.99 8.64
8/20/2021 6:30:00 PM 20.96 69.728 0.103 7.32 3.71 8.52
8/20/2021 6:45:00 PM 20.97 69.746 0.103 7.34 3.73 8.4
8/20/2021 7:00:00 PM 20.96 69.728 0.104 7.29 3.97 8.29
8/20/2021 7:15:00 PM 20.91 69.638 0.105 7.27 3.73 8.19
8/20/2021 7:30:00 PM 20.78 69.404 0.105 7.19 3.79 7.99
8/20/2021 7:45:00 PM 20.75 69.35 0.106 7.22 3.92 7.99
8/20/2021 8:00:00 PM 20.73 69.314 0.106 7.17 3.87 7.92
8/20/2021 8:15:00 PM 20.69 69.242 0.106 7.19 3.98 7.91
8/20/2021 8:30:00 PM 20.64 69.152 0.107 7.14 4.4 7.85
8/20/2021 8:45:00 PM 20.65 69.17 0.107 7.21 4.1 7.91
8/20/2021 9:00:00 PM 20.6 69.08 0.107 7.2 4.1 7.87
8/20/2021 9:15:00 PM 20.52 68.936 0.107 7.14 3.99 7.84
8/20/2021 9:30:00 PM 20.51 68.918 0.107 7.17 4.25 7.89
8/20/2021 9:45:00 PM 20.47 68.846 0.108 7.15 4.06 7.88
8/20/2021 10:00:00 PM 20.44 68.792 0.108 7.15 4.07 7.88
8/20/2021 10:15:00 PM 20.38 68.684 0.108 7.16 4.08 7.88
8/20/2021 10:30:00 PM 20.4 68.72 0.108 7.18 3.88 7.92
8/20/2021 10:45:00 PM 20.29 68.522 0.108 7.15 4.22 7.85
8/20/2021 11:00:00 PM 20.3 68.54 0.108 7.17 5.62 7.93
8/20/2021 11:15:00 PM 20.2 68.36 0.108 7.1 4.02 7.89
8/20/2021 11:30:00 PM 20.2 68.36 0.108 7.15 3.99 7.94
8/20/2021 11:45:00 PM 20.14 68.252 0.107 7.16 4.5 7.95
8/21/2021 12:00:00 AM 20.04 68.07201 0.107 7.07 4.12 7.93
8/21/2021 12:15:00 AM 20.06 68.108 0.107 7.15 3.88 7.98
8/21/2021 12:30:00 AM 20 68 0.107 7.14 4.07 7.96
8/21/2021 12:45:00 AM 20.01 68.018 0.107 7.17 4.07 8
8/21/2021 1:00:00 AM 19.98 67.964 0.107 7.15 4.35 7.99
8/21/2021 1:15:00 AM 19.9 67.82 0.107 7.13 4.28 8
8/21/2021 1:30:00 AM 19.84 67.712 0.106 7.13 4.33 7.96
8/21/2021 1:45:00 AM 19.83 67.694 0.107 7.13 4.04 7.99
8/21/2021 2:00:00 AM 19.81 67.658 0.106 7.15 4.15 8
8/21/2021 2:15:00 AM 19.76 67.568 0.106 6.95 4.3 8.04
8/21/2021 2:30:00 AM 19.84 67.712 0.107 7.21 4.24 8.1
8/21/2021 2:45:00 AM 19.76 67.568 0.107 7.13 4.14 8.04
8/21/2021 3:00:00 AM 19.71 67.478 0.107 7.17 4.43 8.07
8/21/2021 3:15:00 AM 19.64 67.352 0.107 7.06 4.08 7.97
8/21/2021 3:30:00 AM 19.65 67.37 0.106 7.09 4.08 8.03
8/21/2021 3:45:00 AM 19.63 67.334 0.107 7.12 4.37 8.07
8/21/2021 4:00:00 AM 19.59 67.262 0.106 7.15 4.18 8.1
8/21/2021 4:15:00 AM 19.55 67.19 0.107 7.1 3.86 8.04
8/21/2021 4:30:00 AM 19.61 67.298 0.107 7.15 4.02 8.08
8/21/2021 4:45:00 AM 19.58 67.244 0.107 7.16 4.38 8.11
8/21/2021 5:00:00 AM 19.57 67.226 0.107 7.16 3.99 8.11
8/21/2021 5:15:00 AM 19.52 67.136 0.107 7.1 4.31 8.09
8/21/2021 5:30:00 AM 19.52 67.136 0.107 7.09 4.11 8.1
8/21/2021 5:45:00 AM 19.44 66.992 0.107 7.09 4.35 8.06
8/21/2021 6:00:00 AM 19.46 67.028 0.107 7.16 4.46 8.1
8/21/2021 6:15:00 AM 19.44 66.992 0.107 7.15 4.2 8.03
8/21/2021 6:30:00 AM 19.42 66.956 0.107 7.13 4.41 8.13
8/21/2021 6:45:00 AM 19.4 66.92 0.107 7.09 4.04 8.12
8/21/2021 7:00:00 AM 19.29 66.722 0.107 7.08 4.5 8.14
8/21/2021 7:15:00 AM 19.32 66.776 0.106 7.11 4.04 8.18
8/21/2021 7:30:00 AM 19.4 66.92 0.106 7.17 4.46 8.31
8/21/2021 7:45:00 AM 19.34 66.812 0.106 7.18 3.94 8.38
8/21/2021 8:00:00 AM 19.37 66.866 0.106 7.16 3.79 8.43
8/21/2021 8:15:00 AM 19.35 66.83 0.106 7.11 4.11 8.54
8/21/2021 8:30:00 AM 19.45 67.01 0.106 7.27 4.01 8.71
8/21/2021 8:45:00 AM 19.49 67.082 0.106 7.33 4.05 8.88
8/21/2021 9:00:00 AM 19.44 66.992 0.105 7.25 4.15 8.91
8/21/2021 9:15:00 AM 19.47 67.046 0.105 7.24 3.99 8.9
8/21/2021 9:30:00 AM 19.44 66.992 0.105 7.19 3.99 8.94
8/21/2021 9:45:00 AM 19.61 67.298 0.105 7.35 4.13 9.22
8/21/2021 10:00:00 AM 19.58 67.244 0.104 7.25 3.82 9.2
8/21/2021 10:15:00 AM 19.74 67.532 0.104 7.38 3.99 9.39
8/21/2021 10:30:00 AM 19.88 67.784 0.104 7.47 3.77 9.49
8/21/2021 10:45:00 AM 19.95 67.91 0.103 7.5 3.98 9.54
8/21/2021 11:00:00 AM 20.05 68.09 0.103 7.43 3.91 9.5
8/21/2021 11:15:00 AM 20.18 68.324 0.103 7.54 3.69 9.55
8/21/2021 11:30:00 AM 20.17 68.306 0.103 7.48 3.96 9.47
8/21/2021 11:45:00 AM 20.31 68.558 0.103 7.5 3.82 9.57
8/21/2021 12:00:00 PM 20.41 68.738 0.103 7.66 3.84 9.61
8/21/2021 12:15:00 PM 20.41 68.738 0.103 7.48 3.99 9.45
8/21/2021 12:30:00 PM 20.6 69.08 0.103 7.69 3.79 9.58
8/21/2021 12:45:00 PM 20.71 69.278 0.102 7.77 3.81 9.6
8/21/2021 1:00:00 PM 20.75 69.35 0.103 7.6 3.62 9.5
8/21/2021 1:15:00 PM 20.87 69.566 0.103 7.9 3.61 9.62
8/21/2021 1:30:00 PM 20.96 69.728 0.102 7.61 4.11 9.57
8/21/2021 1:45:00 PM 21.19 70.142 0.103 7.84 3.87 9.61
8/21/2021 2:00:00 PM 21.22 70.196 0.102 7.76 3.59 9.42
8/21/2021 2:15:00 PM 21.4 70.52 0.102 7.89 3.71 9.42
8/21/2021 2:30:00 PM 21.54 70.772 0.102 8.05 3.77 9.45
8/21/2021 2:45:00 PM 21.59 70.862 0.102 7.87 3.86 9.37
8/21/2021 3:00:00 PM 21.74 71.132 0.103 8.13 3.75 9.42
8/21/2021 3:15:00 PM 21.72 71.096 0.102 7.88 3.61 9.37
8/21/2021 3:30:00 PM 21.93 71.474 0.103 8.35 4.24 9.33
8/21/2021 3:45:00 PM 21.95 71.51 0.103 8.06 3.68 9.26
8/21/2021 4:00:00 PM 21.97 71.546 0.103 7.98 3.58 9.15
8/21/2021 4:15:00 PM 21.96 71.528 0.102 8.02 3.74 9.12
8/21/2021 4:30:00 PM 22.08 71.744 0.103 7.95 3.81 9.03
8/21/2021 4:45:00 PM 21.94 71.492 0.103 7.74 3.59 8.89
8/21/2021 5:00:00 PM 21.97 71.546 0.102 7.86 3.48 8.88
8/21/2021 5:15:00 PM 21.68 71.024 0.102 7.37 4.55 8.65
8/21/2021 5:30:00 PM 21.89 71.402 0.102 7.74 4.79 8.81
8/21/2021 5:45:00 PM 22.03 71.654 0.103 7.81 4.06 8.75
8/21/2021 6:00:00 PM 22 71.6 0.104 7.75 4.18 8.65
8/21/2021 6:15:00 PM 21.9 71.42 0.104 7.63 4.19 8.54
8/21/2021 6:30:00 PM 21.9 71.42 0.105 7.6 4.21 8.45
8/21/2021 6:45:00 PM 21.81 71.258 0.105 7.51 4.4 8.34
8/21/2021 7:00:00 PM 21.83 71.294 0.106 7.5 4.13 8.27
8/21/2021 7:15:00 PM 21.75 71.15 0.106 7.43 4.11 8.17
8/21/2021 7:30:00 PM 21.65 70.97 0.107 7.34 4.1 8.07
8/21/2021 7:45:00 PM 21.59 70.862 0.107 7.33 4.21 7.99
8/21/2021 8:00:00 PM 21.52 70.736 0.108 7.29 4.33 7.91
8/21/2021 8:15:00 PM 21.47 70.646 0.108 7.28 4.2 7.86
8/21/2021 8:30:00 PM 21.41 70.538 0.109 7.25 4.22 7.8
8/21/2021 8:45:00 PM 21.35 70.43 0.109 7.23 4.07 7.76
8/21/2021 9:00:00 PM 21.25 70.25 0.109 7.2 4.4 7.74
8/21/2021 9:15:00 PM 21.16 70.088 0.108 7.2 4.61 7.73
8/21/2021 9:30:00 PM 21.15 70.07 0.108 7.22 4.62 7.77
8/21/2021 9:45:00 PM 21.06 69.908 0.107 7.2 4.26 7.76
8/21/2021 10:00:00 PM 20.98 69.764 0.105 7.18 4.65 7.77
8/21/2021 10:15:00 PM 20.88 69.584 0.103 7.15 4.84 7.75
8/21/2021 10:30:00 PM 20.81 69.458 0.102 7.14 4.27 7.77
8/21/2021 10:45:00 PM 20.75 69.35 0.1 7.14 4.77 7.81
8/21/2021 11:00:00 PM 20.64 69.152 0.098 7.09 5.9 7.78
8/21/2021 11:15:00 PM 20.68 69.224 0.097 7.17 4.85 7.85
8/21/2021 11:30:00 PM 20.58 69.044 0.096 7.12 4.75 7.84
8/21/2021 11:45:00 PM 20.47 68.846 0.095 7.07 4.81 7.8
8/22/2021 12:00:00 AM 20.45 68.81 0.095 7.09 4.99 7.84
8/22/2021 12:15:00 AM 20.43 68.774 0.095 7.1 4.48 7.85
8/22/2021 12:30:00 AM 20.44 68.792 0.095 7.14 4.41 7.9
8/22/2021 12:45:00 AM 20.35 68.63 0.095 7.1 4.79 7.88
8/22/2021 1:00:00 AM 20.3 68.54 0.095 7.1 4.36 7.88
8/22/2021 1:15:00 AM 20.24 68.432 0.095 7.09 4.52 7.87
8/22/2021 1:30:00 AM 20.25 68.45 0.095 7.14 4.58 7.9
8/22/2021 1:45:00 AM 20.2 68.36 0.095 7.11 4.43 7.9
8/22/2021 2:00:00 AM 20.08 68.144 0.095 7.07 4.59 7.85
8/22/2021 2:15:00 AM 20.06 68.108 0.095 7.18 4.95 7.9
8/22/2021 2:30:00 AM 20.01 68.018 0.096 7.05 4.3 7.86
8/22/2021 2:45:00 AM 20.1 68.18 0.096 7.17 4.49 7.98
8/22/2021 3:00:00 AM 20.05 68.09 0.096 7.15 4.5 8
8/22/2021 3:15:00 AM 19.93 67.874 0.096 7.08 4.59 7.94
8/22/2021 3:30:00 AM 19.96 67.92799 0.097 7.1 4.18 7.96
8/22/2021 3:45:00 AM 19.86 67.748 0.096 7.12 4.31 7.95
8/22/2021 4:00:00 AM 19.83 67.694 0.097 7.08 4.05 7.95
8/22/2021 4:15:00 AM 19.83 67.694 0.097 7.11 4.86 8
8/22/2021 4:30:00 AM 19.75 67.55 0.097 7.05 4.32 7.94
8/22/2021 4:45:00 AM 19.7 67.46 0.097 7.02 4.23 7.91
8/22/2021 5:00:00 AM 19.71 67.478 0.097 7.07 4.43 7.98
8/22/2021 5:15:00 AM 19.71 67.478 0.097 7.13 4.31 8.04
8/22/2021 5:30:00 AM 19.65 67.37 0.097 7.1 4.33 7.98
8/22/2021 5:45:00 AM 19.66 67.388 0.098 7.11 4.46 8.01
8/22/2021 6:00:00 AM 19.58 67.244 0.098 7.07 4.5 7.99
8/22/2021 6:15:00 AM 19.58 67.244 0.098 7.11 4.27 8.04
8/22/2021 6:30:00 AM 19.55 67.19 0.098 7.08 4.26 7.99
8/22/2021 6:45:00 AM 19.42 66.956 0.098 6.95 4.52 7.95
8/22/2021 7:00:00 AM 19.52 67.136 0.098 7.11 4.36 8.09
8/22/2021 7:15:00 AM 19.48 67.064 0.098 7.09 4.35 8.09
8/22/2021 7:30:00 AM 19.52 67.136 0.098 7.13 4.36 8.23
8/22/2021 7:45:00 AM 19.51 67.118 0.098 7.13 4.15 8.34
8/22/2021 8:00:00 AM 19.52 67.136 0.099 7.15 4.23 8.46
8/22/2021 8:15:00 AM 19.54 67.172 0.098 7.15 3.97 8.52
8/22/2021 8:30:00 AM 19.55 67.19 0.099 7.18 3.95 8.56
8/22/2021 8:45:00 AM 19.56 67.208 0.098 7.14 4.23 8.65
8/22/2021 9:00:00 AM 19.63 67.334 0.099 7.25 4.05 8.83
8/22/2021 9:15:00 AM 19.7 67.46 0.098 7.28 4.38 9.05
8/22/2021 9:30:00 AM 19.73 67.514 0.098 7.31 4.24 9.07
8/22/2021 9:45:00 AM 19.85 67.73 0.099 7.43 3.85 9.21
8/22/2021 10:00:00 AM 19.9 67.82 0.098 7.42 3.83 9.23
8/22/2021 10:15:00 AM 19.92 67.856 0.098 7.32 3.82 9.22
8/22/2021 10:30:00 AM 20.06 68.108 0.098 7.44 3.87 9.45
8/22/2021 10:45:00 AM 20.16 68.288 0.098 7.53 3.81 9.49
8/22/2021 11:00:00 AM 20.19 68.342 0.098 7.45 3.92 9.42
8/22/2021 11:15:00 AM 20.33 68.594 0.098 7.54 4.05 9.48
8/22/2021 11:30:00 AM 20.36 68.648 0.098 7.51 4.12 9.4
8/22/2021 11:45:00 AM 20.41 68.738 0.098 7.5 4.16 9.38
8/22/2021 12:00:00 PM 20.45 68.81 0.098 7.48 3.93 9.22
8/22/2021 12:15:00 PM 20.6 69.08 0.098 7.62 4.12 9.45
8/22/2021 12:30:00 PM 20.68 69.224 0.098 7.65 3.86 9.57
8/22/2021 12:45:00 PM 20.71 69.278 0.098 7.49 3.99 9.55
8/22/2021 1:00:00 PM 20.94 69.692 0.098 7.77 3.88 9.58
8/22/2021 1:15:00 PM 21.14 70.052 0.098 8 4.14 9.65
8/22/2021 1:30:00 PM 21.14 70.052 0.098 7.87 3.97 9.43
8/22/2021 1:45:00 PM 21.16 70.088 0.098 7.72 3.81 9.37
8/22/2021 2:00:00 PM 21.21 70.17799 0.099 7.6 4.04 9.29
8/22/2021 2:15:00 PM 21.35 70.43 0.099 7.84 3.72 9.33
8/22/2021 2:30:00 PM 21.31 70.358 0.099 7.76 3.79 9.22
8/22/2021 2:45:00 PM 21.38 70.484 0.099 7.73 3.72 9.31
8/22/2021 3:00:00 PM 21.42 70.556 0.099 7.79 3.93 9.23
8/22/2021 3:15:00 PM 21.52 70.736 0.1 7.77 3.92 9.02
8/22/2021 3:30:00 PM 21.57 70.826 0.101 7.69 3.85 8.9
8/22/2021 3:45:00 PM 21.53 70.754 0.1 7.56 3.88 8.8
8/22/2021 4:00:00 PM 21.53 70.754 0.101 7.62 3.74 8.86
8/22/2021 4:15:00 PM 21.45 70.61 0.101 7.43 3.87 8.72
8/22/2021 4:30:00 PM 21.5 70.7 0.101 7.41 3.74 8.68
8/22/2021 4:45:00 PM 21.46 70.628 0.101 7.38 3.72 8.54
8/22/2021 5:00:00 PM 21.47 70.646 0.102 7.45 3.65 8.53
8/22/2021 5:15:00 PM 21.48 70.664 0.102 7.42 3.74 8.44
8/22/2021 5:30:00 PM 21.4 70.52 0.103 7.33 3.75 8.29
8/22/2021 5:45:00 PM 21.39 70.502 0.103 7.33 4.2 8.21
8/22/2021 6:00:00 PM 21.37 70.466 0.1 7.27 4.86 8.12
8/22/2021 6:15:00 PM 21.31 70.358 0.101 7.24 4.27 8.06
8/22/2021 6:30:00 PM 21.23 70.214 0.103 7.16 8.17 7.97
8/22/2021 6:45:00 PM 21.23 70.214 0.103 7.21 8.07 7.91
8/22/2021 7:00:00 PM 21.21 70.17799 0.104 7.2 6.37 7.88
8/22/2021 7:15:00 PM 21.11 69.998 0.104 7.16 4.9 7.82
8/22/2021 7:30:00 PM 21.1 69.98 0.105 7.18 5.02 7.81
8/22/2021 7:45:00 PM 21.03 69.854 0.105 7.11 4.8 7.74
8/22/2021 8:00:00 PM 20.91 69.638 0.101 7.06 5.51 7.71
8/22/2021 8:15:00 PM 20.78 69.404 0.1 7 5.53 7.69
8/22/2021 8:30:00 PM 20.74 69.332 0.102 7.03 7.57 7.7
8/22/2021 8:45:00 PM 20.8 69.44 0.103 7.11 8.24 7.71
8/22/2021 9:00:00 PM 20.72 69.296 0.102 7.08 6.86 7.65
8/22/2021 9:15:00 PM 20.63 69.134 0.101 7.07 6.89 7.61
8/22/2021 9:30:00 PM 20.62 69.116 0.102 7.07 5.53 7.66
8/22/2021 9:45:00 PM 20.55 68.99 0.102 7.06 5.21 7.68
8/22/2021 10:00:00 PM 20.59 69.062 0.102 7.14 5.61 7.76
8/22/2021 10:15:00 PM 20.57 69.026 0.102 7.19 5.71 7.82
8/22/2021 10:30:00 PM 20.59 69.062 0.103 7.29 7.51 7.95
8/22/2021 10:45:00 PM 20.61 69.098 0.103 7.33 6.26 8.02
8/22/2021 11:00:00 PM 20.59 69.062 0.102 7.34 7.38 8.06
8/22/2021 11:15:00 PM 20.56 69.008 0.102 7.38 28.42 8.19
8/22/2021 11:30:00 PM 20.42 68.756 0.1 7.38 33.38 8.3
8/22/2021 11:45:00 PM 20.29 68.522 0.098 7.37 36.93 8.36
8/23/2021 12:00:00 AM 20.18 68.324 0.096 7.38 48.17 8.4
8/23/2021 12:15:00 AM 20.09 68.162 0.098 7.38 35.68 8.43
8/23/2021 12:30:00 AM 20.02 68.036 0.098 7.39 31.29 8.45
8/23/2021 12:45:00 AM 19.97 67.946 0.096 7.38 30.41 8.46
8/23/2021 1:00:00 AM 19.95 67.91 0.095 7.39 40.34 8.46
8/23/2021 1:15:00 AM 19.94 67.892 0.097 7.4 56.61 8.44
8/23/2021 1:30:00 AM 19.94 67.892 0.098 7.4 66.24 8.44
8/23/2021 1:45:00 AM 19.94 67.892 0.095 7.38 60.17 8.44
8/23/2021 2:00:00 AM 19.92 67.856 0.092 7.37 51.06 8.45
8/23/2021 2:15:00 AM 19.87 67.766 0.09 7.36 42.81 8.47
8/23/2021 2:30:00 AM 19.82 67.676 0.089 7.35 36.1 8.49
8/23/2021 2:45:00 AM 19.77 67.586 0.088 7.34 33.39 8.5
8/23/2021 3:00:00 AM 19.72 67.496 0.088 7.33 31 8.52
8/23/2021 3:15:00 AM 19.68 67.424 0.088 7.32 30.46 8.53
8/23/2021 3:30:00 AM 19.65 67.37 0.088 7.32 29.1 8.54
8/23/2021 3:45:00 AM 19.63 67.334 0.087 7.32 30.59 8.55
8/23/2021 4:00:00 AM 19.62 67.316 0.087 7.33 29.03 8.56
8/23/2021 4:15:00 AM 19.61 67.298 0.088 7.33 32.22 8.56
8/23/2021 4:30:00 AM 19.6 67.28 0.088 7.34 38.77 8.57
8/23/2021 4:45:00 AM 19.6 67.28 0.089 7.34 32.4 8.58
8/23/2021 5:00:00 AM 19.61 67.298 0.088 7.35 29.62 8.58
8/23/2021 5:15:00 AM 19.61 67.298 0.088 7.35 29.37 8.58
8/23/2021 5:30:00 AM 19.62 67.316 0.087 7.33 28.54 8.58
8/23/2021 5:45:00 AM 19.63 67.334 0.087 7.33 27.68 8.58
8/23/2021 6:00:00 AM 19.63 67.334 0.087 7.33 26.32 8.58
8/23/2021 6:15:00 AM 19.63 67.334 0.086 7.34 24.74 8.58
8/23/2021 6:30:00 AM 19.63 67.334 0.086 7.33 23.84 8.58
8/23/2021 6:45:00 AM 19.63 67.334 0.086 7.33 22.05 8.59
8/23/2021 7:00:00 AM 19.63 67.334 0.086 7.33 20.9 8.59
8/23/2021 7:15:00 AM 19.64 67.352 0.085 7.32 20.1 8.6
8/23/2021 7:30:00 AM 19.65 67.37 0.085 7.34 18.42 8.63
8/23/2021 7:45:00 AM 19.67 67.406 0.085 7.34 18.44 8.65
8/23/2021 8:00:00 AM 19.68 67.424 0.085 7.35 18.99 8.66
8/23/2021 8:15:00 AM 19.71 67.478 0.085 7.35 19.74 8.67
8/23/2021 8:30:00 AM 19.74 67.532 0.084 7.36 20.39 8.69
8/23/2021 8:45:00 AM 19.77 67.586 0.084 7.37 20.57 8.71
8/23/2021 9:00:00 AM 19.82 67.676 0.084 7.37 20.6 8.73
8/23/2021 9:15:00 AM 19.86 67.748 0.084 7.38 21.07 8.73
8/23/2021 9:30:00 AM 19.92 67.856 0.084 7.39 21.43 8.73
8/23/2021 9:45:00 AM 19.97 67.946 0.084 7.4 20.95 8.73
8/23/2021 10:00:00 AM 20.03 68.054 0.084 7.4 20.81 8.75
8/23/2021 10:15:00 AM 20.12 68.216 0.084 7.42 20.51 8.78
8/23/2021 10:30:00 AM 20.13 68.234 0.083 7.41 19.77 8.75
8/23/2021 10:45:00 AM 20.19 68.342 0.083 7.43 19.06 8.75
8/23/2021 11:00:00 AM 20.24 68.432 0.083 7.41 17.77 8.77
8/23/2021 11:15:00 AM 20.26 68.468 0.083 7.42 17.43 8.78
8/23/2021 11:30:00 AM 20.3 68.54 0.082 7.43 16.5 8.76
8/23/2021 11:45:00 AM 20.33 68.594 0.082 7.4 15.69 8.75
8/23/2021 12:00:00 PM 20.38 68.684 0.082 7.45 15.93 8.77
8/23/2021 12:15:00 PM 20.42 68.756 0.082 7.45 14.86 8.8
8/23/2021 12:30:00 PM 20.48 68.864 0.082 7.47 14.45 8.82
8/23/2021 12:45:00 PM 20.57 69.026 0.082 7.51 13.56 8.85
8/23/2021 1:00:00 PM 20.64 69.152 0.082 7.51 13.47 8.84
8/23/2021 1:15:00 PM 20.73 69.314 0.082 7.53 12.44 8.84
8/23/2021 1:30:00 PM 20.86 69.548 0.082 7.57 12.18 8.87
8/23/2021 1:45:00 PM 21 69.8 0.082 7.59 11.66 8.87
8/23/2021 2:00:00 PM 21.17 70.106 0.082 7.61 11.33 8.86
8/23/2021 2:15:00 PM 21.31 70.358 0.082 7.61 10.99 8.84
8/23/2021 2:30:00 PM 21.45 70.61 0.082 7.62 10.93 8.81
8/23/2021 2:45:00 PM 21.51 70.718 0.082 7.6 10.56 8.76
8/23/2021 3:00:00 PM 21.54 70.772 0.082 7.58 10.25 8.7
8/23/2021 3:15:00 PM 21.59 70.862 0.083 7.57 9.87 8.69
8/23/2021 3:30:00 PM 21.63 70.934 0.083 7.56 9.83 8.65
8/23/2021 3:45:00 PM 21.62 70.916 0.083 7.56 9.93 8.66
8/23/2021 4:00:00 PM 21.59 70.862 0.083 7.53 9.82 8.64
8/23/2021 4:15:00 PM 21.61 70.898 0.083 7.53 9.51 8.63
8/23/2021 4:30:00 PM 21.68 71.024 0.083 7.55 9.74 8.65
8/23/2021 4:45:00 PM 21.74 71.132 0.083 7.56 9.23 8.66
8/23/2021 5:00:00 PM 21.7 71.06 0.083 7.51 9.28 8.6
8/23/2021 5:15:00 PM 21.7 71.06 0.083 7.46 9.33 8.56
8/23/2021 5:30:00 PM 21.75 71.15 0.082 7.5 10.03 8.55
8/23/2021 5:45:00 PM 21.68 71.024 0.082 7.45 9.99 8.49
8/23/2021 6:00:00 PM 21.62 70.916 0.082 7.42 9.88 8.45
8/23/2021 6:15:00 PM 21.6 70.88 0.083 7.38 9.59 8.42
8/23/2021 6:30:00 PM 21.56 70.808 0.083 7.39 9.35 8.4
8/23/2021 6:45:00 PM 21.51 70.718 0.083 7.37 8.97 8.37
8/23/2021 7:00:00 PM 21.47 70.646 0.084 7.35 9.04 8.36
8/23/2021 7:15:00 PM 21.44 70.592 0.084 7.35 9.12 8.35
8/23/2021 7:30:00 PM 21.4 70.52 0.084 7.33 8.69 8.34
8/23/2021 7:45:00 PM 21.36 70.448 0.084 7.33 8.86 8.33
8/23/2021 8:00:00 PM 21.32 70.376 0.085 7.31 8.64 8.31
8/23/2021 8:15:00 PM 21.27 70.286 0.085 7.29 8.75 8.31
8/23/2021 8:30:00 PM 21.21 70.17799 0.085 7.29 8.95 8.31
8/23/2021 8:45:00 PM 21.14 70.052 0.085 7.27 8.64 8.31
8/23/2021 9:00:00 PM 21.08 69.944 0.085 7.27 8.68 8.32
8/23/2021 9:15:00 PM 21.01 69.818 0.086 7.27 8.77 8.33
8/23/2021 9:30:00 PM 20.95 69.71 0.087 7.27 8.93 8.34
8/23/2021 9:45:00 PM 20.9 69.62 0.087 7.28 8.46 8.35
8/23/2021 10:00:00 PM 20.85 69.53 0.087 7.28 8.6 8.35
8/23/2021 10:15:00 PM 20.8 69.44 0.087 7.28 8.39 8.37
8/23/2021 10:30:00 PM 20.77 69.386 0.087 7.28 8.46 8.37
8/23/2021 10:45:00 PM 20.74 69.332 0.087 7.28 8.64 8.38
8/23/2021 11:00:00 PM 20.7 69.26 0.087 7.29 8.4 8.38
8/23/2021 11:15:00 PM 20.66 69.188 0.087 7.29 8.33 8.39
8/23/2021 11:30:00 PM 20.62 69.116 0.087 7.29 8.56 8.39
8/23/2021 11:45:00 PM 20.59 69.062 0.087 7.28 8.23 8.4
8/24/2021 12:00:00 AM 20.55 68.99 0.087 7.29 8.24 8.41
8/24/2021 12:15:00 AM 20.51 68.918 0.087 7.29 7.93 8.42
8/24/2021 12:30:00 AM 20.48 68.864 0.087 7.29 8.15 8.43
8/24/2021 12:45:00 AM 20.45 68.81 0.087 7.28 7.65 8.43
8/24/2021 1:00:00 AM 20.43 68.774 0.087 7.29 7.87 8.43
8/24/2021 1:15:00 AM 20.41 68.738 0.087 7.29 7.79 8.44
8/24/2021 1:30:00 AM 20.38 68.684 0.087 7.29 7.46 8.44
8/24/2021 1:45:00 AM 20.35 68.63 0.087 7.29 7.44 8.44
8/24/2021 2:00:00 AM 20.31 68.558 0.087 7.28 7.62 8.45
8/24/2021 2:15:00 AM 20.28 68.504 0.087 7.28 7.43 8.45
8/24/2021 2:30:00 AM 20.25 68.45 0.087 7.27 7.49 8.46
8/24/2021 2:45:00 AM 20.21 68.378 0.087 7.27 7.49 8.46
8/24/2021 3:00:00 AM 20.17 68.306 0.087 7.27 7.61 8.47
8/24/2021 3:15:00 AM 20.15 68.27 0.087 7.27 7.15 8.47
8/24/2021 3:30:00 AM 20.12 68.216 0.087 7.27 7.26 8.48
8/24/2021 3:45:00 AM 20.08 68.144 0.087 7.27 7.26 8.48
8/24/2021 4:00:00 AM 20.05 68.09 0.087 7.27 7.15 8.49
8/24/2021 4:15:00 AM 20.01 68.018 0.088 7.26 7.16 8.49
8/24/2021 4:30:00 AM 19.98 67.964 0.088 7.27 6.99 8.5
8/24/2021 4:45:00 AM 19.94 67.892 0.088 7.26 7.24 8.51
8/24/2021 5:00:00 AM 19.9 67.82 0.088 7.26 6.99 8.51
8/24/2021 5:15:00 AM 19.85 67.73 0.088 7.26 6.87 8.52
8/24/2021 5:30:00 AM 19.81 67.658 0.088 7.26 7.06 8.53
8/24/2021 5:45:00 AM 19.77 67.586 0.088 7.25 6.99 8.53
8/24/2021 6:00:00 AM 19.73 67.514 0.088 7.25 6.99 8.54
8/24/2021 6:15:00 AM 19.68 67.424 0.088 7.25 7.12 8.55
8/24/2021 6:30:00 AM 19.64 67.352 0.088 7.25 6.67 8.56
8/24/2021 6:45:00 AM 19.6 67.28 0.089 7.26 6.71 8.58
8/24/2021 7:00:00 AM 19.56 67.208 0.089 7.25 6.92 8.61
8/24/2021 7:15:00 AM 19.53 67.154 0.089 7.27 6.64 8.64
8/24/2021 7:30:00 AM 19.5 67.1 0.089 7.27 6.43 8.68
8/24/2021 7:45:00 AM 19.47 67.046 0.089 7.29 5.93 8.72
8/24/2021 8:00:00 AM 19.45 67.01 0.089 7.31 5.83 8.76
8/24/2021 8:15:00 AM 19.45 67.01 0.089 7.33 5.99 8.81
8/24/2021 8:30:00 AM 19.46 67.028 0.089 7.35 5.48 8.86
8/24/2021 8:45:00 AM 19.47 67.046 0.089 7.38 5.44 8.89
8/24/2021 9:00:00 AM 19.49 67.082 0.089 7.41 5.6 8.95
8/24/2021 9:15:00 AM 19.52 67.136 0.089 7.43 5.49 8.99
8/24/2021 9:30:00 AM 19.58 67.244 0.089 7.47 5.48 9.05
8/24/2021 9:45:00 AM 19.66 67.388 0.089 7.5 5.36 9.09
8/24/2021 10:00:00 AM 19.73 67.514 0.089 7.52 5.38 9.11
8/24/2021 10:15:00 AM 19.82 67.676 0.089 7.55 5.4 9.11
8/24/2021 10:30:00 AM 20 68 0.089 7.57 5.31 9.12
8/24/2021 10:45:00 AM 20.2 68.36 0.089 7.61 5.03 9.13
8/24/2021 11:00:00 AM 20.42 68.756 0.089 7.65 5.56 9.13
8/24/2021 11:15:00 AM 20.63 69.134 0.089 7.66 5.04 9.13
8/24/2021 11:30:00 AM 20.85 69.53 0.089 7.7 5.06 9.11
8/24/2021 11:45:00 AM 21.08 69.944 0.089 7.72 4.85 9.1
8/24/2021 12:00:00 PM 21.32 70.376 0.089 7.74 4.95 9.09
8/24/2021 12:15:00 PM 21.54 70.772 0.089 7.76 4.68 9.06
8/24/2021 12:30:00 PM 21.77 71.186 0.089 7.76 4.83 9.03
8/24/2021 12:45:00 PM 21.99 71.582 0.089 7.79 5.08 9.01
8/24/2021 1:00:00 PM 22.19 71.942 0.089 7.8 5.16 8.97
8/24/2021 1:15:00 PM 22.4 72.32 0.089 7.81 4.79 8.93
8/24/2021 1:30:00 PM 22.6 72.68 0.089 7.81 4.79 8.89
8/24/2021 1:45:00 PM 22.78 73.004 0.089 7.81 4.67 8.84
8/24/2021 2:00:00 PM 22.93 73.274 0.089 7.81 4.73 8.8
8/24/2021 2:15:00 PM 23.06 73.508 0.089 7.78 4.59 8.75
8/24/2021 2:30:00 PM 23.17 73.706 0.089 7.77 4.79 8.7
8/24/2021 2:45:00 PM 23.28 73.904 0.089 7.76 4.84 8.65
8/24/2021 3:00:00 PM 23.35 74.03 0.09 7.74 4.62 8.6
8/24/2021 3:15:00 PM 23.41 74.138 0.09 7.72 4.74 8.55
8/24/2021 3:30:00 PM 23.45 74.21 0.09 7.69 4.85 8.5
8/24/2021 3:45:00 PM 23.47 74.246 0.09 7.67 5.03 8.46
8/24/2021 4:00:00 PM 23.47 74.246 0.09 7.63 4.99 8.42
8/24/2021 4:15:00 PM 23.48 74.264 0.09 7.61 5.17 8.39
8/24/2021 4:30:00 PM 23.46 74.228 0.09 7.59 4.97 8.36
8/24/2021 4:45:00 PM 23.45 74.21 0.09 7.57 4.77 8.33
8/24/2021 5:00:00 PM 23.42 74.156 0.09 7.56 4.56 8.31
8/24/2021 5:15:00 PM 23.37 74.066 0.09 7.54 4.76 8.29
8/24/2021 5:30:00 PM 23.31 73.958 0.091 7.52 4.47 8.27
8/24/2021 5:45:00 PM 23.24 73.832 0.091 7.49 4.54 8.23
8/24/2021 6:00:00 PM 23.16 73.688 0.091 7.46 4.58 8.2
8/24/2021 6:15:00 PM 23.07 73.526 0.091 7.44 4.81 8.17
8/24/2021 6:30:00 PM 22.97 73.346 0.091 7.41 5.18 8.13
8/24/2021 6:45:00 PM 22.86 73.148 0.091 7.4 5.01 8.11
8/24/2021 7:00:00 PM 22.74 72.932 0.091 7.36 4.91 8.09
8/24/2021 7:15:00 PM 22.63 72.734 0.092 7.36 4.81 8.09
8/24/2021 7:30:00 PM 22.51 72.518 0.092 7.35 4.76 8.08
8/24/2021 7:45:00 PM 22.39 72.302 0.092 7.31 4.97 8.06
8/24/2021 8:00:00 PM 22.27 72.086 0.092 7.32 4.83 8.05
8/24/2021 8:15:00 PM 22.14 71.852 0.092 7.3 5.24 8.05
8/24/2021 8:30:00 PM 22.02 71.636 0.092 7.29 5.81 8.04
8/24/2021 8:45:00 PM 21.89 71.402 0.092 7.29 5.49 8.05
8/24/2021 9:00:00 PM 21.77 71.186 0.092 7.28 5.46 8.06
8/24/2021 9:15:00 PM 21.66 70.988 0.093 7.28 5.5 8.08
8/24/2021 9:30:00 PM 21.55 70.79 0.093 7.28 5.63 8.1
8/24/2021 9:45:00 PM 21.43 70.574 0.093 7.27 5.83 8.12
8/24/2021 10:00:00 PM 21.33 70.394 0.093 7.28 5.57 8.13
8/24/2021 10:15:00 PM 21.22 70.196 0.093 7.28 5.41 8.16
8/24/2021 10:30:00 PM 21.1 69.98 0.093 7.27 5.34 8.16
8/24/2021 10:45:00 PM 21 69.8 0.093 7.27 6.63 8.18
8/24/2021 11:00:00 PM 20.9 69.62 0.094 7.28 5.58 8.2
8/24/2021 11:15:00 PM 20.8 69.44 0.094 7.27 5.23 8.22
8/24/2021 11:30:00 PM 20.7 69.26 0.094 7.27 5.29 8.24
8/24/2021 11:45:00 PM 20.6 69.08 0.094 7.28 5.39 8.26
8/25/2021 12:00:00 AM 20.5 68.9 0.094 7.27 5.45 8.29
8/25/2021 12:15:00 AM 20.4 68.72 0.094 7.27 5.18 8.31
8/25/2021 12:30:00 AM 20.31 68.558 0.094 7.27 5.25 8.33
8/25/2021 12:45:00 AM 20.21 68.378 0.094 7.27 5.35 8.36
8/25/2021 1:00:00 AM 20.12 68.216 0.094 7.28 5.07 8.37
8/25/2021 1:15:00 AM 20.02 68.036 0.094 7.27 5.12 8.39
8/25/2021 1:30:00 AM 19.93 67.874 0.094 7.28 5.12 8.41
8/25/2021 1:45:00 AM 19.84 67.712 0.094 7.27 5.14 8.42
8/25/2021 2:00:00 AM 19.77 67.586 0.094 7.28 5.21 8.44
8/25/2021 2:15:00 AM 19.69 67.442 0.094 7.28 4.88 8.46
8/25/2021 2:30:00 AM 19.6 67.28 0.094 7.28 5.21 8.47
8/25/2021 2:45:00 AM 19.53 67.154 0.094 7.29 5.47 8.49
8/25/2021 3:00:00 AM 19.46 67.028 0.094 7.28 5.42 8.49
8/25/2021 3:15:00 AM 19.38 66.884 0.094 7.29 5.19 8.52
8/25/2021 3:30:00 AM 19.31 66.758 0.094 7.28 5.23 8.53
8/25/2021 3:45:00 AM 19.24 66.632 0.094 7.29 5.03 8.54
8/25/2021 4:00:00 AM 19.17 66.506 0.094 7.29 5.11 8.56
8/25/2021 4:15:00 AM 19.1 66.38 0.094 7.29 5.19 8.57
8/25/2021 4:30:00 AM 19.03 66.254 0.094 7.29 5.41 8.59
8/25/2021 4:45:00 AM 18.97 66.146 0.094 7.28 5.08 8.59
8/25/2021 5:00:00 AM 18.9 66.02 0.094 7.29 4.87 8.61
8/25/2021 5:15:00 AM 18.83 65.894 0.094 7.28 4.99 8.62
8/25/2021 5:30:00 AM 18.77 65.786 0.094 7.29 5.03 8.64
8/25/2021 5:45:00 AM 18.7 65.66 0.094 7.28 5.14 8.65
8/25/2021 6:00:00 AM 18.63 65.534 0.094 7.28 4.93 8.66
8/25/2021 6:15:00 AM 18.57 65.426 0.094 7.28 5.17 8.66
8/25/2021 6:30:00 AM 18.51 65.318 0.094 7.29 5.02 8.7
8/25/2021 6:45:00 AM 18.45 65.21 0.094 7.29 5.01 8.73
8/25/2021 7:00:00 AM 18.4 65.12 0.094 7.3 5.29 8.78
8/25/2021 7:15:00 AM 18.36 65.048 0.094 7.3 5.31 8.83
8/25/2021 7:30:00 AM 18.32 64.976 0.094 7.32 4.76 8.89
8/25/2021 7:45:00 AM 18.3 64.94 0.094 7.34 4.65 8.94
8/25/2021 8:00:00 AM 18.28 64.904 0.094 7.36 4.72 9
8/25/2021 8:15:00 AM 18.28 64.904 0.094 7.37 4.64 9.05
8/25/2021 8:30:00 AM 18.3 64.94 0.094 7.41 4.5 9.11
8/25/2021 8:45:00 AM 18.34 65.012 0.094 7.44 4.57 9.18
8/25/2021 9:00:00 AM 18.38 65.084 0.094 7.46 4.46 9.21
8/25/2021 9:15:00 AM 18.44 65.192 0.094 7.48 4.49 9.26
8/25/2021 9:30:00 AM 18.51 65.318 0.094 7.51 4.21 9.31
8/25/2021 9:45:00 AM 18.62 65.516 0.094 7.53 4.13 9.34
8/25/2021 10:00:00 AM 18.75 65.75 0.094 7.56 4.47 9.38
8/25/2021 10:15:00 AM 18.92 66.056 0.094 7.59 4.18 9.41
8/25/2021 10:30:00 AM 19.12 66.416 0.094 7.62 4.35 9.44
8/25/2021 10:45:00 AM 19.34 66.812 0.094 7.63 4.31 9.47
8/25/2021 11:00:00 AM 19.56 67.208 0.094 7.67 4.46 9.48
8/25/2021 11:15:00 AM 19.8 67.64 0.094 7.73 4.08 9.49
8/25/2021 11:30:00 AM 20.06 68.108 0.094 7.76 4.06 9.49
8/25/2021 11:45:00 AM 20.35 68.63 0.094 7.8 4.34 9.47
8/25/2021 12:00:00 PM 20.64 69.152 0.094 7.82 4.44 9.44
8/25/2021 12:15:00 PM 20.92 69.656 0.094 7.82 4.16 9.39
8/25/2021 12:30:00 PM 21.15 70.07 0.093 7.85 3.98 9.34
8/25/2021 12:45:00 PM 21.35 70.43 0.093 7.86 4.16 9.34
8/25/2021 1:00:00 PM 21.54 70.772 0.093 7.87 4.21 9.27
8/25/2021 1:15:00 PM 21.78 71.204 0.093 7.89 4.25 9.25
8/25/2021 1:30:00 PM 21.94 71.492 0.093 7.9 4.29 9.19
8/25/2021 1:45:00 PM 22.04 71.672 0.093 7.88 4.44 9.14
8/25/2021 2:00:00 PM 22.17 71.906 0.093 7.85 4.11 9.08
8/25/2021 2:15:00 PM 22.36 72.248 0.093 7.91 4.12 9.08
8/25/2021 2:30:00 PM 22.52 72.536 0.093 7.9 4.28 9.07
8/25/2021 2:45:00 PM 22.68 72.824 0.093 7.9 4.11 9.04
8/25/2021 3:00:00 PM 22.85 73.13 0.093 7.97 4.17 9.03
8/25/2021 3:15:00 PM 22.95 73.31 0.093 7.95 4.09 8.97
8/25/2021 3:30:00 PM 23.07 73.526 0.093 7.95 4.12 8.92
8/25/2021 3:45:00 PM 23.14 73.652 0.093 7.9 4.07 8.84
8/25/2021 4:00:00 PM 23.21 73.778 0.094 7.84 4.24 8.76
8/25/2021 4:15:00 PM 23.25 73.85 0.094 7.82 4.06 8.69
8/25/2021 4:30:00 PM 23.28 73.904 0.094 7.76 4.06 8.62
8/25/2021 4:45:00 PM 23.29 73.922 0.094 7.73 4.09 8.57
8/25/2021 5:00:00 PM 23.29 73.922 0.094 7.68 3.86 8.51
8/25/2021 5:15:00 PM 23.27 73.886 0.095 7.64 3.84 8.45
8/25/2021 5:30:00 PM 23.24 73.832 0.095 7.61 4.01 8.42
8/25/2021 5:45:00 PM 23.19 73.742 0.095 7.57 4.29 8.37
8/25/2021 6:00:00 PM 23.15 73.67 0.095 7.54 3.96 8.32
8/25/2021 6:15:00 PM 23.11 73.598 0.096 7.5 4.16 8.24
8/25/2021 6:30:00 PM 23.08 73.544 0.096 7.48 4.15 8.19
8/25/2021 6:45:00 PM 23.01 73.418 0.096 7.43 4.01 8.14
8/25/2021 7:00:00 PM 22.92 73.256 0.097 7.41 4.23 8.08
8/25/2021 7:15:00 PM 22.83 73.094 0.097 7.37 3.85 8.05
8/25/2021 7:30:00 PM 22.73 72.914 0.097 7.33 3.95 8
8/25/2021 7:45:00 PM 22.62 72.716 0.097 7.32 4.22 7.97
8/25/2021 8:00:00 PM 22.51 72.518 0.097 7.3 4.39 7.93
8/25/2021 8:15:00 PM 22.39 72.302 0.097 7.28 4.49 7.92
8/25/2021 8:30:00 PM 22.27 72.086 0.097 7.27 4.25 7.91
8/25/2021 8:45:00 PM 22.15 71.87 0.098 7.25 4.2 7.91
8/25/2021 9:00:00 PM 22.03 71.654 0.098 7.25 4.66 7.93
8/25/2021 9:15:00 PM 21.91 71.438 0.098 7.24 4.25 7.95
8/25/2021 9:30:00 PM 21.8 71.24 0.098 7.22 4.31 7.95
8/25/2021 9:45:00 PM 21.7 71.06 0.098 7.23 4.26 7.97
8/25/2021 10:00:00 PM 21.61 70.898 0.098 7.22 4.03 7.99
8/25/2021 10:15:00 PM 21.52 70.736 0.098 7.23 4.08 8
8/25/2021 10:30:00 PM 21.43 70.574 0.098 7.23 4.96 8.03
8/25/2021 10:45:00 PM 21.35 70.43 0.098 7.24 4.04 8.04
8/25/2021 11:00:00 PM 21.27 70.286 0.098 7.24 4.3 8.05
8/25/2021 11:15:00 PM 21.18 70.124 0.098 7.23 4.38 8.07
8/25/2021 11:30:00 PM 21.1 69.98 0.098 7.24 4.3 8.08
8/25/2021 11:45:00 PM 21.03 69.854 0.099 7.24 4.22 8.03
8/26/2021 12:00:00 AM 20.94 69.692 0.099 7.24 4.29 8.11
8/26/2021 12:15:00 AM 20.87 69.566 0.099 7.21 4.26 8.12
8/26/2021 12:30:00 AM 20.79 69.422 0.099 7.24 4.36 8.14
8/26/2021 12:45:00 AM 20.71 69.278 0.099 7.25 4.41 8.15
8/26/2021 1:00:00 AM 20.64 69.152 0.099 7.24 4.4 8.16
8/26/2021 1:15:00 AM 20.56 69.008 0.099 7.24 4.81 8.18
8/26/2021 1:30:00 AM 20.47 68.846 0.099 7.24 4.44 8.2
8/26/2021 1:45:00 AM 20.41 68.738 0.099 7.25 4.34 8.21
8/26/2021 2:00:00 AM 20.34 68.612 0.099 7.24 4.41 8.23
8/26/2021 2:15:00 AM 20.27 68.486 0.099 7.25 4.72 8.24
8/26/2021 2:30:00 AM 20.2 68.36 0.099 7.26 4.26 8.27
8/26/2021 2:45:00 AM 20.12 68.216 0.099 7.26 4.35 8.29
8/26/2021 3:00:00 AM 20.05 68.09 0.099 7.24 4.2 8.29
8/26/2021 3:15:00 AM 19.97 67.946 0.099 7.25 4.64 8.3
8/26/2021 3:30:00 AM 19.91 67.838 0.099 7.25 4.38 8.32
8/26/2021 3:45:00 AM 19.84 67.712 0.099 7.25 4.17 8.34
8/26/2021 4:00:00 AM 19.77 67.586 0.099 7.25 4.49 8.34
8/26/2021 4:15:00 AM 19.7 67.46 0.099 7.24 4.39 8.34
8/26/2021 4:30:00 AM 19.64 67.352 0.099 7.24 4.39 8.34
8/26/2021 4:45:00 AM 19.58 67.244 0.099 7.26 4.53 8.34
8/26/2021 5:00:00 AM 19.51 67.118 0.099 7.24 4.32 8.39
8/26/2021 5:15:00 AM 19.44 66.992 0.099 7.24 4.33 8.41
8/26/2021 5:30:00 AM 19.38 66.884 0.099 7.24 4.43 8.42
8/26/2021 5:45:00 AM 19.32 66.776 0.099 7.24 4.32 8.43
8/26/2021 6:00:00 AM 19.27 66.686 0.099 7.24 4.38 8.44
8/26/2021 6:15:00 AM 19.2 66.56 0.099 7.24 4.37 8.44
8/26/2021 6:30:00 AM 19.15 66.47 0.099 7.24 4.4 8.46
8/26/2021 6:45:00 AM 19.09 66.362 0.099 7.25 4.44 8.51
8/26/2021 7:00:00 AM 19.04 66.272 0.099 7.26 4.25 8.56
8/26/2021 7:15:00 AM 18.99 66.182 0.099 7.27 4.14 8.61
8/26/2021 7:30:00 AM 18.95 66.11 0.099 7.29 4.3 8.69
8/26/2021 7:45:00 AM 18.92 66.056 0.099 7.3 4.32 8.75
8/26/2021 8:00:00 AM 18.89 66.002 0.099 7.31 4.12 8.81
8/26/2021 8:15:00 AM 18.9 66.02 0.099 7.35 4.15 8.91
8/26/2021 8:30:00 AM 18.91 66.038 0.098 7.35 4.03 8.98
8/26/2021 8:45:00 AM 18.95 66.11 0.098 7.4 4.32 9.07
8/26/2021 9:00:00 AM 19 66.2 0.098 7.42 3.9 9.14
8/26/2021 9:15:00 AM 19.05 66.29 0.098 7.42 4.04 9.19
8/26/2021 9:30:00 AM 19.13 66.434 0.098 7.45 4.33 9.27
8/26/2021 9:45:00 AM 19.28 66.704 0.097 7.5 3.98 9.4
8/26/2021 10:00:00 AM 19.45 67.01 0.097 7.57 3.91 9.5
8/26/2021 10:15:00 AM 19.6 67.28 0.097 7.6 3.66 9.52
8/26/2021 10:30:00 AM 19.73 67.514 0.097 7.59 3.88 9.53
8/26/2021 10:45:00 AM 19.85 67.73 0.097 7.62 3.83 9.57
8/26/2021 11:00:00 AM 20.06 68.108 0.097 7.63 3.92 9.53
8/26/2021 11:15:00 AM 20.3 68.54 0.097 7.72 3.8 9.57
8/26/2021 11:30:00 AM 20.55 68.99 0.097 7.64 3.96 9.43
8/26/2021 11:45:00 AM 20.86 69.548 0.097 7.69 3.73 9.41
8/26/2021 12:00:00 PM 21.17 70.106 0.097 7.67 3.86 9.33
8/26/2021 12:15:00 PM 21.47 70.646 0.097 7.69 3.81 9.26
8/26/2021 12:30:00 PM 21.76 71.168 0.096 7.71 4.57 9.24
8/26/2021 12:45:00 PM 22.06 71.708 0.096 7.72 3.59 9.26
8/26/2021 1:00:00 PM 22.38 72.284 0.096 7.76 3.63 9.23
8/26/2021 1:15:00 PM 22.58 72.644 0.096 7.81 3.85 9.19
8/26/2021 1:30:00 PM 22.73 72.914 0.096 7.79 3.49 9.1
8/26/2021 1:45:00 PM 22.83 73.094 0.096 7.72 3.65 9.03
8/26/2021 2:00:00 PM 22.99 73.382 0.096 7.74 3.62 9
8/26/2021 2:15:00 PM 23.15 73.67 0.096 7.78 3.68 9.01
8/26/2021 2:30:00 PM 23.31 73.958 0.096 7.84 3.72 8.98
8/26/2021 2:45:00 PM 23.39 74.102 0.096 7.84 3.72 8.9
8/26/2021 3:00:00 PM 23.39 74.102 0.096 7.79 3.45 8.84
8/26/2021 3:15:00 PM 23.33 73.994 0.096 7.75 3.88 8.77
8/26/2021 3:30:00 PM 23.36 74.048 0.096 7.75 3.5 8.77
8/26/2021 3:45:00 PM 23.37 74.066 0.096 7.67 3.46 8.67
8/26/2021 4:00:00 PM 23.41 74.138 0.096 7.64 3.45 8.58
8/26/2021 4:15:00 PM 23.54 74.372 0.096 7.63 3.64 8.49
8/26/2021 4:30:00 PM 23.63 74.534 0.097 7.63 3.66 8.44
8/26/2021 4:45:00 PM 23.63 74.534 0.097 7.59 3.51 8.39
8/26/2021 5:00:00 PM 23.59 74.462 0.097 7.56 3.6 8.34
8/26/2021 5:15:00 PM 23.55 74.39 0.097 7.49 3.45 8.33
8/26/2021 5:30:00 PM 23.54 74.372 0.097 7.47 3.47 8.32
8/26/2021 5:45:00 PM 23.5 74.3 0.098 7.41 3.6 8.21
8/26/2021 6:00:00 PM 23.54 74.372 0.098 7.48 3.42 8.2
8/26/2021 6:15:00 PM 23.51 74.318 0.098 7.39 3.47 8.11
8/26/2021 6:30:00 PM 23.51 74.318 0.098 7.37 4 8.04
8/26/2021 6:45:00 PM 23.44 74.192 0.098 7.34 3.59 7.96
8/26/2021 7:00:00 PM 23.44 74.192 0.099 7.33 3.6 7.9
8/26/2021 7:15:00 PM 23.38 74.084 0.1 7.29 3.45 7.84
8/26/2021 7:30:00 PM 23.28 73.904 0.1 7.22 3.96 7.75
8/26/2021 7:45:00 PM 23.15 73.67 0.1 7.21 3.58 7.7
8/26/2021 8:00:00 PM 23.07 73.526 0.1 7.2 3.73 7.66
8/26/2021 8:15:00 PM 22.98 73.364 0.101 7.21 3.69 7.64
8/26/2021 8:30:00 PM 22.9 73.22 0.101 7.21 4.09 7.64
8/26/2021 8:45:00 PM 22.81 73.058 0.101 7.2 3.95 7.63
8/26/2021 9:00:00 PM 22.73 72.914 0.101 7.17 3.98 7.59
8/26/2021 9:15:00 PM 22.64 72.752 0.102 7.19 4.17 7.62
8/26/2021 9:30:00 PM 22.54 72.57201 0.102 7.16 5.45 7.61
8/26/2021 9:45:00 PM 22.44 72.392 0.102 7.16 4.1 7.62
8/26/2021 10:00:00 PM 22.32 72.176 0.102 7.12 3.98 7.62
8/26/2021 10:15:00 PM 22.26 72.068 0.102 7.16 3.81 7.66
8/26/2021 10:30:00 PM 22.18 71.924 0.102 7.19 4.07 7.69
8/26/2021 10:45:00 PM 22.09 71.762 0.102 7.18 4.14 7.72
8/26/2021 11:00:00 PM 22 71.6 0.102 7.18 3.79 7.73
8/26/2021 11:15:00 PM 21.9 71.42 0.102 7.2 3.97 7.78
8/26/2021 11:30:00 PM 21.8 71.24 0.102 7.17 3.84 7.76
8/26/2021 11:45:00 PM 21.71 71.078 0.102 7.17 4 7.81
8/27/2021 12:00:00 AM 21.61 70.898 0.102 7.18 3.81 7.83
8/27/2021 12:15:00 AM 21.51 70.718 0.102 7.15 3.94 7.83
8/27/2021 12:30:00 AM 21.44 70.592 0.102 7.17 4.03 7.85
8/27/2021 12:45:00 AM 21.35 70.43 0.103 7.17 4.11 7.88
8/27/2021 1:00:00 AM 21.24 70.232 0.103 7.17 4.1 7.89
8/27/2021 1:15:00 AM 21.15 70.07 0.103 7.17 4.14 7.92
8/27/2021 1:30:00 AM 21.07 69.926 0.103 7.17 4.15 7.92
8/27/2021 1:45:00 AM 20.95 69.71 0.103 7.13 4.22 7.92
8/27/2021 2:00:00 AM 20.88 69.584 0.103 7.15 4.1 7.93
8/27/2021 2:15:00 AM 20.82 69.476 0.103 7.18 7.75 7.96
8/27/2021 2:30:00 AM 20.74 69.332 0.103 7.18 4.75 8
8/27/2021 2:45:00 AM 20.64 69.152 0.103 7.15 4.83 7.99
8/27/2021 3:00:00 AM 20.56 69.008 0.103 7.17 3.94 8.01
8/27/2021 3:15:00 AM 20.51 68.918 0.103 7.2 4.88 8.06
8/27/2021 3:30:00 AM 20.4 68.72 0.103 7.14 7.45 8.04
8/27/2021 3:45:00 AM 20.33 68.594 0.103 7.17 4.34 8.05
8/27/2021 4:00:00 AM 20.27 68.486 0.103 7.17 4.3 8.1
8/27/2021 4:15:00 AM 20.19 68.342 0.103 7.14 4.29 8.08
8/27/2021 4:30:00 AM 20.13 68.234 0.103 7.16 4.17 8.09
8/27/2021 4:45:00 AM 20.07 68.126 0.103 7.18 4.17 8.13
8/27/2021 5:00:00 AM 20.02 68.036 0.103 7.18 4.29 8.14
8/27/2021 5:15:00 AM 19.95 67.91 0.103 7.16 4.24 8.15
8/27/2021 5:30:00 AM 19.9 67.82 0.103 7.17 4.31 8.16
8/27/2021 5:45:00 AM 19.83 67.694 0.103 7.16 4.57 8.16
8/27/2021 6:00:00 AM 19.77 67.586 0.103 7.16 4.21 8.17
8/27/2021 6:15:00 AM 19.74 67.532 0.103 7.19 4.24 8.23
8/27/2021 6:30:00 AM 19.64 67.352 0.103 7.14 4.29 8.2
8/27/2021 6:45:00 AM 19.58 67.244 0.103 7.16 4.02 8.25
8/27/2021 7:00:00 AM 19.57 67.226 0.103 7.2 3.96 8.32
8/27/2021 7:15:00 AM 19.49 67.082 0.102 7.15 3.93 8.36
8/27/2021 7:30:00 AM 19.5 67.1 0.102 7.2 3.99 8.46
8/27/2021 7:45:00 AM 19.49 67.082 0.102 7.21 3.8 8.54
8/27/2021 8:00:00 AM 19.45 67.01 0.102 7.19 3.84 8.61
8/27/2021 8:15:00 AM 19.45 67.01 0.102 7.24 3.8 8.67
8/27/2021 8:30:00 AM 19.47 67.046 0.102 7.25 3.74 8.77
8/27/2021 8:45:00 AM 19.48 67.064 0.101 7.26 3.74 8.91
8/27/2021 9:00:00 AM 19.52 67.136 0.101 7.27 3.92 9.02
8/27/2021 9:15:00 AM 19.55 67.19 0.101 7.27 3.77 9.05
8/27/2021 9:30:00 AM 19.62 67.316 0.101 7.32 3.6 9.15
8/27/2021 9:45:00 AM 19.63 67.334 0.1 7.29 3.95 9.12
8/27/2021 10:00:00 AM 19.7 67.46 0.1 7.3 3.7 9.18
8/27/2021 10:15:00 AM 19.71 67.478 0.1 7.25 3.74 9.16
8/27/2021 10:30:00 AM 19.8 67.64 0.1 7.4 3.78 9.23
8/27/2021 10:45:00 AM 19.84 67.712 0.1 7.32 3.58 9.23
8/27/2021 11:00:00 AM 19.87 67.766 0.1 7.28 3.65 9.22
8/27/2021 11:15:00 AM 19.93 67.874 0.1 7.29 3.78 9.23
8/27/2021 11:30:00 AM 19.96 67.92799 0.099 7.23 3.75 9.2
8/27/2021 11:45:00 AM 20.11 68.198 0.099 7.34 3.59 9.31
8/27/2021 12:00:00 PM 20.17 68.306 0.099 7.34 3.54 9.31
8/27/2021 12:15:00 PM 20.24 68.432 0.099 7.35 3.66 9.24
8/27/2021 12:30:00 PM 20.3 68.54 0.098 7.41 3.72 9.34
8/27/2021 12:45:00 PM 20.5 68.9 0.099 7.54 3.78 9.5
8/27/2021 1:00:00 PM 20.58 69.044 0.099 7.44 3.74 9.43
8/27/2021 1:15:00 PM 20.81 69.458 0.099 7.47 3.74 9.42
8/27/2021 1:30:00 PM 20.98 69.764 0.098 7.41 3.68 9.38
8/27/2021 1:45:00 PM 21.18 70.124 0.098 7.62 3.61 9.45
8/27/2021 2:00:00 PM 21.31 70.358 0.098 7.46 3.74 9.31
8/27/2021 2:15:00 PM 21.45 70.61 0.098 7.48 3.78 9.18
8/27/2021 2:30:00 PM 21.58 70.844 0.098 7.52 3.75 9.18
8/27/2021 2:45:00 PM 21.69 71.042 0.097 7.45 3.82 9.07
8/27/2021 3:00:00 PM 21.85 71.33 0.097 7.47 3.71 9.11
8/27/2021 3:15:00 PM 21.92 71.456 0.097 7.46 3.5 9.07
8/27/2021 3:30:00 PM 22.07 71.726 0.097 7.53 3.49 9.06
8/27/2021 3:45:00 PM 22.27 72.086 0.098 7.65 3.57 9.01
8/27/2021 4:00:00 PM 22.31 72.158 0.097 7.49 3.67 8.85
8/27/2021 4:15:00 PM 22.34 72.212 0.097 7.63 3.87 8.81
8/27/2021 4:30:00 PM 22.73 72.914 0.098 8.31 5.3 9
8/27/2021 4:45:00 PM 22.71 72.878 0.098 8.25 5.09 8.91
8/27/2021 5:00:00 PM 22.69 72.842 0.099 8.16 4.4 8.84
8/27/2021 5:15:00 PM 22.67 72.806 0.099 8.04 4.53 8.71
8/27/2021 5:30:00 PM 22.62 72.716 0.1 7.92 4.01 8.62
8/27/2021 5:45:00 PM 22.6 72.68 0.1 7.85 4.36 8.54
8/27/2021 6:00:00 PM 22.58 72.644 0.101 7.76 4.16 8.47
8/27/2021 6:15:00 PM 22.51 72.518 0.1 7.69 5 8.35
8/27/2021 6:30:00 PM 22.39 72.302 0.1 7.59 4.68 8.24
8/27/2021 6:45:00 PM 22.3 72.14 0.101 7.53 4.38 8.14
8/27/2021 7:00:00 PM 22.23 72.014 0.1 7.5 4.28 8.11
8/27/2021 7:15:00 PM 22.18 71.924 0.101 7.48 4.67 8.08
8/27/2021 7:30:00 PM 22.12 71.816 0.1 7.45 4.88 8.05
8/27/2021 7:45:00 PM 22.04 71.672 0.099 7.42 4.32 8.03
8/27/2021 8:00:00 PM 21.97 71.546 0.098 7.4 4.56 8
8/27/2021 8:15:00 PM 21.89 71.402 0.096 7.36 4.36 7.98
8/27/2021 8:30:00 PM 21.83 71.294 0.094 7.35 4.73 7.97
8/27/2021 8:45:00 PM 21.78 71.204 0.092 7.3 4.85 7.97
8/27/2021 9:00:00 PM 21.74 71.132 0.091 7.32 4.73 7.97
8/27/2021 9:15:00 PM 21.72 71.096 0.09 7.3 4.62 7.96
8/27/2021 9:30:00 PM 21.69 71.042 0.089 7.29 4.74 7.92
8/27/2021 9:45:00 PM 21.68 71.024 0.089 7.28 4.46 7.94
8/27/2021 10:00:00 PM 21.66 70.988 0.089 7.27 4.74 7.95
8/27/2021 10:15:00 PM 21.65 70.97 0.089 7.27 4.84 7.95
8/27/2021 10:30:00 PM 21.64 70.952 0.089 7.26 4.44 7.93
8/27/2021 10:45:00 PM 21.63 70.934 0.089 7.25 4.56 7.94
8/27/2021 11:00:00 PM 21.58 70.844 0.089 7.23 4.53 7.92
8/27/2021 11:15:00 PM 21.57 70.826 0.089 7.25 4.52 7.94
8/27/2021 11:30:00 PM 21.54 70.772 0.09 7.25 4.24 7.94
8/27/2021 11:45:00 PM 21.52 70.736 0.09 7.25 4.64 7.95
8/28/2021 12:00:00 AM 21.47 70.646 0.09 7.23 4.31 7.96
8/28/2021 12:15:00 AM 21.43 70.574 0.09 7.23 4.47 7.95
8/28/2021 12:30:00 AM 21.39 70.502 0.091 7.23 4.52 7.96
8/28/2021 12:45:00 AM 21.35 70.43 0.091 7.23 4.22 7.97
8/28/2021 1:00:00 AM 21.3 70.34 0.091 7.21 4.51 7.96
8/28/2021 1:15:00 AM 21.26 70.268 0.091 7.2 4.34 7.98
8/28/2021 1:30:00 AM 21.23 70.214 0.091 7.21 4.19 7.98
8/28/2021 1:45:00 AM 21.2 70.16 0.092 7.2 4.37 7.99
8/28/2021 2:00:00 AM 21.14 70.052 0.092 7.2 4.36 7.99
8/28/2021 2:15:00 AM 21.12 70.016 0.092 7.2 4.2 8
8/28/2021 2:30:00 AM 21.07 69.926 0.092 7.2 4.17 8.01
8/28/2021 2:45:00 AM 21.03 69.854 0.092 7.18 4.35 8
8/28/2021 3:00:00 AM 21.01 69.818 0.092 7.19 4.38 8
8/28/2021 3:15:00 AM 20.95 69.71 0.093 7.17 4.36 8
8/28/2021 3:30:00 AM 20.95 69.71 0.093 7.2 4.29 8.05
8/28/2021 3:45:00 AM 20.87 69.566 0.093 7.17 4.23 8.01
8/28/2021 4:00:00 AM 20.84 69.512 0.093 7.17 4.19 8.02
8/28/2021 4:15:00 AM 20.77 69.386 0.094 7.16 4.46 8.03
8/28/2021 4:30:00 AM 20.75 69.35 0.094 7.17 4.78 8.04
8/28/2021 4:45:00 AM 20.71 69.278 0.094 7.16 4.33 8.04
8/28/2021 5:00:00 AM 20.68 69.224 0.094 7.17 5.07 8.05
8/28/2021 5:15:00 AM 20.65 69.17 0.094 7.18 4.23 8.06
8/28/2021 5:30:00 AM 20.62 69.116 0.094 7.18 4.53 8.07
8/28/2021 5:45:00 AM 20.57 69.026 0.095 7.16 4.25 8.06
8/28/2021 6:00:00 AM 20.56 69.008 0.095 7.17 4.57 8.09
8/28/2021 6:15:00 AM 20.5 68.9 0.095 7.15 4.22 8.08
8/28/2021 6:30:00 AM 20.45 68.81 0.095 7.14 4.45 8.09
8/28/2021 6:45:00 AM 20.44 68.792 0.095 7.18 4.01 8.11
8/28/2021 7:00:00 AM 20.37 68.666 0.095 7.14 3.89 8.11
8/28/2021 7:15:00 AM 20.33 68.594 0.095 7.13 4.13 8.15
8/28/2021 7:30:00 AM 20.28 68.504 0.095 7.11 3.92 8.16
8/28/2021 7:45:00 AM 20.3 68.54 0.095 7.21 3.98 8.29
8/28/2021 8:00:00 AM 20.19 68.342 0.095 7.13 4.07 8.32
8/28/2021 8:15:00 AM 20.24 68.432 0.095 7.22 4.23 8.51
8/28/2021 8:30:00 AM 20.14 68.252 0.095 7.15 3.9 8.57
8/28/2021 8:45:00 AM 20.12 68.216 0.095 7.17 4.04 8.57
8/28/2021 9:00:00 AM 20.16 68.288 0.095 7.22 3.82 8.83
8/28/2021 9:15:00 AM 20.16 68.288 0.096 7.25 3.8 8.94
8/28/2021 9:30:00 AM 20.09 68.162 0.095 7.22 3.96 8.85
8/28/2021 9:45:00 AM 20.14 68.252 0.096 7.31 3.89 9.05
8/28/2021 10:00:00 AM 20.11 68.198 0.095 7.26 4.09 9.07
8/28/2021 10:15:00 AM 20.22 68.396 0.095 7.4 4.11 9.29
8/28/2021 10:30:00 AM 20.34 68.612 0.095 7.41 4.01 9.38
8/28/2021 10:45:00 AM 20.48 68.864 0.095 7.43 4.23 9.44
8/28/2021 11:00:00 AM 20.53 68.954 0.095 7.35 4.09 9.39
8/28/2021 11:15:00 AM 20.75 69.35 0.095 7.6 4.03 9.57
8/28/2021 11:30:00 AM 20.66 69.188 0.094 7.49 4.16 9.52
8/28/2021 11:45:00 AM 20.91 69.638 0.095 7.74 4.11 9.63
8/28/2021 12:00:00 PM 20.83 69.494 0.094 7.43 3.9 9.47
8/28/2021 12:15:00 PM 21.11 69.998 0.095 7.65 4.06 9.62
8/28/2021 12:30:00 PM 21.31 70.358 0.095 8.1 3.69 9.7
8/28/2021 12:45:00 PM 21.2 70.16 0.095 7.59 3.77 9.47
8/28/2021 1:00:00 PM 21.21 70.17799 0.095 7.67 3.72 9.55
8/28/2021 1:15:00 PM 21.28 70.304 0.095 7.97 3.89 9.58
8/28/2021 1:30:00 PM 21.3 70.34 0.095 7.82 3.59 9.52
8/28/2021 1:45:00 PM 21.37 70.466 0.095 7.73 3.77 9.42
8/28/2021 2:00:00 PM 21.46 70.628 0.095 7.84 3.61 9.44
8/28/2021 2:15:00 PM 21.61 70.898 0.095 7.91 3.79 9.4
8/28/2021 2:30:00 PM 21.63 70.934 0.095 7.75 4.01 9.31
8/28/2021 2:45:00 PM 21.75 71.15 0.095 7.9 3.66 9.23
8/28/2021 3:00:00 PM 21.81 71.258 0.095 7.77 4.22 9.17
8/28/2021 3:15:00 PM 21.87 71.366 0.095 7.7 3.68 9.15
8/28/2021 3:30:00 PM 22.11 71.798 0.095 8.36 3.84 9.25
8/28/2021 3:45:00 PM 21.96 71.528 0.095 7.63 3.91 8.93
8/28/2021 4:00:00 PM 22.02 71.636 0.096 7.92 3.69 8.91
8/28/2021 4:15:00 PM 22.04 71.672 0.096 7.99 3.82 8.95
8/28/2021 4:30:00 PM 21.93 71.474 0.097 7.78 3.74 8.93
8/28/2021 4:45:00 PM 21.8 71.24 0.097 7.67 3.71 8.8
8/28/2021 5:00:00 PM 21.69 71.042 0.097 7.55 3.56 8.73
8/28/2021 5:15:00 PM 21.6 70.88 0.098 7.45 3.63 8.61
8/28/2021 5:30:00 PM 21.58 70.844 0.098 7.48 3.66 8.58
8/28/2021 5:45:00 PM 21.38 70.484 0.099 7.3 4.13 8.4
8/28/2021 6:00:00 PM 21.37 70.466 0.099 7.35 3.66 8.39
8/28/2021 6:15:00 PM 21.29 70.32201 0.1 7.31 3.61 8.34
8/28/2021 6:30:00 PM 21.23 70.214 0.1 7.32 3.62 8.31
8/28/2021 6:45:00 PM 21.04 69.872 0.1 7.18 3.74 8.12
8/28/2021 7:00:00 PM 21.02 69.836 0.101 7.21 3.78 8.1
8/28/2021 7:15:00 PM 21.03 69.854 0.102 7.26 3.79 8.16
8/28/2021 7:30:00 PM 20.92 69.656 0.102 7.2 3.71 8.09
8/28/2021 7:45:00 PM 20.9 69.62 0.102 7.19 3.72 8.11
8/28/2021 8:00:00 PM 20.71 69.278 0.102 7.1 3.84 7.95
8/28/2021 8:15:00 PM 20.75 69.35 0.103 7.27 4.01 8.1
8/28/2021 8:30:00 PM 20.64 69.152 0.103 7.22 3.78 8.06
8/28/2021 8:45:00 PM 20.54 68.972 0.103 7.1 4.39 8.01
8/28/2021 9:00:00 PM 20.48 68.864 0.103 7.18 4.06 8.01
8/28/2021 9:15:00 PM 20.48 68.864 0.104 7.21 4.14 8.06
8/28/2021 9:30:00 PM 20.39 68.702 0.104 7.2 4.03 8.06
8/28/2021 9:45:00 PM 20.29 68.522 0.104 7.16 4.14 8.03
8/28/2021 10:00:00 PM 20.24 68.432 0.104 7.15 3.86 8.04
8/28/2021 10:15:00 PM 20.26 68.468 0.105 7.25 4.3 8.12
8/28/2021 10:30:00 PM 20.2 68.36 0.105 7.22 3.91 8.13
8/28/2021 10:45:00 PM 20.1 68.18 0.105 7.18 4.14 8.1
8/28/2021 11:00:00 PM 19.97 67.946 0.104 7.17 3.91 8.09
8/28/2021 11:15:00 PM 19.97 67.946 0.104 7.18 3.8 8.12
8/28/2021 11:30:00 PM 19.86 67.748 0.104 7.13 3.73 8.08
8/28/2021 11:45:00 PM 19.76 67.568 0.104 7.08 3.77 8.09
8/29/2021 12:00:00 AM 19.83 67.694 0.104 7.19 3.76 8.16
8/29/2021 12:15:00 AM 19.74 67.532 0.104 7.16 3.94 8.13
8/29/2021 12:30:00 AM 19.73 67.514 0.104 7.2 3.87 8.2
8/29/2021 12:45:00 AM 19.64 67.352 0.104 7.13 3.86 8.13
8/29/2021 1:00:00 AM 19.58 67.244 0.104 7.13 4.08 8.15
8/29/2021 1:15:00 AM 19.63 67.334 0.105 7.23 3.9 8.25
8/29/2021 1:30:00 AM 19.49 67.082 0.104 7.15 3.9 8.23
8/29/2021 1:45:00 AM 19.5 67.1 0.104 7.16 15.81 8.18
8/29/2021 2:00:00 AM 19.44 66.992 0.105 7.16 4.29 8.22
8/29/2021 2:15:00 AM 19.4 66.92 0.105 7.14 3.81 8.23
8/29/2021 2:30:00 AM 19.38 66.884 0.105 7.19 4.12 8.23
8/29/2021 2:45:00 AM 19.3 66.74 0.104 7.15 9.87 8.24
8/29/2021 3:00:00 AM 19.28 66.704 0.105 7.17 4.25 8.24
8/29/2021 3:15:00 AM 19.2 66.56 0.105 7.09 4.58 8.22
8/29/2021 3:30:00 AM 19.19 66.542 0.105 7.17 4.07 8.29
8/29/2021 3:45:00 AM 19.19 66.542 0.105 7.18 3.87 8.29
8/29/2021 4:00:00 AM 19.16 66.488 0.105 7.21 4.04 8.32
8/29/2021 4:15:00 AM 19.08 66.344 0.105 7.13 3.96 8.27
8/29/2021 4:30:00 AM 19.05 66.29 0.104 7.23 4.13 8.34
8/29/2021 4:45:00 AM 19.01 66.218 0.104 7.13 3.78 8.29
8/29/2021 5:00:00 AM 18.97 66.146 0.104 7.08 3.96 8.28
8/29/2021 5:15:00 AM 19 66.2 0.104 7.12 3.96 8.33
8/29/2021 5:30:00 AM 18.99 66.182 0.103 7.17 3.97 8.35
8/29/2021 5:45:00 AM 18.89 66.002 0.103 7.13 4.36 8.28
8/29/2021 6:00:00 AM 18.91 66.038 0.103 7.19 4.11 8.37
8/29/2021 6:15:00 AM 18.93 66.074 0.103 7.24 4.11 8.42
8/29/2021 6:30:00 AM 18.86 65.948 0.102 7.2 4.03 8.37
8/29/2021 6:45:00 AM 18.84 65.912 0.102 7.17 4.1 8.33
8/29/2021 7:00:00 AM 18.86 65.948 0.102 7.21 4.55 8.45
8/29/2021 7:15:00 AM 18.86 65.948 0.102 7.24 4.12 8.5
8/29/2021 7:30:00 AM 18.82 65.876 0.102 7.24 4.06 8.53
8/29/2021 7:45:00 AM 18.83 65.894 0.102 7.25 3.9 8.59
8/29/2021 8:00:00 AM 18.79 65.82201 0.101 7.23 3.91 8.63
8/29/2021 8:15:00 AM 18.8 65.84 0.101 7.28 4.24 8.79
8/29/2021 8:30:00 AM 18.79 65.82201 0.101 7.21 3.91 8.82
8/29/2021 8:45:00 AM 18.79 65.82201 0.1 7.2 4.1 8.89
8/29/2021 9:00:00 AM 18.88 65.984 0.1 7.35 4.08 9.1
8/29/2021 9:15:00 AM 18.91 66.038 0.1 7.38 4.03 9.18
8/29/2021 9:30:00 AM 18.9 66.02 0.1 7.35 4.03 9.23
8/29/2021 9:45:00 AM 19.02 66.236 0.1 7.48 3.99 9.41
8/29/2021 10:00:00 AM 19.06 66.308 0.1 7.44 3.95 9.44
8/29/2021 10:15:00 AM 19.14 66.452 0.1 7.5 3.8 9.54
8/29/2021 10:30:00 AM 19.22 66.596 0.1 7.54 3.82 9.67
8/29/2021 10:45:00 AM 19.35 66.83 0.099 7.64 3.98 9.8
8/29/2021 11:00:00 AM 19.47 67.046 0.099 7.68 3.92 9.89
8/29/2021 11:15:00 AM 19.62 67.316 0.099 7.74 4.11 9.89
8/29/2021 11:30:00 AM 19.8 67.64 0.099 7.81 3.96 9.92
8/29/2021 11:45:00 AM 20.03 68.054 0.099 7.81 3.93 9.89
8/29/2021 12:00:00 PM 20.24 68.432 0.099 7.89 4.03 9.86
8/29/2021 12:15:00 PM 20.41 68.738 0.099 7.8 3.82 9.87
8/29/2021 12:30:00 PM 20.62 69.116 0.099 8 3.98 9.8
8/29/2021 12:45:00 PM 21.04 69.872 0.099 8.13 3.87 9.75
8/29/2021 1:00:00 PM 21.39 70.502 0.098 8.27 4.06 9.7
8/29/2021 1:15:00 PM 21.74 71.132 0.099 8.19 4.02 9.65
8/29/2021 1:30:00 PM 21.91 71.438 0.098 8.34 3.93 9.64
8/29/2021 1:45:00 PM 22.08 71.744 0.098 8.08 3.95 9.51
8/29/2021 2:00:00 PM 22.3 72.14 0.098 8.51 3.67 9.58
8/29/2021 2:15:00 PM 22.41 72.338 0.099 8.6 3.99 9.55
8/29/2021 2:30:00 PM 22.38 72.284 0.098 8.33 3.87 9.35
8/29/2021 2:45:00 PM 22.35 72.23 0.098 8.27 3.8 9.21
8/29/2021 3:00:00 PM 22.47 72.446 0.098 8.36 3.72 9.26
8/29/2021 3:15:00 PM 22.61 72.698 0.099 8.58 3.89 9.36
8/29/2021 3:30:00 PM 22.64 72.752 0.099 8.57 3.83 9.21
8/29/2021 3:45:00 PM 22.75 72.95 0.099 8.62 3.82 9.21
8/29/2021 4:00:00 PM 22.79 73.022 0.099 8.66 3.65 9.21
8/29/2021 4:15:00 PM 22.82 73.076 0.099 8.52 3.7 8.99
8/29/2021 4:30:00 PM 22.88 73.184 0.099 8.54 3.81 9.03
8/29/2021 4:45:00 PM 22.9 73.22 0.099 8.46 3.81 8.84
8/29/2021 5:00:00 PM 22.83 73.094 0.1 8.31 3.75 8.72
8/29/2021 5:15:00 PM 22.73 72.914 0.1 8.05 3.82 8.64
8/29/2021 5:30:00 PM 22.62 72.716 0.1 7.81 3.71 8.59
8/29/2021 5:45:00 PM 22.6 72.68 0.1 7.94 3.67 8.56
8/29/2021 6:00:00 PM 22.47 72.446 0.101 7.64 3.69 8.34
8/29/2021 6:15:00 PM 22.44 72.392 0.101 7.67 3.74 8.31
8/29/2021 6:30:00 PM 22.31 72.158 0.102 7.4 3.75 8.24
8/29/2021 6:45:00 PM 22.19 71.942 0.102 7.34 3.73 8.04
8/29/2021 7:00:00 PM 22.16 71.888 0.103 7.43 3.62 8.04
8/29/2021 7:15:00 PM 22.1 71.78 0.103 7.39 3.82 7.97
8/29/2021 7:30:00 PM 22.08 71.744 0.104 7.4 3.92 7.93
8/29/2021 7:45:00 PM 21.95 71.51 0.104 7.26 3.93 7.81
8/29/2021 8:00:00 PM 21.85 71.33 0.105 7.22 4.04 7.8
8/29/2021 8:15:00 PM 21.81 71.258 0.105 7.27 4.53 7.76
8/29/2021 8:30:00 PM 21.77 71.186 0.106 7.27 6.36 7.81
8/29/2021 8:45:00 PM 21.75 71.15 0.106 7.26 5.54 7.81
8/29/2021 9:00:00 PM 21.7 71.06 0.106 7.25 3.9 7.8
8/29/2021 9:15:00 PM 21.63 70.934 0.106 7.25 4.13 7.78
8/29/2021 9:30:00 PM 21.54 70.772 0.107 7.23 3.84 7.77
8/29/2021 9:45:00 PM 21.45 70.61 0.107 7.18 4.04 7.75
8/29/2021 10:00:00 PM 21.47 70.646 0.107 7.28 3.98 7.85
8/29/2021 10:15:00 PM 21.32 70.376 0.107 7.19 4.02 7.83
8/29/2021 10:30:00 PM 21.33 70.394 0.108 7.24 4.02 7.85
8/29/2021 10:45:00 PM 21.27 70.286 0.107 7.26 3.96 7.85
8/29/2021 11:00:00 PM 21.24 70.232 0.108 7.26 4.09 7.88
8/29/2021 11:15:00 PM 21.16 70.088 0.108 7.19 4.16 7.86
8/29/2021 11:30:00 PM 21.09 69.962 0.108 7.24 4.15 7.84
8/29/2021 11:45:00 PM 21.09 69.962 0.108 7.28 3.99 7.93
8/30/2021 12:00:00 AM 20.99 69.782 0.108 7.24 4.17 7.91
8/30/2021 12:15:00 AM 20.95 69.71 0.108 7.26 4.37 7.93
8/30/2021 12:30:00 AM 20.9 69.62 0.108 7.26 4.03 7.96
8/30/2021 12:45:00 AM 20.81 69.458 0.108 7.22 4 7.95
8/30/2021 1:00:00 AM 20.76 69.368 0.108 7.21 3.97 7.95
8/30/2021 1:15:00 AM 20.72 69.296 0.108 7.23 3.94 7.97
8/30/2021 1:30:00 AM 20.69 69.242 0.108 7.27 4.16 8.01
8/30/2021 1:45:00 AM 20.62 69.116 0.108 7.25 4.14 7.99
8/30/2021 2:00:00 AM 20.55 68.99 0.108 7.25 4.23 7.99
8/30/2021 2:15:00 AM 20.51 68.918 0.107 7.27 4.14 8.02
8/30/2021 2:30:00 AM 20.51 68.918 0.108 7.3 4.57 8.05
8/30/2021 2:45:00 AM 20.47 68.846 0.108 7.31 4.27 8.07
8/30/2021 3:00:00 AM 20.43 68.774 0.108 7.29 4.35 8.07
8/30/2021 3:15:00 AM 20.35 68.63 0.108 7.25 4.18 8.03
8/30/2021 3:30:00 AM 20.33 68.594 0.108 7.26 4.16 8.02
8/30/2021 3:45:00 AM 20.3 68.54 0.108 7.25 3.95 8.07
8/30/2021 4:00:00 AM 20.25 68.45 0.108 7.24 4.13 8.06
8/30/2021 4:15:00 AM 20.22 68.396 0.108 7.18 4.13 8.01
8/30/2021 4:30:00 AM 20.17 68.306 0.108 7.22 4.08 8.08
8/30/2021 4:45:00 AM 20.15 68.27 0.108 7.26 3.83 8.1
8/30/2021 5:00:00 AM 20.09 68.162 0.108 7.26 4.29 8.1
8/30/2021 5:15:00 AM 20.08 68.144 0.108 7.25 4.2 8.1
8/30/2021 5:30:00 AM 20.03 68.054 0.108 7.23 4.2 8.1
8/30/2021 5:45:00 AM 20 68 0.108 7.25 4.47 8.1
8/30/2021 6:00:00 AM 19.98 67.964 0.108 7.25 4.4 8.12
8/30/2021 6:15:00 AM 19.9 67.82 0.108 7.2 4.24 8.05
8/30/2021 6:30:00 AM 19.91 67.838 0.108 7.23 4.15 8.14
8/30/2021 6:45:00 AM 19.89 67.802 0.108 7.29 5.33 8.18
8/30/2021 7:00:00 AM 19.8 67.64 0.108 7.23 4.44 8.19
8/30/2021 7:15:00 AM 19.8 67.64 0.108 7.27 4.24 8.28
8/30/2021 7:30:00 AM 19.82 67.676 0.108 7.33 4.38 8.31
8/30/2021 7:45:00 AM 19.82 67.676 0.108 7.32 4.26 8.46
8/30/2021 8:00:00 AM 19.81 67.658 0.108 7.29 4.17 8.49
8/30/2021 8:15:00 AM 19.82 67.676 0.108 7.32 4.03 8.51
8/30/2021 8:30:00 AM 19.84 67.712 0.108 7.37 3.93 8.58
8/30/2021 8:45:00 AM 19.77 67.586 0.108 7.24 3.96 8.45
8/30/2021 9:00:00 AM 19.84 67.712 0.108 7.39 3.79 8.7
8/30/2021 9:15:00 AM 19.84 67.712 0.108 7.38 4.02 8.74
8/30/2021 9:30:00 AM 19.84 67.712 0.107 7.41 4.18 8.84
8/30/2021 9:45:00 AM 19.92 67.856 0.107 7.5 4.1 9.01
8/30/2021 10:00:00 AM 19.96 67.92799 0.107 7.46 3.95 9.06
8/30/2021 10:15:00 AM 19.98 67.964 0.107 7.53 4.06 9.04
8/30/2021 10:30:00 AM 20.07 68.126 0.106 7.56 5.44 9.21
8/30/2021 10:45:00 AM 20.14 68.252 0.105 7.52 4 9.22
8/30/2021 11:00:00 AM 20.33 68.594 0.105 7.69 4.32 9.51
8/30/2021 11:15:00 AM 20.5 68.9 0.105 7.72 3.87 9.49
8/30/2021 11:30:00 AM 20.64 69.152 0.104 7.75 3.93 9.55
8/30/2021 11:45:00 AM 20.79 69.422 0.105 7.83 3.86 9.51
8/30/2021 12:00:00 PM 20.92 69.656 0.104 7.89 3.78 9.45
8/30/2021 12:15:00 PM 21.18 70.124 0.104 7.98 4 9.55
8/30/2021 12:30:00 PM 21.41 70.538 0.104 8.15 3.81 9.64
8/30/2021 12:45:00 PM 21.64 70.952 0.103 8.34 3.93 9.65
8/30/2021 1:00:00 PM 21.87 71.366 0.103 8.33 4.01 9.67
8/30/2021 1:15:00 PM 22.08 71.744 0.103 8.48 3.88 9.49
8/30/2021 1:30:00 PM 22.27 72.086 0.103 8.46 4.01 9.44
8/30/2021 1:45:00 PM 22.55 72.59 0.103 8.66 3.71 9.42
8/30/2021 2:00:00 PM 22.59 72.662 0.102 8.45 4.85 9.12
8/30/2021 2:15:00 PM 22.46 72.42799 0.1 7.97 4.58 8.72
8/30/2021 2:30:00 PM 22.67 72.806 0.101 8.33 4.15 9
8/30/2021 2:45:00 PM 22.8 73.04 0.101 8.31 4.04 9.1
8/30/2021 3:00:00 PM 22.95 73.31 0.101 8.38 3.85 9.12
8/30/2021 3:15:00 PM 23.02 73.436 0.101 8.31 4.09 9.01
8/30/2021 3:30:00 PM 23.29 73.922 0.101 8.46 3.97 9.09
8/30/2021 3:45:00 PM 23.33 73.994 0.101 8.57 3.83 9.04
8/30/2021 4:00:00 PM 23.54 74.372 0.101 8.64 3.93 9
8/30/2021 4:15:00 PM 23.56 74.408 0.102 8.61 3.83 8.85
8/30/2021 4:30:00 PM 23.51 74.318 0.102 8.49 3.92 8.82
8/30/2021 4:45:00 PM 23.44 74.192 0.102 8.48 3.85 8.82
8/30/2021 5:00:00 PM 23.4 74.12 0.102 8.33 3.77 8.7
8/30/2021 5:15:00 PM 23.38 74.084 0.103 8.34 3.81 8.68
8/30/2021 5:30:00 PM 23.32 73.976 0.103 8.29 3.82 8.6
8/30/2021 5:45:00 PM 23.22 73.796 0.103 8 3.71 8.49
8/30/2021 6:00:00 PM 23.21 73.778 0.104 8 3.91 8.41
8/30/2021 6:15:00 PM 23.19 73.742 0.104 7.84 3.75 8.31
8/30/2021 6:30:00 PM 23.06 73.508 0.104 7.66 3.78 8.15
8/30/2021 6:45:00 PM 22.95 73.31 0.104 7.48 3.81 8
8/30/2021 7:00:00 PM 22.89 73.202 0.105 7.54 3.82 8.04
8/30/2021 7:15:00 PM 22.82 73.076 0.106 7.5 3.97 7.96
8/30/2021 7:30:00 PM 22.76 72.968 0.106 7.44 4 7.86
8/30/2021 7:45:00 PM 22.66 72.788 0.107 7.36 3.88 7.79
8/30/2021 8:00:00 PM 22.57 72.626 0.107 7.37 3.91 7.71
8/30/2021 8:15:00 PM 22.49 72.482 0.108 7.36 3.98 7.68
8/30/2021 8:30:00 PM 22.4 72.32 0.108 7.33 4.01 7.61
8/30/2021 8:45:00 PM 22.29 72.122 0.108 7.3 4.06 7.63
8/30/2021 9:00:00 PM 22.18 71.924 0.108 7.28 4.08 7.65
8/30/2021 9:15:00 PM 22.14 71.852 0.109 7.34 3.97 7.66
8/30/2021 9:30:00 PM 22.04 71.672 0.109 7.3 4.27 7.65
8/30/2021 9:45:00 PM 21.97 71.546 0.11 7.31 4.18 7.69
8/30/2021 10:00:00 PM 21.86 71.348 0.11 7.28 3.89 7.69
8/30/2021 10:15:00 PM 21.78 71.204 0.11 7.29 4.01 7.69
8/30/2021 10:30:00 PM 21.7 71.06 0.11 7.29 3.95 7.65
8/30/2021 10:45:00 PM 21.61 70.898 0.11 7.26 4.07 7.72
8/30/2021 11:00:00 PM 21.56 70.808 0.11 7.28 4.08 7.74
8/30/2021 11:15:00 PM 21.5 70.7 0.11 7.3 4.24 7.73
8/30/2021 11:30:00 PM 21.45 70.61 0.11 7.27 4.25 7.76
8/30/2021 11:45:00 PM 21.39 70.502 0.11 7.28 4.24 7.75
8/31/2021 12:00:00 AM 21.3 70.34 0.11 7.24 4.06 7.74
8/31/2021 12:15:00 AM 21.26 70.268 0.11 7.26 4.1 7.68
8/31/2021 12:30:00 AM 21.22 70.196 0.11 7.3 3.96 7.82
8/31/2021 12:45:00 AM 21.14 70.052 0.11 7.3 4.26 7.82
8/31/2021 1:00:00 AM 21.11 69.998 0.11 7.32 4.29 7.86
8/31/2021 1:15:00 AM 21.03 69.854 0.11 7.27 4.01 7.83
8/31/2021 1:30:00 AM 20.97 69.746 0.11 7.3 4.26 7.88
8/31/2021 1:45:00 AM 20.92 69.656 0.11 7.32 4.23 7.82
8/31/2021 2:00:00 AM 20.85 69.53 0.11 7.33 4.04 7.92
8/31/2021 2:15:00 AM 20.69 69.242 0.11 7.23 4.17 7.84
8/31/2021 2:30:00 AM 20.68 69.224 0.11 7.31 4.17 7.93
8/31/2021 2:45:00 AM 20.63 69.134 0.11 7.32 3.96 7.96
8/31/2021 3:00:00 AM 20.57 69.026 0.11 7.31 4.34 7.97
8/31/2021 3:15:00 AM 20.52 68.936 0.111 7.34 4.22 7.98
8/31/2021 3:30:00 AM 20.43 68.774 0.11 7.3 4.15 7.97
8/31/2021 3:45:00 AM 20.38 68.684 0.11 7.33 4.26 7.96
8/31/2021 4:00:00 AM 20.33 68.594 0.11 7.31 4.12 8
8/31/2021 4:15:00 AM 20.3 68.54 0.11 7.33 4.21 8.03
8/31/2021 4:30:00 AM 20.2 68.36 0.11 7.26 4.26 8
8/31/2021 4:45:00 AM 20.17 68.306 0.11 7.28 4.37 8.05
8/31/2021 5:00:00 AM 20.09 68.162 0.11 7.31 4.42 8.07
8/31/2021 5:15:00 AM 20.03 68.054 0.11 7.31 4.28 8.08
8/31/2021 5:30:00 AM 19.97 67.946 0.11 7.3 4.2 8.09
8/31/2021 5:45:00 AM 19.87 67.766 0.11 7.26 4.43 8.08
8/31/2021 6:00:00 AM 19.81 67.658 0.11 7.28 4.45 8.11
8/31/2021 6:15:00 AM 19.73 67.514 0.11 7.28 4.17 8.12
8/31/2021 6:30:00 AM 19.7 67.46 0.11 7.29 4.21 8.15
8/31/2021 6:45:00 AM 19.62 67.316 0.11 7.28 4.39 8.17
8/31/2021 7:00:00 AM 19.56 67.208 0.11 7.32 4.57 8.21
8/31/2021 7:15:00 AM 19.5 67.1 0.111 7.3 4.18 8.28
8/31/2021 7:30:00 AM 19.45 67.01 0.111 7.34 4.29 8.35
8/31/2021 7:45:00 AM 19.39 66.902 0.11 7.32 4.24 8.39
8/31/2021 8:00:00 AM 19.34 66.812 0.111 7.28 4.35 8.47
8/31/2021 8:15:00 AM 19.33 66.794 0.11 7.35 4.2 8.59
8/31/2021 8:30:00 AM 19.29 66.722 0.11 7.37 4.12 8.72
8/31/2021 8:45:00 AM 19.29 66.722 0.11 7.39 4.21 8.89
8/31/2021 9:00:00 AM 19.28 66.704 0.11 7.44 4.11 9.05
8/31/2021 9:15:00 AM 19.31 66.758 0.109 7.5 4 9.25
8/31/2021 9:30:00 AM 19.32 66.776 0.109 7.55 4.09 9.42
8/31/2021 9:45:00 AM 19.42 66.956 0.109 7.63 4.31 9.54
8/31/2021 10:00:00 AM 19.47 67.046 0.108 7.66 4.25 9.64
8/31/2021 10:15:00 AM 19.58 67.244 0.108 7.78 4.22 9.76
8/31/2021 10:30:00 AM 19.68 67.424 0.107 7.82 4.33 9.83
8/31/2021 10:45:00 AM 19.77 67.586 0.107 7.88 4 9.85
8/31/2021 11:00:00 AM 19.89 67.802 0.106 7.98 4.3 9.87
8/31/2021 11:15:00 AM 19.97 67.946 0.106 8.04 4.06 9.89
8/31/2021 11:30:00 AM 20.07 68.126 0.106 8.13 4.1 9.86
8/31/2021 11:45:00 AM 20.21 68.378 0.105 8.31 3.92 9.93
8/31/2021 12:00:00 PM 20.31 68.558 0.105 8.35 4.12 9.92
8/31/2021 12:15:00 PM 20.46 68.828 0.105 8.45 3.94 9.89
8/31/2021 12:30:00 PM 20.67 69.206 0.105 8.55 3.9 9.9
8/31/2021 12:45:00 PM 20.82 69.476 0.104 8.5 3.88 9.75
8/31/2021 1:00:00 PM 20.97 69.746 0.104 8.59 3.86 9.67
8/31/2021 1:15:00 PM 21.14 70.052 0.104 8.53 4.1 9.67
8/31/2021 1:30:00 PM 21.4 70.52 0.104 8.71 4.38 9.7
8/31/2021 1:45:00 PM 21.55 70.79 0.104 8.81 4.05 9.66
8/31/2021 2:00:00 PM 21.59 70.862 0.104 8.75 3.81 9.53
8/31/2021 2:15:00 PM 21.64 70.952 0.103 8.52 4.07 9.26
8/31/2021 2:30:00 PM 21.78 71.204 0.103 8.78 3.95 9.39
8/31/2021 2:45:00 PM 21.84 71.312 0.104 8.8 3.73 9.3
8/31/2021 3:00:00 PM 21.88 71.384 0.103 8.65 3.91 9.22
8/31/2021 3:15:00 PM 22.02 71.636 0.103 8.74 3.91 9.24
8/31/2021 3:30:00 PM 22.1 71.78 0.103 8.74 3.87 9.25
8/31/2021 3:45:00 PM 22.24 72.032 0.103 8.85 3.96 9.29
8/31/2021 4:00:00 PM 22.21 71.978 0.103 8.74 3.83 9.24
8/31/2021 4:15:00 PM 22.23 72.014 0.103 8.82 3.97 9.2
8/31/2021 4:30:00 PM 22.27 72.086 0.103 8.76 3.84 9.15
8/31/2021 4:45:00 PM 22.23 72.014 0.103 8.74 3.9 9.07
8/31/2021 5:00:00 PM 22.26 72.068 0.104 8.69 3.98 8.99
8/31/2021 5:15:00 PM 22.24 72.032 0.104 8.63 3.98 8.87
8/31/2021 5:30:00 PM 22.1 71.78 0.104 8.27 3.95 8.74
8/31/2021 5:45:00 PM 22.12 71.816 0.104 8.4 3.86 8.69
8/31/2021 6:00:00 PM 22.01 71.618 0.105 8.08 3.78 8.51
8/31/2021 6:15:00 PM 21.93 71.474 0.105 7.97 3.84 8.45
8/31/2021 6:30:00 PM 21.81 71.258 0.105 7.73 3.94 8.31
8/31/2021 6:45:00 PM 21.76 71.168 0.106 7.78 4.03 8.32
8/31/2021 7:00:00 PM 21.65 70.97 0.106 7.59 3.84 8.22
8/31/2021 7:15:00 PM 21.58 70.844 0.107 7.6 4.08 8.16
8/31/2021 7:30:00 PM 21.44 70.592 0.107 7.51 3.96 8.09
8/31/2021 7:45:00 PM 21.41 70.538 0.107 7.49 3.92 8.01
8/31/2021 8:00:00 PM 21.31 70.358 0.108 7.49 4.07 7.96
8/31/2021 8:15:00 PM 21.21 70.17799 0.108 7.42 4.07 7.9
8/31/2021 8:30:00 PM 21.12 70.016 0.109 7.35 4.02 7.85
8/31/2021 8:45:00 PM 21.05 69.89 0.109 7.38 4.09 7.85
8/31/2021 9:00:00 PM 20.96 69.728 0.11 7.33 4.18 7.82
8/31/2021 9:15:00 PM 20.88 69.584 0.11 7.3 4 7.84
8/31/2021 9:30:00 PM 20.83 69.494 0.111 7.36 4.15 7.87
8/31/2021 9:45:00 PM 20.76 69.368 0.111 7.35 4.2 7.87
8/31/2021 10:00:00 PM 20.66 69.188 0.111 7.31 4 7.86
8/31/2021 10:15:00 PM 20.53 68.954 0.111 7.28 4.2 7.86
8/31/2021 10:30:00 PM 20.52 68.936 0.111 7.32 4.48 7.94
8/31/2021 10:45:00 PM 20.38 68.684 0.111 7.27 4.16 7.87
8/31/2021 11:00:00 PM 20.36 68.648 0.112 7.3 4.23 7.94
8/31/2021 11:15:00 PM 20.3 68.54 0.112 7.31 4.15 7.94
8/31/2021 11:30:00 PM 20.28 68.504 0.112 7.34 4.48 7.99
8/31/2021 11:45:00 PM 20.21 68.378 0.112 7.31 4.09 7.99
9/1/2021 12:00:00 AM 20.18 68.324 0.111 7.35 4.17 8
9/1/2021 12:15:00 AM 20.16 68.288 0.112 7.36 4.19 8.04
9/1/2021 12:30:00 AM 20.1 68.18 0.112 7.34 4.03 8.01
9/1/2021 12:45:00 AM 20.05 68.09 0.111 7.31 4.09 8.01
9/1/2021 1:00:00 AM 20 68 0.112 7.25 4.16 8.01
9/1/2021 1:15:00 AM 19.99 67.982 0.112 7.32 3.95 8.04
9/1/2021 1:30:00 AM 19.93 67.874 0.112 7.3 4.03 8.02
9/1/2021 1:45:00 AM 19.89 67.802 0.112 7.28 4.17 8.05
9/1/2021 2:00:00 AM 19.85 67.73 0.112 7.29 4.02 8.05
9/1/2021 2:15:00 AM 19.79 67.622 0.112 7.28 4.33 8.03
9/1/2021 2:30:00 AM 19.76 67.568 0.112 7.3 3.98 8.07
9/1/2021 2:45:00 AM 19.68 67.424 0.112 7.27 4.15 8.05
9/1/2021 3:00:00 AM 19.67 67.406 0.112 7.33 4.1 8.11
9/1/2021 3:15:00 AM 19.58 67.244 0.112 7.3 4.28 8.09
9/1/2021 3:30:00 AM 19.52 67.136 0.113 7.31 4.19 8.09
9/1/2021 3:45:00 AM 19.5 67.1 0.114 7.35 4.32 8.14
9/1/2021 4:00:00 AM 19.44 66.992 0.114 7.33 4.17 8.14
9/1/2021 4:15:00 AM 19.37 66.866 0.115 7.3 4.11 8.14
9/1/2021 4:30:00 AM 19.32 66.776 0.115 7.32 3.98 8.17
9/1/2021 4:45:00 AM 19.28 66.704 0.115 7.32 4.13 8.16
9/1/2021 5:00:00 AM 19.22 66.596 0.116 7.29 4.02 8.14
9/1/2021 5:15:00 AM 19.19 66.542 0.115 7.33 4.11 8.19
9/1/2021 5:30:00 AM 19.15 66.47 0.115 7.32 4.38 8.2
9/1/2021 5:45:00 AM 19.11 66.398 0.115 7.34 4.2 8.21
9/1/2021 6:00:00 AM 19.06 66.308 0.115 7.32 4.11 8.2
9/1/2021 6:15:00 AM 18.99 66.182 0.114 7.27 4.31 8.17
9/1/2021 6:30:00 AM 18.96 66.128 0.114 7.3 4.19 8.21
9/1/2021 6:45:00 AM 18.94 66.092 0.114 7.36 4.25 8.28
9/1/2021 7:00:00 AM 18.87 65.966 0.113 7.27 4.21 8.22
9/1/2021 7:15:00 AM 18.88 65.984 0.114 7.36 4.37 8.33
9/1/2021 7:30:00 AM 18.79 65.82201 0.113 7.3 4.26 8.33
9/1/2021 7:45:00 AM 18.77 65.786 0.113 7.34 4.16 8.38
9/1/2021 8:00:00 AM 18.72 65.696 0.113 7.35 4.08 8.41
9/1/2021 8:15:00 AM 18.7 65.66 0.112 7.35 4.12 8.46
9/1/2021 8:30:00 AM 18.67 65.606 0.112 7.37 4.07 8.53
9/1/2021 8:45:00 AM 18.62 65.516 0.112 7.35 3.96 8.56
9/1/2021 9:00:00 AM 18.61 65.498 0.112 7.39 4.09 8.62
9/1/2021 9:15:00 AM 18.6 65.48 0.111 7.4 4.31 8.69
9/1/2021 9:30:00 AM 18.57 65.426 0.111 7.38 4 8.78
9/1/2021 9:45:00 AM 18.58 65.444 0.11 7.46 4 8.89
9/1/2021 10:00:00 AM 18.56 65.408 0.11 7.42 4.11 9.01
9/1/2021 10:15:00 AM 18.58 65.444 0.109 7.48 4.1 9.19
9/1/2021 10:30:00 AM 18.62 65.516 0.109 7.56 4.19 9.31
9/1/2021 10:45:00 AM 18.64 65.552 0.108 7.58 4.05 9.37
9/1/2021 11:00:00 AM 18.67 65.606 0.108 7.61 3.93 9.48
9/1/2021 11:15:00 AM 18.68 65.624 0.107 7.6 4.88 9.52
9/1/2021 11:30:00 AM 18.7 65.66 0.107 7.6 4.01 9.47
9/1/2021 11:45:00 AM 18.73 65.714 0.107 7.65 3.99 9.54
9/1/2021 12:00:00 PM 18.7 65.66 0.106 7.56 4.22 9.48
9/1/2021 12:15:00 PM 18.75 65.75 0.106 7.65 4.07 9.43
9/1/2021 12:30:00 PM 18.76 65.768 0.106 7.61 4.14 9.39
9/1/2021 12:45:00 PM 18.77 65.786 0.105 7.57 3.94 9.45
9/1/2021 1:00:00 PM 18.77 65.786 0.105 7.57 4.08 9.32
9/1/2021 1:15:00 PM 18.75 65.75 0.105 7.54 4.06 9.26
9/1/2021 1:30:00 PM 18.79 65.82201 0.104 7.58 4.87 9.29
9/1/2021 1:45:00 PM 18.76 65.768 0.104 7.47 4.06 9.24
9/1/2021 2:00:00 PM 18.75 65.75 0.104 7.45 4.4 9.09
9/1/2021 2:15:00 PM 18.74 65.732 0.104 7.43 4.54 9.14
9/1/2021 2:30:00 PM 18.73 65.714 0.103 7.46 4.35 9.19
9/1/2021 2:45:00 PM 18.67 65.606 0.102 7.33 4.38 9.05
9/1/2021 3:00:00 PM 18.68 65.624 0.103 7.44 4.43 9.11
9/1/2021 3:15:00 PM 18.65 65.57 0.103 7.36 4.22 9.05
9/1/2021 3:30:00 PM 18.65 65.57 0.103 7.28 4.24 9.03
9/1/2021 3:45:00 PM 18.61 65.498 0.102 7.33 4.55 9.01
9/1/2021 4:00:00 PM 18.59 65.462 0.102 7.35 4.33 8.99
9/1/2021 4:15:00 PM 18.58 65.444 0.102 7.3 4.39 8.97
9/1/2021 4:30:00 PM 18.57 65.426 0.102 7.33 4.28 8.92
9/1/2021 4:45:00 PM 18.58 65.444 0.102 7.4 4.07 8.89
9/1/2021 5:00:00 PM 18.54 65.372 0.102 7.37 4.58 8.82
9/1/2021 5:15:00 PM 18.54 65.372 0.102 7.42 4.39 8.75
9/1/2021 5:30:00 PM 18.53 65.354 0.102 7.42 4.68 8.71
9/1/2021 5:45:00 PM 18.53 65.354 0.102 7.47 4.62 8.7
9/1/2021 6:00:00 PM 18.5 65.3 0.102 7.46 5.09 8.68
9/1/2021 6:15:00 PM 18.47 65.246 0.102 7.46 5.53 8.66
9/1/2021 6:30:00 PM 18.44 65.192 0.102 7.46 5.89 8.66
9/1/2021 6:45:00 PM 18.4 65.12 0.102 7.47 6.13 8.65
9/1/2021 7:00:00 PM 18.35 65.03 0.102 7.46 6.39 8.65
9/1/2021 7:15:00 PM 18.29 64.922 0.102 7.44 6.66 8.65
9/1/2021 7:30:00 PM 18.23 64.814 0.101 7.43 7.46 8.65
9/1/2021 7:45:00 PM 18.16 64.688 0.101 7.4 7.58 8.64
9/1/2021 8:00:00 PM 18.11 64.598 0.1 7.42 8.7 8.68
9/1/2021 8:15:00 PM 18.06 64.508 0.1 7.44 9.46 8.71
9/1/2021 8:30:00 PM 18 64.4 0.1 7.44 10.19 8.72
9/1/2021 8:45:00 PM 17.95 64.31 0.099 7.42 10.47 8.75
9/1/2021 9:00:00 PM 17.9 64.22 0.099 7.45 10.96 8.77
9/1/2021 9:15:00 PM 17.84 64.112 0.099 7.45 14.09 8.8
9/1/2021 9:30:00 PM 17.77 63.986 0.099 7.44 34.61 8.83
9/1/2021 9:45:00 PM 17.7 63.86 0.098 7.44 19.71 8.87
9/1/2021 10:00:00 PM 17.63 63.734 0.097 7.45 21.31 8.89
9/1/2021 10:15:00 PM 17.56 63.608 0.097 7.41 22.96 8.92
9/1/2021 10:30:00 PM 17.49 63.482 0.096 7.42 26.59 8.94
9/1/2021 10:45:00 PM 17.42 63.356 0.095 7.42 28.31 8.97
9/1/2021 11:00:00 PM 17.36 63.248 0.094 7.41 31.91 8.99
9/1/2021 11:15:00 PM 17.31 63.158 0.094 7.41 32.57 9.01
9/1/2021 11:30:00 PM 17.28 63.104 0.094 7.42 31.29 9.03
9/1/2021 11:45:00 PM 17.25 63.05 0.094 7.42 37.38 9.04
9/2/2021 12:00:00 AM 17.23 63.014 0.093 7.41 32.85 9.04
9/2/2021 12:15:00 AM 17.21 62.978 0.092 7.4 36.1 9.06
9/2/2021 12:30:00 AM 17.19 62.942 0.09 7.4 32.94 9.06
9/2/2021 12:45:00 AM 17.17 62.906 0.089 7.39 32.41 9.07
9/2/2021 1:00:00 AM 17.15 62.87 0.088 7.38 30.63 9.08
9/2/2021 1:15:00 AM 17.13 62.834 0.086 7.36 32.73 9.08
9/2/2021 1:30:00 AM 17.11 62.798 0.085 7.37 26.42 9.1
9/2/2021 1:45:00 AM 17.09 62.762 0.084 7.36 24.66 9.09
9/2/2021 2:00:00 AM 17.08 62.744 0.084 7.36 23.01 9.1
9/2/2021 2:15:00 AM 17.05 62.69 0.083 7.35 21.55 9.11
9/2/2021 2:30:00 AM 17.03 62.654 0.083 7.35 22.1 9.12
9/2/2021 2:45:00 AM 17 62.6 0.082 7.35 22.99 9.12
9/2/2021 3:00:00 AM 16.97 62.546 0.082 7.35 22.7 9.13
9/2/2021 3:15:00 AM 16.95 62.51 0.082 7.34 21.48 9.13
9/2/2021 3:30:00 AM 16.91 62.438 0.083 7.34 20.8 9.14
9/2/2021 3:45:00 AM 16.87 62.366 0.082 7.33 21.26 9.15
9/2/2021 4:00:00 AM 16.83 62.294 0.081 7.3 25.36 9.15
9/2/2021 4:15:00 AM 16.8 62.24 0.08 7.32 28.81 9.15
9/2/2021 4:30:00 AM 16.77 62.186 0.079 7.32 29.25 9.16
9/2/2021 4:45:00 AM 16.75 62.15 0.079 7.33 26.79 9.16
9/2/2021 5:00:00 AM 16.74 62.132 0.079 7.33 23.71 9.16
9/2/2021 5:15:00 AM 16.72 62.096 0.079 7.33 20.31 9.16
9/2/2021 5:30:00 AM 16.69 62.042 0.08 7.33 18.16 9.17
9/2/2021 5:45:00 AM 16.66 61.988 0.08 7.32 16.97 9.18
9/2/2021 6:00:00 AM 16.62 61.916 0.08 7.32 15.52 9.18
9/2/2021 6:15:00 AM 16.59 61.862 0.081 7.32 14.36 9.19
9/2/2021 6:30:00 AM 16.55 61.79 0.081 7.32 13.62 9.21
9/2/2021 6:45:00 AM 16.52 61.736 0.081 7.32 13.16 9.22
9/2/2021 7:00:00 AM 16.47 61.646 0.081 7.32 12.41 9.24
9/2/2021 7:15:00 AM 16.44 61.592 0.081 7.33 11.62 9.26
9/2/2021 7:30:00 AM 16.4 61.52 0.082 7.33 11.14 9.27
9/2/2021 7:45:00 AM 16.35 61.43 0.082 7.33 10.4 9.29
9/2/2021 8:00:00 AM 16.32 61.376 0.082 7.34 9.9 9.33
9/2/2021 8:15:00 AM 16.31 61.358 0.082 7.35 9.19 9.35
9/2/2021 8:30:00 AM 16.29 61.322 0.082 7.37 9.09 9.38
9/2/2021 8:45:00 AM 16.29 61.322 0.082 7.38 8.55 9.42
9/2/2021 9:00:00 AM 16.3 61.34 0.083 7.41 8.53 9.45
9/2/2021 9:15:00 AM 16.33 61.394 0.083 7.43 8.11 9.49
9/2/2021 9:30:00 AM 16.37 61.466 0.083 7.45 8.02 9.52
9/2/2021 9:45:00 AM 16.43 61.574 0.083 7.48 7.82 9.56
9/2/2021 10:00:00 AM 16.51 61.718 0.083 7.5 7.53 9.59
9/2/2021 10:15:00 AM 16.6 61.88 0.083 7.53 7.52 9.62
9/2/2021 10:30:00 AM 16.69 62.042 0.083 7.53 7.21 9